Provisional Data: West Branch Pine Creek near Galeton, PA


Please select a monitoring station.
Please select start date.
Please select start date.

Toggle Unit: C/F Toggle Unit: C/F
Sample Time Temperature (C) Temperature (F) Specific Conductivity (mS/cm) pH   Turbidity (NTU+) DO (mg/L)
3/23/2021 12:00:00 AM 5.78 42.404 0.035 6.62 2.54 11.95
3/23/2021 12:15:00 AM 5.69 42.242 0.035 6.62 2.54 11.98
3/23/2021 12:30:00 AM 5.61 42.098 0.035 6.64 2.56 12.01
3/23/2021 12:45:00 AM 5.54 41.972 0.036 6.64 2.6 12.03
3/23/2021 1:00:00 AM 5.47 41.846 0.035 6.63 2.55 12.06
3/23/2021 1:15:00 AM 5.4 41.72 0.036 6.63 2.45 12.09
3/23/2021 1:30:00 AM 5.33 41.594 0.038 6.63 2.47 12.1
3/23/2021 1:45:00 AM 5.26 41.468 0.038 6.68 2.47 12.13
3/23/2021 2:00:00 AM 5.19 41.342 0.038 6.68 2.53 12.15
3/23/2021 2:15:00 AM 5.12 41.216 0.038 6.68 2.43 12.17
3/23/2021 2:30:00 AM 5.06 41.108 0.038 6.67 2.51 12.19
3/23/2021 2:45:00 AM 5 41 0.038 6.66 2.42 12.21
3/23/2021 3:00:00 AM 4.94 40.892 0.038 6.65 2.47 12.23
3/23/2021 3:15:00 AM 4.89 40.802 0.038 6.65 2.45 12.25
3/23/2021 3:30:00 AM 4.84 40.712 0.038 6.65 2.38 12.26
3/23/2021 3:45:00 AM 4.8 40.64 0.038 6.64 2.35 12.27
3/23/2021 4:00:00 AM 4.75 40.55 0.038 6.64 2.45 12.29
3/23/2021 4:15:00 AM 4.71 40.478 0.038 6.62 2.45 12.3
3/23/2021 4:30:00 AM 4.67 40.406 0.038 6.63 2.51 12.32
3/23/2021 4:45:00 AM 4.63 40.334 0.038 6.63 2.45 12.33
3/23/2021 5:00:00 AM 4.58 40.244 0.038 6.63 2.44 12.34
3/23/2021 5:15:00 AM 4.54 40.172 0.038 6.63 2.42 12.35
3/23/2021 5:30:00 AM 4.5 40.1 0.038 6.62 2.38 12.37
3/23/2021 5:45:00 AM 4.46 40.028 0.038 6.63 2.45 12.39
3/23/2021 6:00:00 AM 4.42 39.956 0.038 6.64 2.45 12.4
3/23/2021 6:15:00 AM 4.38 39.884 0.038 6.62 2.37 12.41
3/23/2021 6:30:00 AM 4.34 39.812 0.038 6.62 2.41 12.43
3/23/2021 6:45:00 AM 4.3 39.74 0.038 6.62 2.42 12.44
3/23/2021 7:00:00 AM 4.26 39.668 0.038 6.63 2.53 12.45
3/23/2021 7:15:00 AM 4.23 39.614 0.038 6.63 2.45 12.47
3/23/2021 7:30:00 AM 4.2 39.56 0.038 6.63 2.41 12.5
3/23/2021 7:45:00 AM 4.18 39.524 0.038 6.64 2.38 12.53
3/23/2021 8:00:00 AM 4.16 39.488 0.038 6.65 2.39 12.57
3/23/2021 8:15:00 AM 4.15 39.47 0.038 6.65 2.42 12.6
3/23/2021 8:30:00 AM 4.14 39.452 0.038 6.67 2.38 12.64
3/23/2021 8:45:00 AM 4.15 39.47 0.038 6.69 2.39 12.67
3/23/2021 9:00:00 AM 4.17 39.506 0.038 6.71 2.45 12.69
3/23/2021 9:15:00 AM 4.21 39.578 0.038 6.73 2.36 12.71
3/23/2021 9:30:00 AM 4.26 39.668 0.038 6.73 2.35 12.73
3/23/2021 9:45:00 AM 4.32 39.776 0.038 6.75 2.38 12.73
3/23/2021 10:00:00 AM 4.4 39.92 0.038 6.75 2.33 12.72
3/23/2021 10:15:00 AM 4.5 40.1 0.038 6.78 2.3 12.71
3/23/2021 10:30:00 AM 4.62 40.316 0.038 6.79 2.36 12.7
3/23/2021 10:45:00 AM 4.74 40.532 0.038 6.8 2.3 12.68
3/23/2021 11:00:00 AM 4.89 40.802 0.038 6.82 2.29 12.66
3/23/2021 11:15:00 AM 5.05 41.09 0.038 6.83 2.32 12.62
3/23/2021 11:30:00 AM 5.23 41.414 0.038 6.84 2.32 12.59
3/23/2021 11:45:00 AM 5.41 41.738 0.038 6.86 2.33 12.55
3/23/2021 12:00:00 PM 5.6 42.08 0.037 6.88 2.25 12.5
3/23/2021 12:15:00 PM 5.8 42.44 0.037 6.87 2.3 12.45
3/23/2021 12:30:00 PM 5.99 42.782 0.037 6.89 2.42 12.4
3/23/2021 12:45:00 PM 6.19 43.142 0.037 6.89 2.26 12.35
3/23/2021 1:00:00 PM 6.36 43.448 0.037 6.9 2.28 12.29
3/23/2021 1:15:00 PM 6.57 43.826 0.037 6.9 2.24 12.23
3/23/2021 1:30:00 PM 6.74 44.132 0.037 6.91 2.3 12.18
3/23/2021 1:45:00 PM 6.96 44.528 0.037 6.91 2.24 12.12
3/23/2021 2:00:00 PM 7.11 44.798 0.037 6.92 2.32 12.06
3/23/2021 2:15:00 PM 7.28 45.104 0.037 6.92 2.33 12.01
3/23/2021 2:30:00 PM 7.41 45.338 0.037 6.93 2.31 11.96
3/23/2021 2:45:00 PM 7.55 45.59 0.037 6.93 2.29 11.9
3/23/2021 3:00:00 PM 7.67 45.806 0.037 6.93 2.35 11.87
3/23/2021 3:15:00 PM 7.78 46.004 0.037 6.95 2.38 11.84
3/23/2021 3:30:00 PM 7.86 46.148 0.037 6.95 2.34 11.79
3/23/2021 3:45:00 PM 7.92 46.256 0.037 6.93 2.36 11.75
3/23/2021 4:00:00 PM 7.98 46.364 0.037 6.93 2.39 11.74
3/23/2021 4:15:00 PM 8.03 46.454 0.037 6.92 2.4 11.7
3/23/2021 4:30:00 PM 8.06 46.508 0.037 6.93 2.38 11.69
3/23/2021 4:45:00 PM 8.1 46.58 0.037 6.92 2.57 11.67
3/23/2021 5:00:00 PM 8.12 46.616 0.037 6.92 2.42 11.65
3/23/2021 5:15:00 PM 8.15 46.67 0.037 6.91 2.44 11.64
3/23/2021 5:30:00 PM 8.14 46.652 0.037 6.91 2.47 11.62
3/23/2021 5:45:00 PM 8.12 46.616 0.037 6.89 2.47 11.59
3/23/2021 6:00:00 PM 8.1 46.58 0.037 6.87 2.6 11.59
3/23/2021 6:15:00 PM 8.08 46.544 0.037 6.89 2.5 11.58
3/23/2021 6:30:00 PM 8.04 46.472 0.037 6.86 2.49 11.57
3/23/2021 6:45:00 PM 8 46.4 0.037 6.85 2.49 11.55
3/23/2021 7:00:00 PM 7.95 46.31 0.037 6.84 2.64 11.54
3/23/2021 7:15:00 PM 7.9 46.22 0.037 6.81 2.54 11.52
3/23/2021 7:30:00 PM 7.83 46.094 0.037 6.79 2.61 11.49
3/23/2021 7:45:00 PM 7.75 45.95 0.037 6.76 2.6 11.46
3/23/2021 8:00:00 PM 7.68 45.824 0.037 6.76 2.73 11.45
3/23/2021 8:15:00 PM 7.61 45.698 0.037 6.75 2.74 11.46
3/23/2021 8:30:00 PM 7.53 45.554 0.037 6.73 2.78 11.45
3/23/2021 8:45:00 PM 7.45 45.41 0.037 6.71 2.71 11.47
3/23/2021 9:00:00 PM 7.37 45.266 0.037 6.72 2.81 11.49
3/23/2021 9:15:00 PM 7.29 45.122 0.037 6.71 2.81 11.5
3/23/2021 9:30:00 PM 7.21 44.978 0.038 6.7 2.8 11.52
3/23/2021 9:45:00 PM 7.12 44.816 0.038 6.69 2.89 11.53
3/23/2021 10:00:00 PM 7.04 44.672 0.038 6.69 2.75 11.55
3/23/2021 10:15:00 PM 6.97 44.546 0.038 6.69 2.84 11.57
3/23/2021 10:30:00 PM 6.9 44.42 0.038 6.67 2.8 11.59
3/23/2021 10:45:00 PM 6.82 44.276 0.038 6.68 2.78 11.61
3/23/2021 11:00:00 PM 6.74 44.132 0.038 6.65 2.83 11.63
3/23/2021 11:15:00 PM 6.66 43.988 0.038 6.65 2.79 11.65
3/23/2021 11:30:00 PM 6.58 43.844 0.038 6.65 2.8 11.68
3/23/2021 11:45:00 PM 6.5 43.7 0.038 6.65 2.77 11.7
3/24/2021 12:00:00 AM 6.43 43.574 0.038 6.64 2.73 11.72
3/24/2021 12:15:00 AM 6.36 43.448 0.038 6.64 2.79 11.74
3/24/2021 12:30:00 AM 6.29 43.322 0.038 6.63 2.76 11.76
3/24/2021 12:45:00 AM 6.23 43.214 0.038 6.63 2.82 11.77
3/24/2021 1:00:00 AM 6.18 43.124 0.038 6.65 2.76 11.8
3/24/2021 1:15:00 AM 6.14 43.052 0.038 6.65 2.75 11.81
3/24/2021 1:30:00 AM 6.09 42.962 0.038 6.63 2.85 11.82
3/24/2021 1:45:00 AM 6.05 42.89 0.038 6.65 2.79 11.84
3/24/2021 2:00:00 AM 6.02 42.836 0.038 6.66 2.85 11.85
3/24/2021 2:15:00 AM 5.99 42.782 0.038 6.65 2.83 11.86
3/24/2021 2:30:00 AM 5.96 42.728 0.038 6.65 2.79 11.86
3/24/2021 2:45:00 AM 5.94 42.692 0.038 6.65 2.75 11.87
3/24/2021 3:00:00 AM 5.93 42.674 0.038 6.63 2.7 11.88
3/24/2021 3:15:00 AM 5.92 42.656 0.038 6.65 2.71 11.88
3/24/2021 3:30:00 AM 5.91 42.638 0.038 6.65 2.78 11.88
3/24/2021 3:45:00 AM 5.91 42.638 0.038 6.65 2.86 11.88
3/24/2021 4:00:00 AM 5.9 42.62 0.038 6.65 2.8 11.88
3/24/2021 4:15:00 AM 5.9 42.62 0.038 6.65 2.78 11.89
3/24/2021 4:30:00 AM 5.89 42.602 0.038 6.66 2.75 11.88
3/24/2021 4:45:00 AM 5.9 42.62 0.038 6.63 2.81 11.89
3/24/2021 5:00:00 AM 5.9 42.62 0.038 6.66 2.84 11.88
3/24/2021 5:15:00 AM 5.9 42.62 0.038 6.65 2.77 11.88
3/24/2021 5:30:00 AM 5.91 42.638 0.038 6.67 2.79 11.88
3/24/2021 5:45:00 AM 5.92 42.656 0.038 6.66 2.75 11.88
3/24/2021 6:00:00 AM 5.93 42.674 0.038 6.65 2.72 11.87
3/24/2021 6:15:00 AM 5.94 42.692 0.038 6.67 2.82 11.87
3/24/2021 6:30:00 AM 5.96 42.728 0.038 6.66 2.88 11.86
3/24/2021 6:45:00 AM 5.97 42.746 0.038 6.66 2.85 11.86
3/24/2021 7:00:00 AM 5.98 42.764 0.038 6.67 2.92 11.86
3/24/2021 7:15:00 AM 6 42.8 0.038 6.65 2.84 11.86
3/24/2021 7:30:00 AM 6.01 42.818 0.038 6.66 2.94 11.85
3/24/2021 7:45:00 AM 6.03 42.854 0.037 6.66 2.97 11.86
3/24/2021 8:00:00 AM 6.04 42.872 0.037 6.65 2.93 11.86
3/24/2021 8:15:00 AM 6.06 42.908 0.037 6.67 3.01 11.86
3/24/2021 8:30:00 AM 6.08 42.944 0.037 6.67 3.1 11.86
3/24/2021 8:45:00 AM 6.1 42.98 0.037 6.66 3.04 11.87
3/24/2021 9:00:00 AM 6.12 43.016 0.037 6.65 3.14 11.89
3/24/2021 9:15:00 AM 6.15 43.07 0.037 6.64 3.02 11.9
3/24/2021 9:30:00 AM 6.18 43.124 0.037 6.66 3.12 11.93
3/24/2021 9:45:00 AM 6.21 43.178 0.037 6.68 3.21 11.95
3/24/2021 10:00:00 AM 6.25 43.25 0.037 6.66 3.33 11.97
3/24/2021 10:15:00 AM 6.3 43.34 0.037 6.7 3.44 11.99
3/24/2021 10:30:00 AM 6.36 43.448 0.037 6.71 3.52 12.01
3/24/2021 10:45:00 AM 6.42 43.556 0.037 6.71 3.51 12.01
3/24/2021 11:00:00 AM 6.47 43.646 0.037 6.73 3.69 12.01
3/24/2021 11:15:00 AM 6.52 43.736 0.037 6.72 3.9 12
3/24/2021 11:30:00 AM 6.57 43.826 0.037 6.72 3.98 11.98
3/24/2021 11:45:00 AM 6.61 43.898 0.037 6.75 3.97 11.98
3/24/2021 12:00:00 PM 6.66 43.988 0.037 6.74 4.21 11.96
3/24/2021 12:15:00 PM 6.7 44.06 0.037 6.78 4.22 11.96
3/24/2021 12:30:00 PM 6.75 44.15 0.037 6.79 4.08 11.95
3/24/2021 12:45:00 PM 6.81 44.258 0.037 6.79 4.23 11.95
3/24/2021 1:00:00 PM 6.87 44.366 0.037 6.8 4.28 11.94
3/24/2021 1:15:00 PM 6.93 44.474 0.037 6.81 4.15 11.92
3/24/2021 1:30:00 PM 7.01 44.618 0.037 6.82 4.18 11.91
3/24/2021 1:45:00 PM 7.07 44.726 0.037 6.83 4.13 11.89
3/24/2021 2:00:00 PM 7.14 44.852 0.037 6.81 4.4 11.87
3/24/2021 2:15:00 PM 7.19 44.942 0.037 6.76 4.19 11.85
3/24/2021 2:30:00 PM 7.26 45.068 0.037 6.77 4.15 11.83
3/24/2021 2:45:00 PM 7.3 45.14 0.037 6.78 4.12 11.81
3/24/2021 3:00:00 PM 7.36 45.248 0.037 6.79 3.96 11.79
3/24/2021 3:15:00 PM 7.41 45.338 0.037 6.79 3.88 11.76
3/24/2021 3:30:00 PM 7.45 45.41 0.036 6.77 3.91 11.73
3/24/2021 3:45:00 PM 7.48 45.464 0.036 6.78 3.83 11.72
3/24/2021 4:00:00 PM 7.52 45.536 0.036 6.77 3.63 11.71
3/24/2021 4:15:00 PM 7.55 45.59 0.036 6.78 3.89 11.68
3/24/2021 4:30:00 PM 7.58 45.644 0.036 6.78 3.76 11.68
3/24/2021 4:45:00 PM 7.61 45.698 0.036 6.78 3.67 11.67
3/24/2021 5:00:00 PM 7.62 45.716 0.036 6.79 3.7 11.65
3/24/2021 5:15:00 PM 7.63 45.734 0.037 6.76 3.61 11.63
3/24/2021 5:30:00 PM 7.63 45.734 0.037 6.74 3.62 11.6
3/24/2021 5:45:00 PM 7.63 45.734 0.037 6.82 3.53 11.58
3/24/2021 6:00:00 PM 7.62 45.716 0.037 6.81 3.67 11.56
3/24/2021 6:15:00 PM 7.62 45.716 0.037 6.78 3.58 11.54
3/24/2021 6:30:00 PM 7.61 45.698 0.037 6.76 3.59 11.53
3/24/2021 6:45:00 PM 7.6 45.68 0.037 6.75 3.53 11.5
3/24/2021 7:00:00 PM 7.58 45.644 0.037 6.73 3.64 11.49
3/24/2021 7:15:00 PM 7.58 45.644 0.037 6.72 3.77 11.48
3/24/2021 7:30:00 PM 7.56 45.608 0.037 6.7 3.75 11.45
3/24/2021 7:45:00 PM 7.53 45.554 0.037 6.69 3.82 11.44
3/24/2021 8:00:00 PM 7.51 45.518 0.037 6.68 3.84 11.43
3/24/2021 8:15:00 PM 7.48 45.464 0.037 6.68 3.99 11.41
3/24/2021 8:30:00 PM 7.45 45.41 0.037 6.66 3.94 11.42
3/24/2021 8:45:00 PM 7.42 45.356 0.037 6.65 3.87 11.42
3/24/2021 9:00:00 PM 7.39 45.302 0.037 6.63 3.88 11.43
3/24/2021 9:15:00 PM 7.36 45.248 0.037 6.63 4.02 11.42
3/24/2021 9:30:00 PM 7.34 45.212 0.037 6.64 4.11 11.43
3/24/2021 9:45:00 PM 7.3 45.14 0.037 6.65 4.09 11.44
3/24/2021 10:00:00 PM 7.28 45.104 0.037 6.62 4.08 11.44
3/24/2021 10:15:00 PM 7.25 45.05 0.037 6.61 4.22 11.45
3/24/2021 10:30:00 PM 7.22 44.996 0.037 6.6 4.19 11.46
3/24/2021 10:45:00 PM 7.19 44.942 0.037 6.61 4.18 11.47
3/24/2021 11:00:00 PM 7.17 44.906 0.037 6.64 4.2 11.47
3/24/2021 11:15:00 PM 7.14 44.852 0.037 6.6 4.23 11.48
3/24/2021 11:30:00 PM 7.12 44.816 0.037 6.6 4.21 11.49
3/24/2021 11:45:00 PM 7.1 44.78 0.037 6.58 4.31 11.49
3/25/2021 12:00:00 AM 7.09 44.762 0.037 6.55 4.6 11.49
3/25/2021 12:15:00 AM 7.08 44.744 0.037 6.57 4.5 11.5
3/25/2021 12:30:00 AM 7.07 44.726 0.037 6.6 4.38 11.51
3/25/2021 12:45:00 AM 7.06 44.708 0.037 6.6 4.46 11.51
3/25/2021 1:00:00 AM 7.05 44.69 0.037 6.59 4.41 11.51
3/25/2021 1:15:00 AM 7.05 44.69 0.037 6.6 4.52 11.51
3/25/2021 1:30:00 AM 7.05 44.69 0.037 6.6 5.24 11.51
3/25/2021 1:45:00 AM 7.05 44.69 0.037 6.61 4.63 11.51
3/25/2021 2:00:00 AM 7.05 44.69 0.037 6.61 4.65 11.51
3/25/2021 2:15:00 AM 7.05 44.69 0.037 6.59 4.52 11.51
3/25/2021 2:30:00 AM 7.05 44.69 0.037 6.59 4.7 11.51
3/25/2021 2:45:00 AM 7.05 44.69 0.037 6.61 4.55 11.51
3/25/2021 3:00:00 AM 7.05 44.69 0.037 6.59 4.63 11.51
3/25/2021 3:15:00 AM 7.05 44.69 0.037 6.59 4.59 11.51
3/25/2021 3:30:00 AM 7.05 44.69 0.037 6.6 4.66 11.51
3/25/2021 3:45:00 AM 7.05 44.69 0.037 6.59 4.64 11.51
3/25/2021 4:00:00 AM 7.04 44.672 0.037 6.58 4.82 11.51
3/25/2021 4:15:00 AM 7.04 44.672 0.037 6.58 4.75 11.51
3/25/2021 4:30:00 AM 7.03 44.654 0.037 6.59 4.63 11.51
3/25/2021 4:45:00 AM 7.03 44.654 0.037 6.59 4.74 11.51
3/25/2021 5:00:00 AM 7.03 44.654 0.037 6.59 4.69 11.51
3/25/2021 5:15:00 AM 7.03 44.654 0.037 6.59 4.69 11.51
3/25/2021 5:30:00 AM 7.03 44.654 0.037 6.56 4.74 11.51
3/25/2021 5:45:00 AM 7.02 44.636 0.037 6.58 4.76 11.51
3/25/2021 6:00:00 AM 7.03 44.654 0.037 6.57 4.83 11.51
3/25/2021 6:15:00 AM 7.03 44.654 0.037 6.6 4.93 11.52
3/25/2021 6:30:00 AM 7.03 44.654 0.037 6.58 4.81 11.52
3/25/2021 6:45:00 AM 7.03 44.654 0.037 6.59 4.87 11.52
3/25/2021 7:00:00 AM 7.02 44.636 0.037 6.6 5.03 11.52
3/25/2021 7:15:00 AM 7.03 44.654 0.037 6.6 4.88 11.52
3/25/2021 7:30:00 AM 7.03 44.654 0.037 6.56 4.82 11.53
3/25/2021 7:45:00 AM 7.03 44.654 0.037 6.56 4.79 11.55
3/25/2021 8:00:00 AM 7.03 44.654 0.037 6.58 4.74 11.56
3/25/2021 8:15:00 AM 7.04 44.672 0.037 6.58 4.93 11.58
3/25/2021 8:30:00 AM 7.05 44.69 0.037 6.61 4.8 11.61
3/25/2021 8:45:00 AM 7.06 44.708 0.037 6.59 4.64 11.63
3/25/2021 9:00:00 AM 7.09 44.762 0.037 6.61 4.66 11.66
3/25/2021 9:15:00 AM 7.12 44.816 0.037 6.65 4.73 11.69
3/25/2021 9:30:00 AM 7.15 44.87 0.036 6.65 4.61 11.71
3/25/2021 9:45:00 AM 7.21 44.978 0.036 6.67 4.48 11.74
3/25/2021 10:00:00 AM 7.27 45.086 0.036 6.71 4.39 11.75
3/25/2021 10:15:00 AM 7.33 45.194 0.036 6.71 4.35 11.76
3/25/2021 10:30:00 AM 7.39 45.302 0.036 6.73 4.41 11.76
3/25/2021 10:45:00 AM 7.47 45.446 0.036 6.75 4.51 11.77
3/25/2021 11:00:00 AM 7.56 45.608 0.036 6.77 4.43 11.76
3/25/2021 11:15:00 AM 7.68 45.824 0.036 6.78 4.37 11.75
3/25/2021 11:30:00 AM 7.79 46.022 0.036 6.79 4.37 11.73
3/25/2021 11:45:00 AM 7.93 46.274 0.036 6.79 4.28 11.69
3/25/2021 12:00:00 PM 8.08 46.544 0.036 6.8 4.46 11.66
3/25/2021 12:15:00 PM 8.25 46.85 0.036 6.83 4.4 11.63
3/25/2021 12:30:00 PM 8.42 47.156 0.036 6.81 4.33 11.59
3/25/2021 12:45:00 PM 8.59 47.462 0.036 6.82 4.33 11.55
3/25/2021 1:00:00 PM 8.76 47.768 0.036 6.83 4.27 11.51
3/25/2021 1:15:00 PM 8.93 48.074 0.036 6.83 4.27 11.48
3/25/2021 1:30:00 PM 9.08 48.344 0.036 6.84 4.25 11.43
3/25/2021 1:45:00 PM 9.24 48.632 0.036 6.85 4.47 11.39
3/25/2021 2:00:00 PM 9.38 48.884 0.036 6.87 4.4 11.35
3/25/2021 2:15:00 PM 9.52 49.136 0.036 6.85 4.19 11.31
3/25/2021 2:30:00 PM 9.65 49.37 0.036 6.82 4.29 11.27
3/25/2021 2:45:00 PM 9.77 49.586 0.036 6.83 4.35 11.23
3/25/2021 3:00:00 PM 9.89 49.802 0.036 6.85 4.33 11.19
3/25/2021 3:15:00 PM 9.98 49.964 0.036 6.81 4.43 11.16
3/25/2021 3:30:00 PM 10.05 50.09 0.036 6.86 4.31 11.13
3/25/2021 3:45:00 PM 10.09 50.162 0.036 6.72 4.4 11.11
3/25/2021 4:00:00 PM 10.13 50.234 0.036 6.83 4.43 11.08
3/25/2021 4:15:00 PM 10.15 50.27 0.036 6.8 4.54 11.06
3/25/2021 4:30:00 PM 10.16 50.288 0.036 6.82 4.3 11.04
3/25/2021 4:45:00 PM 10.17 50.306 0.036 6.79 4.43 11.02
3/25/2021 5:00:00 PM 10.16 50.288 0.036 6.82 4.38 11
3/25/2021 5:15:00 PM 10.16 50.288 0.036 6.79 4.38 10.99
3/25/2021 5:30:00 PM 10.14 50.252 0.036 6.79 4.33 10.97
3/25/2021 5:45:00 PM 10.12 50.216 0.036 6.77 4.43 10.94
3/25/2021 6:00:00 PM 10.09 50.162 0.036 6.75 4.44 10.93
3/25/2021 6:15:00 PM 10.05 50.09 0.036 6.74 4.41 10.9
3/25/2021 6:30:00 PM 10 50 0.036 6.72 4.54 10.88
3/25/2021 6:45:00 PM 9.94 49.892 0.036 6.7 4.63 10.87
3/25/2021 7:00:00 PM 9.87 49.766 0.036 6.69 4.47 10.85
3/25/2021 7:15:00 PM 9.8 49.64 0.036 6.67 4.49 10.84
3/25/2021 7:30:00 PM 9.72 49.496 0.036 6.65 4.48 10.83
3/25/2021 7:45:00 PM 9.64 49.352 0.036 6.57 4.43 10.82
3/25/2021 8:00:00 PM 9.57 49.226 0.036 6.54 4.77 10.82
3/25/2021 8:15:00 PM 9.49 49.082 0.036 6.52 4.74 10.82
3/25/2021 8:30:00 PM 9.42 48.956 0.036 6.56 4.87 10.83
3/25/2021 8:45:00 PM 9.35 48.83 0.036 6.57 4.78 10.84
3/25/2021 9:00:00 PM 9.29 48.722 0.036 6.57 4.75 10.85
3/25/2021 9:15:00 PM 9.23 48.614 0.036 6.57 4.68 10.87
3/25/2021 9:30:00 PM 9.17 48.506 0.036 6.56 4.75 10.88
3/25/2021 9:45:00 PM 9.11 48.398 0.036 6.57 4.71 10.89
3/25/2021 10:00:00 PM 9.06 48.308 0.036 6.57 4.71 10.9
3/25/2021 10:15:00 PM 9.01 48.218 0.036 6.57 4.71 10.91
3/25/2021 10:30:00 PM 8.96 48.128 0.036 6.53 4.72 10.93
3/25/2021 10:45:00 PM 8.91 48.038 0.036 6.58 4.75 10.94
3/25/2021 11:00:00 PM 8.86 47.948 0.036 6.57 4.62 10.94
3/25/2021 11:15:00 PM 8.82 47.876 0.036 6.55 4.91 10.96
3/25/2021 11:30:00 PM 8.79 47.822 0.036 6.55 4.61 10.96
3/25/2021 11:45:00 PM 8.76 47.768 0.036 6.56 4.6 10.97
3/26/2021 12:00:00 AM 8.75 47.75 0.036 6.57 4.58 10.98
3/26/2021 12:15:00 AM 8.74 47.732 0.036 6.56 4.73 10.98
3/26/2021 12:30:00 AM 8.72 47.696 0.036 6.38 4.4 10.98
3/26/2021 12:45:00 AM 8.7 47.66 0.036 6.35 4.66 10.98
3/26/2021 1:00:00 AM 8.68 47.624 0.036 6.43 4.49 10.99
3/26/2021 1:15:00 AM 8.66 47.588 0.036 6.5 4.57 10.99
3/26/2021 1:30:00 AM 8.64 47.552 0.036 6.56 4.39 10.99
3/26/2021 1:45:00 AM 8.61 47.498 0.036 6.55 4.66 11
3/26/2021 2:00:00 AM 8.59 47.462 0.036 6.55 4.55 11
3/26/2021 2:15:00 AM 8.58 47.444 0.036 6.55 4.5 11
3/26/2021 2:30:00 AM 8.57 47.426 0.036 6.55 4.53 11
3/26/2021 2:45:00 AM 8.56 47.408 0.036 6.57 4.59 11
3/26/2021 3:00:00 AM 8.56 47.408 0.036 6.56 4.5 11
3/26/2021 3:15:00 AM 8.55 47.39 0.036 6.57 4.5 11
3/26/2021 3:30:00 AM 8.57 47.426 0.036 6.59 4.56 10.99
3/26/2021 3:45:00 AM 8.58 47.444 0.036 6.57 4.65 10.99
3/26/2021 4:00:00 AM 8.58 47.444 0.036 6.57 4.52 10.98
3/26/2021 4:15:00 AM 8.56 47.408 0.036 6.58 4.58 10.98
3/26/2021 4:30:00 AM 8.55 47.39 0.036 6.59 4.58 10.97
3/26/2021 4:45:00 AM 8.53 47.354 0.036 6.59 4.56 10.97
3/26/2021 5:00:00 AM 8.52 47.336 0.036 6.57 4.51 10.97
3/26/2021 5:15:00 AM 8.51 47.318 0.036 6.57 4.55 10.97
3/26/2021 5:30:00 AM 8.49 47.282 0.036 6.58 4.55 10.97
3/26/2021 5:45:00 AM 8.48 47.264 0.036 6.58 4.5 10.97
3/26/2021 6:00:00 AM 8.47 47.246 0.036 6.57 4.5 10.96
3/26/2021 6:15:00 AM 8.47 47.246 0.036 6.57 4.5 10.96
3/26/2021 6:30:00 AM 8.45 47.21 0.036 6.58 4.5 10.97
3/26/2021 6:45:00 AM 8.44 47.192 0.036 6.6 4.74 10.97
3/26/2021 7:00:00 AM 8.43 47.174 0.036 6.6 4.61 10.97
3/26/2021 7:15:00 AM 8.44 47.192 0.036 6.59 4.64 10.97
3/26/2021 7:30:00 AM 8.42 47.156 0.036 6.61 4.62 10.98
3/26/2021 7:45:00 AM 8.41 47.138 0.036 6.61 4.73 11
3/26/2021 8:00:00 AM 8.41 47.138 0.036 6.61 4.71 11.02
3/26/2021 8:15:00 AM 8.42 47.156 0.036 6.64 4.73 11.06
3/26/2021 8:30:00 AM 8.43 47.174 0.036 6.64 4.66 11.08
3/26/2021 8:45:00 AM 8.46 47.228 0.036 6.65 4.71 11.11
3/26/2021 9:00:00 AM 8.49 47.282 0.036 6.67 4.67 11.12
3/26/2021 9:15:00 AM 8.52 47.336 0.036 6.65 4.62 11.12
3/26/2021 9:30:00 AM 8.57 47.426 0.036 6.68 4.6 11.14
3/26/2021 9:45:00 AM 8.65 47.57 0.036 6.7 4.46 11.16
3/26/2021 10:00:00 AM 8.69 47.642 0.036 6.7 4.57 11.17
3/26/2021 10:15:00 AM 8.74 47.732 0.036 6.7 4.57 11.16
3/26/2021 10:30:00 AM 8.79 47.822 0.036 6.75 4.74 11.17
3/26/2021 10:45:00 AM 8.82 47.876 0.036 6.73 4.64 11.16
3/26/2021 11:00:00 AM 8.85 47.93 0.036 6.72 4.62 11.15
3/26/2021 11:15:00 AM 8.88 47.984 0.036 6.72 4.59 11.15
3/26/2021 11:30:00 AM 8.93 48.074 0.036 6.76 4.47 11.16
3/26/2021 11:45:00 AM 8.99 48.182 0.036 6.73 4.15 11.17
3/26/2021 12:00:00 PM 9 48.2 0.036 6.76 4.28 11.16
3/26/2021 12:15:00 PM 9.01 48.218 0.036 6.74 4.37 11.14
3/26/2021 12:30:00 PM 9.03 48.254 0.036 6.74 4.37 11.14
3/26/2021 12:45:00 PM 9.04 48.272 0.036 6.74 5.02 11.14
3/26/2021 1:00:00 PM 9.08 48.344 0.036 6.72 5.08 11.15
3/26/2021 1:15:00 PM 9.17 48.506 0.036 6.74 4.55 11.16
3/26/2021 1:30:00 PM 9.22 48.596 0.036 6.72 4.45 11.17
3/26/2021 1:45:00 PM 9.27 48.686 0.036 6.79 4.1 11.16
3/26/2021 2:00:00 PM 9.33 48.794 0.035 6.79 4.08 11.16
3/26/2021 2:15:00 PM 9.41 48.938 0.035 6.8 4.02 11.15
3/26/2021 2:30:00 PM 9.42 48.956 0.035 6.8 4.04 11.15
3/26/2021 2:45:00 PM 9.49 49.082 0.035 6.8 4 11.15
3/26/2021 3:00:00 PM 9.51 49.118 0.035 6.81 4.12 11.14
3/26/2021 3:15:00 PM 9.53 49.154 0.035 6.79 4.17 11.14
3/26/2021 3:30:00 PM 9.53 49.154 0.035 6.77 4.13 11.14
3/26/2021 3:45:00 PM 9.5 49.1 0.035 6.78 4.02 11.12
3/26/2021 4:00:00 PM 9.45 49.01 0.035 6.77 4.06 11.11
3/26/2021 4:15:00 PM 9.41 48.938 0.036 6.77 4.09 11.11
3/26/2021 4:30:00 PM 9.38 48.884 0.036 6.76 4.09 11.11
3/26/2021 4:45:00 PM 9.32 48.776 0.036 6.78 4.06 11.11
3/26/2021 5:00:00 PM 9.27 48.686 0.036 6.78 4.04 11.12
3/26/2021 5:15:00 PM 9.22 48.596 0.036 6.78 3.94 11.14
3/26/2021 5:30:00 PM 9.15 48.47 0.036 6.76 3.93 11.14
3/26/2021 5:45:00 PM 9.08 48.344 0.036 6.75 3.93 11.14
3/26/2021 6:00:00 PM 9.01 48.218 0.036 6.74 3.98 11.14
3/26/2021 6:15:00 PM 8.94 48.092 0.036 6.77 3.92 11.15
3/26/2021 6:30:00 PM 8.86 47.948 0.036 6.72 4.2 11.15
3/26/2021 6:45:00 PM 8.77 47.786 0.036 6.69 4.03 11.15
3/26/2021 7:00:00 PM 8.69 47.642 0.036 6.64 4.15 11.15
3/26/2021 7:15:00 PM 8.6 47.48 0.036 6.61 4.29 11.15
3/26/2021 7:30:00 PM 8.52 47.336 0.036 6.61 4.04 11.15
3/26/2021 7:45:00 PM 8.44 47.192 0.036 6.59 4.1 11.16
3/26/2021 8:00:00 PM 8.37 47.066 0.036 6.6 4.11 11.16
3/26/2021 8:15:00 PM 8.31 46.958 0.036 6.58 3.91 11.16
3/26/2021 8:30:00 PM 8.26 46.868 0.036 6.57 4.22 11.17
3/26/2021 8:45:00 PM 8.21 46.778 0.036 6.58 4.07 11.18
3/26/2021 9:00:00 PM 8.16 46.688 0.036 6.56 4.07 11.19
3/26/2021 9:15:00 PM 8.11 46.598 0.036 6.57 4.03 11.21
3/26/2021 9:30:00 PM 8.07 46.526 0.036 6.55 3.95 11.22
3/26/2021 9:45:00 PM 8.02 46.436 0.036 6.64 4.01 11.23
3/26/2021 10:00:00 PM 7.98 46.364 0.036 6.59 3.84 11.25
3/26/2021 10:15:00 PM 7.93 46.274 0.036 6.59 3.81 11.26
3/26/2021 10:30:00 PM 7.89 46.202 0.036 6.59 3.92 11.26
3/26/2021 10:45:00 PM 7.85 46.13 0.036 6.59 3.82 11.28
3/26/2021 11:00:00 PM 7.81 46.058 0.036 6.6 3.85 11.29
3/26/2021 11:15:00 PM 7.77 45.986 0.036 6.59 3.91 11.31
3/26/2021 11:30:00 PM 7.72 45.896 0.036 6.57 3.66 11.32
3/26/2021 11:45:00 PM 7.67 45.806 0.037 6.58 3.7 11.33
3/27/2021 12:00:00 AM 7.64 45.752 0.037 6.57 3.68 11.33
3/27/2021 12:15:00 AM 7.61 45.698 0.037 6.57 3.76 11.36
3/27/2021 12:30:00 AM 7.59 45.662 0.037 6.58 3.65 11.36
3/27/2021 12:45:00 AM 7.57 45.626 0.037 6.59 3.67 11.36
3/27/2021 1:00:00 AM 7.55 45.59 0.037 6.58 3.81 11.38
3/27/2021 1:15:00 AM 7.53 45.554 0.037 6.6 3.74 11.37
3/27/2021 1:30:00 AM 7.51 45.518 0.037 6.6 3.65 11.37
3/27/2021 1:45:00 AM 7.5 45.5 0.037 6.6 3.62 11.4
3/27/2021 2:00:00 AM 7.49 45.482 0.037 6.61 3.63 11.39
3/27/2021 2:15:00 AM 7.47 45.446 0.037 6.62 3.71 11.39
3/27/2021 2:30:00 AM 7.46 45.428 0.037 6.62 3.5 11.39
3/27/2021 2:45:00 AM 7.45 45.41 0.037 6.62 3.63 11.4
3/27/2021 3:00:00 AM 7.44 45.392 0.037 6.62 3.54 11.4
3/27/2021 3:15:00 AM 7.43 45.374 0.037 6.61 3.59 11.4
3/27/2021 3:30:00 AM 7.42 45.356 0.037 6.62 3.62 11.4
3/27/2021 3:45:00 AM 7.41 45.338 0.037 6.6 3.57 11.41
3/27/2021 4:00:00 AM 7.41 45.338 0.037 6.63 3.57 11.41
3/27/2021 4:15:00 AM 7.4 45.32 0.037 6.62 3.57 11.41
3/27/2021 4:30:00 AM 7.39 45.302 0.037 6.61 3.52 11.42
3/27/2021 4:45:00 AM 7.39 45.302 0.037 6.57 3.41 11.42
3/27/2021 5:00:00 AM 7.38 45.284 0.037 6.63 3.5 11.42
3/27/2021 5:15:00 AM 7.38 45.284 0.037 6.64 3.43 11.42
3/27/2021 5:30:00 AM 7.37 45.266 0.037 6.62 3.92 11.42
3/27/2021 5:45:00 AM 7.37 45.266 0.037 6.63 3.75 11.42
3/27/2021 6:00:00 AM 7.36 45.248 0.037 6.62 3.53 11.43
3/27/2021 6:15:00 AM 7.35 45.23 0.037 6.62 3.47 11.43
3/27/2021 6:30:00 AM 7.34 45.212 0.037 6.61 3.44 11.43
3/27/2021 6:45:00 AM 7.34 45.212 0.037 6.62 3.37 11.44
3/27/2021 7:00:00 AM 7.33 45.194 0.037 6.62 3.49 11.44
3/27/2021 7:15:00 AM 7.32 45.176 0.037 6.65 3.42 11.45
3/27/2021 7:30:00 AM 7.32 45.176 0.037 6.65 3.5 11.47
3/27/2021 7:45:00 AM 7.31 45.158 0.037 6.65 3.35 11.49
3/27/2021 8:00:00 AM 7.32 45.176 0.037 6.66 3.34 11.52
3/27/2021 8:15:00 AM 7.34 45.212 0.037 6.67 3.44 11.56
3/27/2021 8:30:00 AM 7.36 45.248 0.037 6.69 3.27 11.6
3/27/2021 8:45:00 AM 7.38 45.284 0.037 6.7 3.36 11.63
3/27/2021 9:00:00 AM 7.41 45.338 0.037 6.74 3.12 11.67
3/27/2021 9:15:00 AM 7.44 45.392 0.037 6.71 3.23 11.69
3/27/2021 9:30:00 AM 7.48 45.464 0.037 6.75 3.2 11.71
3/27/2021 9:45:00 AM 7.53 45.554 0.036 6.75 3.13 11.73
3/27/2021 10:00:00 AM 7.58 45.644 0.036 6.79 3.21 11.74
3/27/2021 10:15:00 AM 7.62 45.716 0.036 6.8 3.22 11.74
3/27/2021 10:30:00 AM 7.68 45.824 0.036 6.8 3.12 11.73
3/27/2021 10:45:00 AM 7.78 46.004 0.036 6.83 3.12 11.73
3/27/2021 11:00:00 AM 7.85 46.13 0.036 6.84 3.15 11.72
3/27/2021 11:15:00 AM 7.92 46.256 0.036 6.86 3.03 11.71
3/27/2021 11:30:00 AM 8 46.4 0.036 6.87 3.01 11.71
3/27/2021 11:45:00 AM 8.1 46.58 0.036 6.89 2.98 11.69
3/27/2021 12:00:00 PM 8.25 46.85 0.036 6.91 3.03 11.66
3/27/2021 12:15:00 PM 8.41 47.138 0.036 6.91 11.46 11.62
3/27/2021 12:30:00 PM 8.56 47.408 0.036 6.9 3.07 11.59
3/27/2021 12:45:00 PM 8.7 47.66 0.036 6.92 3.13 11.55
3/27/2021 1:00:00 PM 8.88 47.984 0.036 6.92 3.32 11.51
3/27/2021 1:15:00 PM 9.05 48.29 0.036 6.92 3.31 11.47
3/27/2021 1:30:00 PM 9.21 48.578 0.036 6.92 3.05 11.44
3/27/2021 1:45:00 PM 9.37 48.866 0.036 6.96 3.06 11.4
3/27/2021 2:00:00 PM 9.53 49.154 0.036 6.91 3.18 11.36
3/27/2021 2:15:00 PM 9.64 49.352 0.036 6.92 3.06 11.32
3/27/2021 2:30:00 PM 9.76 49.568 0.036 6.94 3.26 11.29
3/27/2021 2:45:00 PM 9.87 49.766 0.036 6.92 3.03 11.26
3/27/2021 3:00:00 PM 9.95 49.91 0.036 6.92 3.1 11.24
3/27/2021 3:15:00 PM 10.02 50.036 0.036 6.93 3.12 11.21
3/27/2021 3:30:00 PM 10.07 50.126 0.036 6.91 3.12 11.19
3/27/2021 3:45:00 PM 10.14 50.252 0.036 6.9 3.05 11.16
3/27/2021 4:00:00 PM 10.18 50.324 0.036 6.93 3.1 11.14
3/27/2021 4:15:00 PM 10.22 50.396 0.036 6.93 3.13 11.12
3/27/2021 4:30:00 PM 10.24 50.432 0.036 6.92 3.07 11.11
3/27/2021 4:45:00 PM 10.27 50.486 0.036 6.89 3.24 11.09
3/27/2021 5:00:00 PM 10.28 50.504 0.036 6.9 3.34 11.07
3/27/2021 5:15:00 PM 10.28 50.504 0.036 6.9 3.17 11.04
3/27/2021 5:30:00 PM 10.29 50.522 0.036 6.89 3.19 11.03
3/27/2021 5:45:00 PM 10.29 50.522 0.036 6.92 3.16 11.02
3/27/2021 6:00:00 PM 10.27 50.486 0.036 6.89 3.2 10.99
3/27/2021 6:15:00 PM 10.24 50.432 0.036 6.89 3.04 10.97
3/27/2021 6:30:00 PM 10.2 50.36 0.036 6.87 3.03 10.95
3/27/2021 6:45:00 PM 10.14 50.252 0.036 6.86 3.06 10.93
3/27/2021 7:00:00 PM 10.07 50.126 0.036 6.81 3.07 10.9
3/27/2021 7:15:00 PM 9.98 49.964 0.036 6.79 3.14 10.87
3/27/2021 7:30:00 PM 9.89 49.802 0.036 6.77 3.04 10.85
3/27/2021 7:45:00 PM 9.79 49.622 0.037 6.73 3.2 10.84
3/27/2021 8:00:00 PM 9.69 49.442 0.037 6.72 3.32 10.82
3/27/2021 8:15:00 PM 9.59 49.262 0.037 6.71 3.29 10.82
3/27/2021 8:30:00 PM 9.49 49.082 0.037 6.69 3.24 10.83
3/27/2021 8:45:00 PM 9.39 48.902 0.037 6.67 3.22 10.83
3/27/2021 9:00:00 PM 9.3 48.74 0.037 6.66 3.26 10.85
3/27/2021 9:15:00 PM 9.2 48.56 0.037 6.65 3.21 10.86
3/27/2021 9:30:00 PM 9.11 48.398 0.037 6.63 3.24 10.88
3/27/2021 9:45:00 PM 9.02 48.236 0.037 6.64 3.18 10.9
3/27/2021 10:00:00 PM 8.93 48.074 0.037 6.63 3.28 10.92
3/27/2021 10:15:00 PM 8.84 47.912 0.037 6.63 3.15 10.94
3/27/2021 10:30:00 PM 8.75 47.75 0.037 6.61 3.39 10.96
3/27/2021 10:45:00 PM 8.66 47.588 0.037 6.61 3.17 10.99
3/27/2021 11:00:00 PM 8.57 47.426 0.037 6.61 3.27 11.01
3/27/2021 11:15:00 PM 8.49 47.282 0.037 6.6 3.23 11.03
3/27/2021 11:30:00 PM 8.41 47.138 0.037 6.61 3.17 11.05
3/27/2021 11:45:00 PM 8.33 46.994 0.037 6.61 3.17 11.07
3/28/2021 12:00:00 AM 8.26 46.868 0.037 6.61 3.17 11.08
3/28/2021 12:15:00 AM 8.18 46.724 0.037 6.62 3.21 11.1
3/28/2021 12:30:00 AM 8.11 46.598 0.037 6.61 3.2 11.12
3/28/2021 12:45:00 AM 8.04 46.472 0.037 6.62 3.13 11.14
3/28/2021 1:00:00 AM 7.97 46.346 0.037 6.6 3.16 11.16
3/28/2021 1:15:00 AM 7.9 46.22 0.037 6.61 3.18 11.17
3/28/2021 1:30:00 AM 7.83 46.094 0.037 6.6 3.17 11.18
3/28/2021 1:45:00 AM 7.76 45.968 0.037 6.6 3.12 11.2
3/28/2021 2:00:00 AM 7.71 45.878 0.037 6.59 3.03 11.21
3/28/2021 2:15:00 AM 7.65 45.77 0.037 6.59 3.1 11.24
3/28/2021 2:30:00 AM 7.59 45.662 0.037 6.6 3.04 11.26
3/28/2021 2:45:00 AM 7.54 45.572 0.037 6.59 3.25 11.27
3/28/2021 3:00:00 AM 7.48 45.464 0.037 6.61 3.15 11.28
3/28/2021 3:15:00 AM 7.43 45.374 0.038 6.61 3.18 11.28
3/28/2021 3:30:00 AM 7.38 45.284 0.038 6.6 3.11 11.3
3/28/2021 3:45:00 AM 7.33 45.194 0.038 6.6 3.13 11.31
3/28/2021 4:00:00 AM 7.29 45.122 0.038 6.6 3.05 11.32
3/28/2021 4:15:00 AM 7.25 45.05 0.038 6.63 3.02 11.33
3/28/2021 4:30:00 AM 7.21 44.978 0.038 6.61 3.11 11.34
3/28/2021 4:45:00 AM 7.18 44.924 0.038 6.6 2.99 11.34
3/28/2021 5:00:00 AM 7.15 44.87 0.038 6.56 3.16 11.35
3/28/2021 5:15:00 AM 7.13 44.834 0.038 6.53 3.07 11.35
3/28/2021 5:30:00 AM 7.11 44.798 0.038 6.52 3.07 11.36
3/28/2021 5:45:00 AM 7.09 44.762 0.038 6.52 3.07 11.36
3/28/2021 6:00:00 AM 7.07 44.726 0.038 6.57 3.03 11.37
3/28/2021 6:15:00 AM 7.06 44.708 0.038 6.63 3.08 11.37
3/28/2021 6:30:00 AM 7.05 44.69 0.038 6.64 3.08 11.38
3/28/2021 6:45:00 AM 7.04 44.672 0.038 6.64 3.11 11.37
3/28/2021 7:00:00 AM 7.05 44.69 0.038 6.62 3.05 11.37
3/28/2021 7:15:00 AM 7.05 44.69 0.038 6.62 3.08 11.37
3/28/2021 7:30:00 AM 7.06 44.708 0.038 6.65 3.08 11.38
3/28/2021 7:45:00 AM 7.08 44.744 0.038 6.66 3.04 11.38
3/28/2021 8:00:00 AM 7.1 44.78 0.038 6.66 3.04 11.38
3/28/2021 8:15:00 AM 7.13 44.834 0.037 6.67 3.02 11.39
3/28/2021 8:30:00 AM 7.17 44.906 0.037 6.69 2.99 11.41
3/28/2021 8:45:00 AM 7.21 44.978 0.037 6.73 3.01 11.43
3/28/2021 9:00:00 AM 7.24 45.032 0.037 6.74 3.03 11.43
3/28/2021 9:15:00 AM 7.29 45.122 0.037 6.76 2.96 11.43
3/28/2021 9:30:00 AM 7.32 45.176 0.037 6.77 3.03 11.44
3/28/2021 9:45:00 AM 7.36 45.248 0.037 6.77 2.86 11.44
3/28/2021 10:00:00 AM 7.4 45.32 0.037 6.77 2.84 11.44
3/28/2021 10:15:00 AM 7.44 45.392 0.037 6.78 2.89 11.44
3/28/2021 10:30:00 AM 7.49 45.482 0.037 6.81 2.91 11.45
3/28/2021 10:45:00 AM 7.55 45.59 0.037 6.82 2.8 11.46
3/28/2021 11:00:00 AM 7.62 45.716 0.037 6.84 2.79 11.46
3/28/2021 11:15:00 AM 7.69 45.842 0.037 6.85 2.87 11.47
3/28/2021 11:30:00 AM 7.76 45.968 0.037 6.87 2.86 11.47
3/28/2021 11:45:00 AM 7.83 46.094 0.037 6.87 2.84 11.47
3/28/2021 12:00:00 PM 7.9 46.22 0.037 6.88 2.87 11.46
3/28/2021 12:15:00 PM 7.98 46.364 0.037 6.9 2.87 11.46
3/28/2021 12:30:00 PM 8.05 46.49 0.037 6.91 2.89 11.45
3/28/2021 12:45:00 PM 8.12 46.616 0.037 6.9 2.94 11.44
3/28/2021 1:00:00 PM 8.17 46.706 0.037 6.9 2.86 11.42
3/28/2021 1:15:00 PM 8.22 46.796 0.037 6.9 2.85 11.4
3/28/2021 1:30:00 PM 8.26 46.868 0.037 6.91 2.97 11.38
3/28/2021 1:45:00 PM 8.29 46.922 0.037 6.9 2.91 11.35
3/28/2021 2:00:00 PM 8.31 46.958 0.037 6.91 2.98 11.32
3/28/2021 2:15:00 PM 8.34 47.012 0.037 6.9 2.94 11.29
3/28/2021 2:30:00 PM 8.38 47.084 0.037 6.88 2.97 11.26
3/28/2021 2:45:00 PM 8.4 47.12 0.037 6.82 3.2 11.25
3/28/2021 3:00:00 PM 8.4 47.12 0.037 6.85 3.05 11.23
3/28/2021 3:15:00 PM 8.4 47.12 0.037 6.82 3.4 11.22
3/28/2021 3:30:00 PM 8.4 47.12 0.037 6.83 3.35 11.2
3/28/2021 3:45:00 PM 8.41 47.138 0.037 6.83 3.65 11.19
3/28/2021 4:00:00 PM 8.41 47.138 0.037 6.82 3.66 11.19
3/28/2021 4:15:00 PM 8.42 47.156 0.037 6.81 3.91 11.21
3/28/2021 4:30:00 PM 8.41 47.138 0.037 6.82 3.84 11.21
3/28/2021 4:45:00 PM 8.41 47.138 0.037 6.81 3.99 11.22
3/28/2021 5:00:00 PM 8.42 47.156 0.037 6.83 4.11 11.25
3/28/2021 5:15:00 PM 8.43 47.174 0.037 6.81 4.22 11.27
3/28/2021 5:30:00 PM 8.43 47.174 0.037 6.81 4.33 11.26
3/28/2021 5:45:00 PM 8.42 47.156 0.037 6.81 4.49 11.27
3/28/2021 6:00:00 PM 8.4 47.12 0.037 6.8 4.63 11.26
3/28/2021 6:15:00 PM 8.39 47.102 0.037 6.79 4.88 11.24
3/28/2021 6:30:00 PM 8.35 47.03 0.037 6.79 4.84 11.22
3/28/2021 6:45:00 PM 8.32 46.976 0.037 6.79 5.02 11.21
3/28/2021 7:00:00 PM 8.28 46.904 0.037 6.76 5.02 11.19
3/28/2021 7:15:00 PM 8.24 46.832 0.037 6.75 4.88 11.16
3/28/2021 7:30:00 PM 8.18 46.724 0.037 6.75 4.8 11.14
3/28/2021 7:45:00 PM 8.11 46.598 0.037 6.74 4.82 11.12
3/28/2021 8:00:00 PM 8.05 46.49 0.037 6.71 4.68 11.12
3/28/2021 8:15:00 PM 7.99 46.382 0.037 6.7 4.57 11.11
3/28/2021 8:30:00 PM 7.94 46.292 0.037 6.7 4.41 11.12
3/28/2021 8:45:00 PM 7.88 46.184 0.037 6.68 4.33 11.11
3/28/2021 9:00:00 PM 7.82 46.076 0.037 6.67 4.33 11.12
3/28/2021 9:15:00 PM 7.75 45.95 0.037 6.65 4.05 11.14
3/28/2021 9:30:00 PM 7.69 45.842 0.037 6.65 3.93 11.15
3/28/2021 9:45:00 PM 7.63 45.734 0.038 6.64 3.89 11.17
3/28/2021 10:00:00 PM 7.58 45.644 0.038 6.64 3.8 11.19
3/28/2021 10:15:00 PM 7.51 45.518 0.038 6.64 3.83 11.19
3/28/2021 10:30:00 PM 7.46 45.428 0.038 6.64 3.69 11.21
3/28/2021 10:45:00 PM 7.39 45.302 0.038 6.64 3.63 11.24
3/28/2021 11:00:00 PM 7.33 45.194 0.038 6.64 3.62 11.26
3/28/2021 11:15:00 PM 7.26 45.068 0.038 6.6 3.47 11.27
3/28/2021 11:30:00 PM 7.2 44.96 0.038 6.61 3.46 11.29
3/28/2021 11:45:00 PM 7.14 44.852 0.038 6.62 3.44 11.32
3/29/2021 12:00:00 AM 7.08 44.744 0.038 6.61 3.42 11.33
3/29/2021 12:15:00 AM 6.99 44.582 0.038 6.6 3.44 11.35
3/29/2021 12:30:00 AM 6.92 44.456 0.038 6.62 3.29 11.38
3/29/2021 12:45:00 AM 6.87 44.366 0.038 6.61 3.28 11.4
3/29/2021 1:00:00 AM 6.82 44.276 0.038 6.62 3.24 11.42
3/29/2021 1:15:00 AM 6.75 44.15 0.038 6.6 3.29 11.44
3/29/2021 1:30:00 AM 6.67 44.006 0.038 6.61 3.24 11.46
3/29/2021 1:45:00 AM 6.6 43.88 0.038 6.62 3.26 11.49
3/29/2021 2:00:00 AM 6.54 43.772 0.038 6.61 3.17 11.51
3/29/2021 2:15:00 AM 6.47 43.646 0.038 6.32 3.39 11.53
3/29/2021 2:30:00 AM 6.42 43.556 0.038 6.36 3.25 11.55
3/29/2021 2:45:00 AM 6.37 43.466 0.038 6.37 3.12 11.57
3/29/2021 3:00:00 AM 6.32 43.376 0.038 6.39 3.11 11.59
3/29/2021 3:15:00 AM 6.27 43.286 0.038 6.39 3.15 11.6
3/29/2021 3:30:00 AM 6.21 43.178 0.038 6.39 3.08 11.62
3/29/2021 3:45:00 AM 6.15 43.07 0.038 6.39 3.16 11.64
3/29/2021 4:00:00 AM 6.08 42.944 0.038 6.39 3.13 11.67
3/29/2021 4:15:00 AM 6.03 42.854 0.038 6.39 3.01 11.68
3/29/2021 4:30:00 AM 5.99 42.782 0.038 6.4 3.08 11.7
3/29/2021 4:45:00 AM 5.95 42.71 0.038 6.42 3.07 11.72
3/29/2021 5:00:00 AM 5.92 42.656 0.038 6.41 3.16 11.74
3/29/2021 5:15:00 AM 5.88 42.584 0.038 6.41 3.01 11.75
3/29/2021 5:30:00 AM 5.85 42.53 0.038 6.42 3.52 11.76
3/29/2021 5:45:00 AM 5.81 42.458 0.038 6.43 3.11 11.78
3/29/2021 6:00:00 AM 5.78 42.404 0.038 6.42 3.11 11.79
3/29/2021 6:15:00 AM 5.75 42.35 0.038 6.42 3.11 11.81
3/29/2021 6:30:00 AM 5.71 42.278 0.038 6.44 3.07 11.82
3/29/2021 6:45:00 AM 5.68 42.224 0.038 6.44 2.99 11.84
3/29/2021 7:00:00 AM 5.65 42.17 0.038 6.43 2.99 11.85
3/29/2021 7:15:00 AM 5.63 42.134 0.038 6.45 2.94 11.87
3/29/2021 7:30:00 AM 5.6 42.08 0.038 6.46 2.93 11.89
3/29/2021 7:45:00 AM 5.56 42.008 0.038 6.44 2.94 11.91
3/29/2021 8:00:00 AM 5.55 41.99 0.038 6.47 2.91 11.94
3/29/2021 8:15:00 AM 5.51 41.918 0.038 6.47 2.84 11.98
3/29/2021 8:30:00 AM 5.5 41.9 0.038 6.49 2.83 12.02
3/29/2021 8:45:00 AM 5.49 41.882 0.038 6.51 2.8 12.07
3/29/2021 9:00:00 AM 5.48 41.864 0.038 6.54 2.83 12.13
3/29/2021 9:15:00 AM 5.46 41.828 0.038 6.53 2.83 12.17
3/29/2021 9:30:00 AM 5.46 41.828 0.038 6.54 2.77 12.19
3/29/2021 9:45:00 AM 5.48 41.864 0.038 6.55 2.81 12.23
3/29/2021 10:00:00 AM 5.49 41.882 0.038 6.57 2.67 12.27
3/29/2021 10:15:00 AM 5.5 41.9 0.038 6.59 2.69 12.31
3/29/2021 10:30:00 AM 5.53 41.954 0.037 6.62 2.7 12.33
3/29/2021 10:45:00 AM 5.57 42.026 0.037 6.65 2.7 12.35
3/29/2021 11:00:00 AM 5.61 42.098 0.037 6.66 2.64 12.37
3/29/2021 11:15:00 AM 5.65 42.17 0.037 6.68 2.63 12.37
3/29/2021 11:30:00 AM 5.7 42.26 0.037 6.69 2.63 12.38
3/29/2021 11:45:00 AM 5.79 42.422 0.037 6.74 2.63 12.37
3/29/2021 12:00:00 PM 5.91 42.638 0.037 6.74 2.65 12.36
3/29/2021 12:15:00 PM 6 42.8 0.037 6.74 2.67 12.35
3/29/2021 12:30:00 PM 6.11 42.998 0.037 6.76 2.67 12.33
3/29/2021 12:45:00 PM 6.31 43.358 0.037 6.77 2.66 12.29
3/29/2021 1:00:00 PM 6.46 43.628 0.037 6.82 2.6 12.25
3/29/2021 1:15:00 PM 6.55 43.79 0.037 6.81 2.59 12.22
3/29/2021 1:30:00 PM 6.68 44.024 0.037 6.8 2.65 12.19
3/29/2021 1:45:00 PM 6.83 44.294 0.037 6.8 2.66 12.13
3/29/2021 2:00:00 PM 7.04 44.672 0.037 6.79 2.64 12.08
3/29/2021 2:15:00 PM 7.22 44.996 0.037 6.94 2.65 12.04
3/29/2021 2:30:00 PM 7.36 45.248 0.037 6.92 2.66 11.99
3/29/2021 2:45:00 PM 7.5 45.5 0.037 6.93 2.68 11.95
3/29/2021 3:00:00 PM 7.63 45.734 0.037 6.93 2.69 11.91
3/29/2021 3:15:00 PM 7.74 45.932 0.037 6.92 2.66 11.86
3/29/2021 3:30:00 PM 7.88 46.184 0.037 6.91 2.66 11.83
3/29/2021 3:45:00 PM 8.01 46.418 0.037 6.92 2.68 11.79
3/29/2021 4:00:00 PM 8.12 46.616 0.037 6.93 2.56 11.75
3/29/2021 4:15:00 PM 8.22 46.796 0.037 6.92 2.65 11.71
3/29/2021 4:30:00 PM 8.28 46.904 0.037 6.93 2.65 11.68
3/29/2021 4:45:00 PM 8.33 46.994 0.037 6.93 2.63 11.66
3/29/2021 5:00:00 PM 8.35 47.03 0.037 6.94 2.67 11.63
3/29/2021 5:15:00 PM 8.36 47.048 0.037 6.93 2.81 11.62
3/29/2021 5:30:00 PM 8.35 47.03 0.037 6.92 2.63 11.6
3/29/2021 5:45:00 PM 8.32 46.976 0.037 6.92 2.52 11.58
3/29/2021 6:00:00 PM 8.27 46.886 0.037 6.92 2.67 11.57
3/29/2021 6:15:00 PM 8.23 46.814 0.037 6.9 2.7 11.57
3/29/2021 6:30:00 PM 8.17 46.706 0.037 6.89 2.61 11.55
3/29/2021 6:45:00 PM 8.1 46.58 0.037 6.87 2.58 11.54
3/29/2021 7:00:00 PM 8.01 46.418 0.037 6.86 2.62 11.53
3/29/2021 7:15:00 PM 7.91 46.238 0.037 6.8 2.63 11.5
3/29/2021 7:30:00 PM 7.81 46.058 0.037 6.79 2.58 11.49
3/29/2021 7:45:00 PM 7.69 45.842 0.037 6.76 2.56 11.46
3/29/2021 8:00:00 PM 7.58 45.644 0.037 6.6 2.61 11.46
3/29/2021 8:15:00 PM 7.48 45.464 0.037 6.58 2.7 11.47
3/29/2021 8:30:00 PM 7.38 45.284 0.037 6.55 2.74 11.47
3/29/2021 8:45:00 PM 7.28 45.104 0.037 6.52 2.76 11.49
3/29/2021 9:00:00 PM 7.18 44.924 0.037 6.51 2.73 11.5
3/29/2021 9:15:00 PM 7.08 44.744 0.038 6.5 2.84 11.52
3/29/2021 9:30:00 PM 6.99 44.582 0.038 6.49 2.66 11.54
3/29/2021 9:45:00 PM 6.9 44.42 0.038 6.49 2.78 11.56
3/29/2021 10:00:00 PM 6.82 44.276 0.038 6.49 2.82 11.59
3/29/2021 10:15:00 PM 6.73 44.114 0.038 6.49 2.73 11.61
3/29/2021 10:30:00 PM 6.64 43.952 0.038 6.47 2.77 11.63
3/29/2021 10:45:00 PM 6.56 43.808 0.038 6.47 2.8 11.66
3/29/2021 11:00:00 PM 6.48 43.664 0.038 6.47 2.68 11.68
3/29/2021 11:15:00 PM 6.4 43.52 0.038 6.47 2.7 11.7
3/29/2021 11:30:00 PM 6.32 43.376 0.038 6.47 2.66 11.73
3/29/2021 11:45:00 PM 6.24 43.232 0.038 6.47 2.7 11.75
3/30/2021 12:00:00 AM 6.17 43.106 0.038 6.47 2.69 11.77
3/30/2021 12:15:00 AM 6.1 42.98 0.038 6.47 2.7 11.8
3/30/2021 12:30:00 AM 6.03 42.854 0.038 6.47 2.76 11.82
3/30/2021 12:45:00 AM 5.97 42.746 0.038 6.46 2.63 11.84
3/30/2021 1:00:00 AM 5.9 42.62 0.038 6.46 2.7 11.86
3/30/2021 1:15:00 AM 5.84 42.512 0.038 6.46 2.7 11.88
3/30/2021 1:30:00 AM 5.78 42.404 0.038 6.47 2.64 11.9
3/30/2021 1:45:00 AM 5.73 42.314 0.038 6.46 2.67 11.91
3/30/2021 2:00:00 AM 5.68 42.224 0.038 6.47 2.62 11.94
3/30/2021 2:15:00 AM 5.62 42.116 0.038 6.47 2.61 11.95
3/30/2021 2:30:00 AM 5.57 42.026 0.038 6.46 2.6 11.96
3/30/2021 2:45:00 AM 5.52 41.936 0.038 6.47 2.65 11.98
3/30/2021 3:00:00 AM 5.48 41.864 0.038 6.47 2.6 12
3/30/2021 3:15:00 AM 5.43 41.774 0.038 6.47 2.67 12.01
3/30/2021 3:30:00 AM 5.39 41.702 0.038 6.48 2.64 12.03
3/30/2021 3:45:00 AM 5.35 41.63 0.038 6.47 2.68 12.04
3/30/2021 4:00:00 AM 5.31 41.558 0.038 6.47 2.56 12.06
3/30/2021 4:15:00 AM 5.27 41.486 0.038 6.48 2.64 12.07
3/30/2021 4:30:00 AM 5.22 41.396 0.038 6.5 2.64 12.08
3/30/2021 4:45:00 AM 5.19 41.342 0.038 6.48 2.58 12.09
3/30/2021 5:00:00 AM 5.15 41.27 0.038 6.49 2.63 12.1
3/30/2021 5:15:00 AM 5.12 41.216 0.038 6.47 2.6 12.11
3/30/2021 5:30:00 AM 5.08 41.144 0.038 6.48 2.63 12.13
3/30/2021 5:45:00 AM 5.05 41.09 0.038 6.47 2.63 12.14
3/30/2021 6:00:00 AM 5.01 41.018 0.038 6.48 2.63 12.14
3/30/2021 6:15:00 AM 4.98 40.964 0.038 6.47 2.66 12.17
3/30/2021 6:30:00 AM 4.95 40.91 0.038 6.48 2.57 12.17
3/30/2021 6:45:00 AM 4.92 40.856 0.038 6.48 2.56 12.17
3/30/2021 7:00:00 AM 4.89 40.802 0.038 6.48 2.61 12.19
3/30/2021 7:15:00 AM 4.87 40.766 0.038 6.48 2.61 12.22
3/30/2021 7:30:00 AM 4.84 40.712 0.038 6.49 2.58 12.25
3/30/2021 7:45:00 AM 4.82 40.676 0.038 6.49 2.58 12.28
3/30/2021 8:00:00 AM 4.81 40.658 0.038 6.51 2.67 12.32
3/30/2021 8:15:00 AM 4.81 40.658 0.038 6.52 2.61 12.35
3/30/2021 8:30:00 AM 4.81 40.658 0.038 6.54 2.61 12.39
3/30/2021 8:45:00 AM 4.83 40.694 0.038 6.55 2.55 12.42
3/30/2021 9:00:00 AM 4.86 40.748 0.038 6.58 2.62 12.45
3/30/2021 9:15:00 AM 4.91 40.838 0.038 6.6 2.53 12.47
3/30/2021 9:30:00 AM 4.98 40.964 0.037 6.63 2.57 12.49
3/30/2021 9:45:00 AM 5.06 41.108 0.037 6.65 2.54 12.49
3/30/2021 10:00:00 AM 5.17 41.306 0.037 6.67 2.5 12.5
3/30/2021 10:15:00 AM 5.29 41.522 0.037 6.7 2.52 12.49
3/30/2021 10:30:00 AM 5.44 41.792 0.037 6.71 2.41 12.47
3/30/2021 10:45:00 AM 5.59 42.062 0.037 6.75 2.4 12.44
3/30/2021 11:00:00 AM 5.76 42.368 0.037 6.77 2.45 12.42
3/30/2021 11:15:00 AM 5.93 42.674 0.037 6.77 2.47 12.37
3/30/2021 11:30:00 AM 6.11 42.998 0.037 6.79 2.5 12.34
3/30/2021 11:45:00 AM 6.3 43.34 0.037 6.79 2.42 12.29
3/30/2021 12:00:00 PM 6.5 43.7 0.037 6.81 2.43 12.25
3/30/2021 12:15:00 PM 6.72 44.096 0.037 6.81 2.45 12.19
3/30/2021 12:30:00 PM 6.94 44.492 0.037 6.81 2.43 12.13
3/30/2021 12:45:00 PM 7.17 44.906 0.037 6.81 2.46 12.07
3/30/2021 1:00:00 PM 7.4 45.32 0.037 6.82 2.47 12.01
3/30/2021 1:15:00 PM 7.63 45.734 0.037 6.82 2.4 11.94
3/30/2021 1:30:00 PM 7.86 46.148 0.037 6.84 2.41 11.88
3/30/2021 1:45:00 PM 8.09 46.562 0.037 6.84 2.44 11.82
3/30/2021 2:00:00 PM 8.32 46.976 0.037 6.85 2.44 11.76
3/30/2021 2:15:00 PM 8.53 47.354 0.037 6.86 2.46 11.7
3/30/2021 2:30:00 PM 8.74 47.732 0.037 6.86 2.41 11.63
3/30/2021 2:45:00 PM 8.94 48.092 0.037 6.85 2.48 11.58
3/30/2021 3:00:00 PM 9.13 48.434 0.037 6.86 2.45 11.52
3/30/2021 3:15:00 PM 9.31 48.758 0.037 6.86 2.46 11.47
3/30/2021 3:30:00 PM 9.47 49.046 0.037 6.88 2.47 11.42
3/30/2021 3:45:00 PM 9.63 49.334 0.037 6.87 2.48 11.37
3/30/2021 4:00:00 PM 9.75 49.55 0.037 6.87 2.57 11.33
3/30/2021 4:15:00 PM 9.84 49.712 0.037 6.98 2.51 11.29
3/30/2021 4:30:00 PM 9.9 49.82 0.037 6.86 2.52 11.27
3/30/2021 4:45:00 PM 9.96 49.928 0.037 6.89 2.54 11.24
3/30/2021 5:00:00 PM 9.99 49.982 0.037 6.87 2.63 11.22
3/30/2021 5:15:00 PM 10 50 0.036 6.86 2.5 11.19
3/30/2021 5:30:00 PM 9.99 49.982 0.037 6.86 2.55 11.18
3/30/2021 5:45:00 PM 9.95 49.91 0.037 6.85 2.57 11.15
3/30/2021 6:00:00 PM 9.91 49.838 0.037 6.83 2.52 11.14
3/30/2021 6:15:00 PM 9.85 49.73 0.037 6.82 2.5 11.13
3/30/2021 6:30:00 PM 9.77 49.586 0.037 6.82 2.54 11.12
3/30/2021 6:45:00 PM 9.7 49.46 0.037 6.67 2.58 11.11
3/30/2021 7:00:00 PM 9.61 49.298 0.037 6.73 2.57 11.09
3/30/2021 7:15:00 PM 9.51 49.118 0.037 6.74 2.54 11.07
3/30/2021 7:30:00 PM 9.42 48.956 0.037 6.7 2.65 11.04
3/30/2021 7:45:00 PM 9.31 48.758 0.037 6.69 2.59 11.01
3/30/2021 8:00:00 PM 9.21 48.578 0.037 6.68 2.64 10.99
3/30/2021 8:15:00 PM 9.11 48.398 0.037 6.65 2.63 10.99
3/30/2021 8:30:00 PM 9.02 48.236 0.037 6.66 2.63 10.99
3/30/2021 8:45:00 PM 8.93 48.074 0.037 6.64 2.66 10.99
3/30/2021 9:00:00 PM 8.85 47.93 0.037 6.63 2.66 11
3/30/2021 9:15:00 PM 8.77 47.786 0.037 6.63 2.66 11.01
3/30/2021 9:30:00 PM 8.7 47.66 0.037 6.63 2.67 11.02
3/30/2021 9:45:00 PM 8.63 47.534 0.037 6.62 2.72 11.04
3/30/2021 10:00:00 PM 8.56 47.408 0.037 6.63 2.7 11.05
3/30/2021 10:15:00 PM 8.49 47.282 0.037 6.62 2.68 11.07
3/30/2021 10:30:00 PM 8.43 47.174 0.038 6.62 2.64 11.08
3/30/2021 10:45:00 PM 8.37 47.066 0.038 6.61 2.75 11.1
3/30/2021 11:00:00 PM 8.31 46.958 0.038 6.61 2.7 11.11
3/30/2021 11:15:00 PM 8.25 46.85 0.038 6.61 2.75 11.13
3/30/2021 11:30:00 PM 8.19 46.742 0.038 6.61 2.65 11.15
3/30/2021 11:45:00 PM 8.14 46.652 0.038 6.61 2.68 11.16
3/31/2021 12:00:00 AM 8.08 46.544 0.038 6.61 2.67 11.18
3/31/2021 12:15:00 AM 8.02 46.436 0.038 6.59 2.66 11.2
3/31/2021 12:30:00 AM 7.97 46.346 0.038 6.6 2.74 11.2
3/31/2021 12:45:00 AM 7.92 46.256 0.038 6.6 2.81 11.21
3/31/2021 1:00:00 AM 7.88 46.184 0.038 6.6 2.63 11.24
3/31/2021 1:15:00 AM 7.84 46.112 0.038 6.6 2.6 11.24
3/31/2021 1:30:00 AM 7.8 46.04 0.038 6.6 2.66 11.24
3/31/2021 1:45:00 AM 7.76 45.968 0.038 6.61 2.64 11.27
3/31/2021 2:00:00 AM 7.73 45.914 0.038 6.58 2.62 11.27
3/31/2021 2:15:00 AM 7.7 45.86 0.038 6.6 2.63 11.28
3/31/2021 2:30:00 AM 7.67 45.806 0.038 6.61 2.7 11.28
3/31/2021 2:45:00 AM 7.64 45.752 0.038 6.6 2.67 11.3
3/31/2021 3:00:00 AM 7.61 45.698 0.038 6.61 2.59 11.3
3/31/2021 3:15:00 AM 7.57 45.626 0.038 6.6 2.64 11.3
3/31/2021 3:30:00 AM 7.55 45.59 0.038 6.6 2.6 11.31
3/31/2021 3:45:00 AM 7.52 45.536 0.038 6.61 2.57 11.32
3/31/2021 4:00:00 AM 7.5 45.5 0.038 6.61 2.62 11.32
3/31/2021 4:15:00 AM 7.48 45.464 0.038 6.61 2.58 11.32
3/31/2021 4:30:00 AM 7.46 45.428 0.038 6.61 2.58 11.33
3/31/2021 4:45:00 AM 7.44 45.392 0.038 6.6 2.58 11.33
3/31/2021 5:00:00 AM 7.42 45.356 0.038 6.6 2.65 11.35
3/31/2021 5:15:00 AM 7.4 45.32 0.038 6.62 2.57 11.35
3/31/2021 5:30:00 AM 7.38 45.284 0.038 6.61 2.63 11.35
3/31/2021 5:45:00 AM 7.36 45.248 0.038 6.59 2.59 11.36
3/31/2021 6:00:00 AM 7.34 45.212 0.038 6.59 2.61 11.36
3/31/2021 6:15:00 AM 7.32 45.176 0.038 6.61 2.59 11.37
3/31/2021 6:30:00 AM 7.31 45.158 0.038 6.6 2.62 11.37
3/31/2021 6:45:00 AM 7.29 45.122 0.038 6.61 2.68 11.38
3/31/2021 7:00:00 AM 7.28 45.104 0.038 6.61 2.64 11.38
3/31/2021 7:15:00 AM 7.27 45.086 0.038 6.61 2.66 11.4
3/31/2021 7:30:00 AM 7.26 45.068 0.038 6.62 2.63 11.41
3/31/2021 7:45:00 AM 7.26 45.068 0.038 6.61 2.56 11.43
3/31/2021 8:00:00 AM 7.27 45.086 0.038 6.63 2.58 11.45
3/31/2021 8:15:00 AM 7.28 45.104 0.038 6.63 2.61 11.45
3/31/2021 8:30:00 AM 7.28 45.104 0.038 6.64 2.57 11.47
3/31/2021 8:45:00 AM 7.3 45.14 0.038 6.62 2.58 11.48
3/31/2021 9:00:00 AM 7.31 45.158 0.038 6.65 2.62 11.51
3/31/2021 9:15:00 AM 7.32 45.176 0.038 6.66 2.52 11.53
3/31/2021 9:30:00 AM 7.33 45.194 0.038 6.66 2.49 11.53
3/31/2021 9:45:00 AM 7.34 45.212 0.037 6.67 2.49 11.54
3/31/2021 10:00:00 AM 7.35 45.23 0.037 6.68 2.53 11.55
3/31/2021 10:15:00 AM 7.37 45.266 0.037 6.68 2.6 11.56
3/31/2021 10:30:00 AM 7.39 45.302 0.037 6.71 2.55 11.6
3/31/2021 10:45:00 AM 7.42 45.356 0.037 6.71 2.54 11.62
3/31/2021 11:00:00 AM 7.45 45.41 0.037 6.75 2.54 11.65
3/31/2021 11:15:00 AM 7.48 45.464 0.037 6.75 2.61 11.67
3/31/2021 11:30:00 AM 7.51 45.518 0.037 6.75 2.47 11.66
3/31/2021 11:45:00 AM 7.53 45.554 0.037 6.75 2.58 11.65
3/31/2021 12:00:00 PM 7.56 45.608 0.037 6.75 2.58 11.64
3/31/2021 12:15:00 PM 7.58 45.644 0.037 6.78 2.62 11.63
3/31/2021 12:30:00 PM 7.61 45.698 0.037 6.77 2.64 11.65
3/31/2021 12:45:00 PM 7.63 45.734 0.037 6.77 2.59 11.63
3/31/2021 1:00:00 PM 7.68 45.824 0.037 6.79 2.69 11.65
3/31/2021 1:15:00 PM 7.72 45.896 0.037 6.8 2.74 11.67
3/31/2021 1:30:00 PM 7.77 45.986 0.037 6.81 2.68 11.68
3/31/2021 1:45:00 PM 7.81 46.058 0.037 6.82 2.67 11.66
3/31/2021 2:00:00 PM 7.84 46.112 0.037 6.82 2.8 11.65
3/31/2021 2:15:00 PM 7.86 46.148 0.037 6.83 2.74 11.64
3/31/2021 2:30:00 PM 7.88 46.184 0.037 6.82 2.78 11.61
3/31/2021 2:45:00 PM 7.9 46.22 0.037 6.82 2.81 11.58
3/31/2021 3:00:00 PM 7.91 46.238 0.037 6.85 2.67 11.58
3/31/2021 3:15:00 PM 7.92 46.256 0.037 6.86 2.72 11.54
3/31/2021 3:30:00 PM 7.92 46.256 0.037 6.78 2.72 11.52
3/31/2021 3:45:00 PM 7.93 46.274 0.037 6.77 2.69 11.5
3/31/2021 4:00:00 PM 7.94 46.292 0.037 6.76 2.7 11.5
3/31/2021 4:15:00 PM 7.95 46.31 0.037 6.76 2.64 11.48
3/31/2021 4:30:00 PM 7.96 46.328 0.037 6.74 2.64 11.46
3/31/2021 4:45:00 PM 7.97 46.346 0.037 6.75 2.64 11.44
3/31/2021 5:00:00 PM 7.98 46.364 0.037 6.73 2.59 11.42
3/31/2021 5:15:00 PM 7.98 46.364 0.037 6.71 2.6 11.4
3/31/2021 5:30:00 PM 7.98 46.364 0.037 6.73 2.56 11.39
3/31/2021 5:45:00 PM 7.97 46.346 0.037 6.73 2.6 11.4
3/31/2021 6:00:00 PM 7.97 46.346 0.037 6.72 2.54 11.4
3/31/2021 6:15:00 PM 7.96 46.328 0.037 6.71 2.56 11.39
3/31/2021 6:30:00 PM 7.94 46.292 0.037 6.7 2.59 11.37
3/31/2021 6:45:00 PM 7.92 46.256 0.037 6.7 2.59 11.37
3/31/2021 7:00:00 PM 7.9 46.22 0.037 6.71 2.66 11.37
3/31/2021 7:15:00 PM 7.88 46.184 0.037 6.71 2.6 11.37
3/31/2021 7:30:00 PM 7.85 46.13 0.037 6.71 2.66 11.35
3/31/2021 7:45:00 PM 7.82 46.076 0.037 6.69 2.57 11.34
3/31/2021 8:00:00 PM 7.79 46.022 0.038 6.68 2.58 11.32
3/31/2021 8:15:00 PM 7.75 45.95 0.038 6.68 2.62 11.3
3/31/2021 8:30:00 PM 7.7 45.86 0.038 6.66 2.64 11.31
3/31/2021 8:45:00 PM 7.66 45.788 0.038 6.66 2.65 11.31
3/31/2021 9:00:00 PM 7.62 45.716 0.038 6.66 2.59 11.31
3/31/2021 9:15:00 PM 7.58 45.644 0.038 6.65 2.64 11.32
3/31/2021 9:30:00 PM 7.53 45.554 0.038 6.65 2.64 11.33
3/31/2021 9:45:00 PM 7.48 45.464 0.038 6.64 2.6 11.33
3/31/2021 10:00:00 PM 7.44 45.392 0.038 6.64 2.65 11.33
3/31/2021 10:15:00 PM 7.4 45.32 0.038 6.65 2.66 11.35
3/31/2021 10:30:00 PM 7.36 45.248 0.038 6.62 2.59 11.36
3/31/2021 10:45:00 PM 7.33 45.194 0.038 6.64 2.58 11.37
3/31/2021 11:00:00 PM 7.3 45.14 0.038 6.63 2.59 11.38
3/31/2021 11:15:00 PM 7.27 45.086 0.038 6.62 2.64 11.39
3/31/2021 11:30:00 PM 7.24 45.032 0.038 6.62 2.58 11.4
3/31/2021 11:45:00 PM 7.21 44.978 0.038 6.64 2.61 11.41
4/1/2021 12:00:00 AM 7.18 44.924 0.038 6.63 2.57 11.41
4/1/2021 12:15:00 AM 7.15 44.87 0.038 6.62 2.55 11.43
4/1/2021 12:30:00 AM 7.12 44.816 0.038 6.62 2.54 11.43
4/1/2021 12:45:00 AM 7.09 44.762 0.038 6.62 2.56 11.44
4/1/2021 1:00:00 AM 7.05 44.69 0.038 6.62 2.63 11.45
4/1/2021 1:15:00 AM 7.01 44.618 0.038 6.61 2.59 11.46
4/1/2021 1:30:00 AM 6.97 44.546 0.038 6.61 2.54 11.48
4/1/2021 1:45:00 AM 6.93 44.474 0.038 6.62 2.54 11.48
4/1/2021 2:00:00 AM 6.88 44.384 0.038 6.61 2.59 11.5
4/1/2021 2:15:00 AM 6.82 44.276 0.038 6.62 2.6 11.51
4/1/2021 2:30:00 AM 6.78 44.204 0.038 6.6 2.66 11.52
4/1/2021 2:45:00 AM 6.73 44.114 0.038 6.61 2.59 11.53
4/1/2021 3:00:00 AM 6.68 44.024 0.038 6.6 2.6 11.54
4/1/2021 3:15:00 AM 6.64 43.952 0.038 6.63 2.7 11.55
4/1/2021 3:30:00 AM 6.61 43.898 0.038 6.61 2.55 11.56
4/1/2021 3:45:00 AM 6.56 43.808 0.038 6.61 2.56 11.58
4/1/2021 4:00:00 AM 6.52 43.736 0.038 6.61 2.68 11.58
4/1/2021 4:15:00 AM 6.48 43.664 0.038 6.6 2.55 11.6
4/1/2021 4:30:00 AM 6.44 43.592 0.038 6.6 2.58 11.61
4/1/2021 4:45:00 AM 6.41 43.538 0.038 6.61 2.59 11.62
4/1/2021 5:00:00 AM 6.37 43.466 0.038 6.62 2.6 11.63
4/1/2021 5:15:00 AM 6.33 43.394 0.038 6.61 2.6 11.64
4/1/2021 5:30:00 AM 6.29 43.322 0.038 6.6 2.52 11.65
4/1/2021 5:45:00 AM 6.25 43.25 0.038 6.61 2.6 11.67
4/1/2021 6:00:00 AM 6.21 43.178 0.038 6.6 2.59 11.68
4/1/2021 6:15:00 AM 6.18 43.124 0.038 6.6 2.56 11.69
4/1/2021 6:30:00 AM 6.14 43.052 0.038 6.59 2.56 11.7
4/1/2021 6:45:00 AM 6.1 42.98 0.038 6.6 2.67 11.71
4/1/2021 7:00:00 AM 6.06 42.908 0.038 6.61 2.61 11.73
4/1/2021 7:15:00 AM 6.03 42.854 0.038 6.6 2.52 11.75
4/1/2021 7:30:00 AM 5.99 42.782 0.038 6.61 2.6 11.78
4/1/2021 7:45:00 AM 5.96 42.728 0.038 6.63 2.61 11.81
4/1/2021 8:00:00 AM 5.94 42.692 0.038 6.62 2.57 11.84
4/1/2021 8:15:00 AM 5.91 42.638 0.038 6.63 2.54 11.9
4/1/2021 8:30:00 AM 5.91 42.638 0.038 6.66 2.65 11.97
4/1/2021 8:45:00 AM 5.9 42.62 0.038 6.69 2.59 12.04
4/1/2021 9:00:00 AM 5.89 42.602 0.038 6.7 2.6 12.09
4/1/2021 9:15:00 AM 5.92 42.656 0.038 6.73 2.57 12.14
4/1/2021 9:30:00 AM 5.91 42.638 0.038 6.76 2.51 12.16
4/1/2021 9:45:00 AM 5.84 42.512 0.038 6.75 2.51 12.19
4/1/2021 10:00:00 AM 5.77 42.386 0.038 6.74 2.51 12.22
4/1/2021 10:15:00 AM 5.79 42.422 0.038 6.76 2.44 12.24
4/1/2021 10:30:00 AM 5.89 42.602 0.038 6.78 2.47 12.25
4/1/2021 10:45:00 AM 5.96 42.728 0.038 6.8 2.48 12.25
4/1/2021 11:00:00 AM 6.05 42.89 0.038 6.82 2.49 12.24
4/1/2021 11:15:00 AM 6.08 42.944 0.038 6.84 2.43 12.25
4/1/2021 11:30:00 AM 6.17 43.106 0.038 6.84 2.44 12.24
4/1/2021 11:45:00 AM 6.23 43.214 0.038 6.86 2.45 12.23
4/1/2021 12:00:00 PM 6.35 43.43 0.038 6.89 2.49 12.22
4/1/2021 12:15:00 PM 6.46 43.628 0.037 6.9 2.42 12.2
4/1/2021 12:30:00 PM 6.45 43.61 0.037 6.9 2.4 12.19
4/1/2021 12:45:00 PM 6.5 43.7 0.037 6.89 2.4 12.18
4/1/2021 1:00:00 PM 6.56 43.808 0.037 6.89 2.38 12.17
4/1/2021 1:15:00 PM 6.61 43.898 0.037 6.89 2.38 12.16
4/1/2021 1:30:00 PM 6.74 44.132 0.037 6.9 2.4 12.13
4/1/2021 1:45:00 PM 6.72 44.096 0.037 6.91 2.39 12.11
4/1/2021 2:00:00 PM 6.78 44.204 0.037 6.91 2.47 12.1
4/1/2021 2:15:00 PM 6.77 44.186 0.037 6.92 2.46 12.09
4/1/2021 2:30:00 PM 6.8 44.24 0.037 6.9 2.42 12.08
4/1/2021 2:45:00 PM 6.78 44.204 0.037 6.91 2.43 12.07
4/1/2021 3:00:00 PM 6.8 44.24 0.037 6.91 2.38 12.07
4/1/2021 3:15:00 PM 6.8 44.24 0.037 6.87 2.42 12.07
4/1/2021 3:30:00 PM 6.8 44.24 0.037 6.88 2.43 12.07
4/1/2021 3:45:00 PM 6.81 44.258 0.037 6.89 2.44 12.07
4/1/2021 4:00:00 PM 6.78 44.204 0.037 6.9 2.46 12.06
4/1/2021 4:15:00 PM 6.78 44.204 0.037 6.88 2.46 12.05
4/1/2021 4:30:00 PM 6.8 44.24 0.037 6.87 2.49 12.05
4/1/2021 4:45:00 PM 6.83 44.294 0.037 6.92 2.38 12.05
4/1/2021 5:00:00 PM 6.85 44.33 0.037 6.91 2.46 12.04
4/1/2021 5:15:00 PM 6.8 44.24 0.037 6.88 2.39 12.04
4/1/2021 5:30:00 PM 6.74 44.132 0.037 6.86 2.39 12.04
4/1/2021 5:45:00 PM 6.71 44.078 0.037 6.86 2.42 12.04
4/1/2021 6:00:00 PM 6.69 44.042 0.037 6.87 2.46 12.04
4/1/2021 6:15:00 PM 6.67 44.006 0.037 6.86 2.46 12.04
4/1/2021 6:30:00 PM 6.6 43.88 0.037 6.83 2.47 12
4/1/2021 6:45:00 PM 6.54 43.772 0.037 6.81 2.42 11.98
4/1/2021 7:00:00 PM 6.45 43.61 0.037 6.79 2.45 11.96
4/1/2021 7:15:00 PM 6.36 43.448 0.038 6.76 2.47 11.95
4/1/2021 7:30:00 PM 6.27 43.286 0.038 6.73 2.51 11.94
4/1/2021 7:45:00 PM 6.12 43.016 0.038 6.71 2.46 11.92
4/1/2021 8:00:00 PM 5.99 42.782 0.038 6.68 2.58 11.91
4/1/2021 8:15:00 PM 5.79 42.422 0.038 6.66 2.49 11.91
4/1/2021 8:30:00 PM 5.75 42.35 0.038 6.63 2.56 11.91
4/1/2021 8:45:00 PM 5.65 42.17 0.038 6.61 2.52 11.93
4/1/2021 9:00:00 PM 5.55 41.99 0.038 6.6 2.52 11.96
4/1/2021 9:15:00 PM 5.51 41.918 0.038 6.58 2.51 11.97
4/1/2021 9:30:00 PM 5.48 41.864 0.038 6.59 2.51 11.97
4/1/2021 9:45:00 PM 5.47 41.846 0.038 6.6 2.51 11.98
4/1/2021 10:00:00 PM 5.42 41.756 0.038 6.59 2.44 11.99
4/1/2021 10:15:00 PM 5.34 41.612 0.038 6.6 2.5 12.01
4/1/2021 10:30:00 PM 5.28 41.504 0.038 6.6 2.44 12.03
4/1/2021 10:45:00 PM 5.2 41.36 0.038 6.59 2.44 12.06
4/1/2021 11:00:00 PM 5.13 41.234 0.038 6.59 2.51 12.08
4/1/2021 11:15:00 PM 5.06 41.108 0.038 6.6 2.43 12.1
4/1/2021 11:30:00 PM 5 41 0.038 6.58 2.42 12.12
4/1/2021 11:45:00 PM 4.95 40.91 0.038 6.58 2.44 12.13
4/2/2021 12:00:00 AM 4.89 40.802 0.038 6.57 2.42 12.15
4/2/2021 12:15:00 AM 4.82 40.676 0.038 6.58 2.49 12.18
4/2/2021 12:30:00 AM 4.76 40.568 0.038 6.59 2.4 12.2
4/2/2021 12:45:00 AM 4.71 40.478 0.039 6.57 2.42 12.22
4/2/2021 1:00:00 AM 4.65 40.37 0.039 6.58 2.4 12.24
4/2/2021 1:15:00 AM 4.61 40.298 0.039 6.58 2.43 12.26
4/2/2021 1:30:00 AM 4.56 40.208 0.039 6.58 2.46 12.28
4/2/2021 1:45:00 AM 4.51 40.118 0.039 6.57 2.4 12.29
4/2/2021 2:00:00 AM 4.47 40.046 0.039 6.57 2.28 12.3
4/2/2021 2:15:00 AM 4.41 39.938 0.039 6.59 2.36 12.33
4/2/2021 2:30:00 AM 4.36 39.848 0.039 6.58 2.35 12.34
4/2/2021 2:45:00 AM 4.3 39.74 0.039 6.57 2.33 12.35
4/2/2021 3:00:00 AM 4.26 39.668 0.039 6.62 2.33 12.37
4/2/2021 3:15:00 AM 4.23 39.614 0.039 6.57 2.4 12.39
4/2/2021 3:30:00 AM 4.18 39.524 0.039 6.54 2.4 12.4
4/2/2021 3:45:00 AM 4.13 39.434 0.039 6.54 2.34 12.41
4/2/2021 4:00:00 AM 4.08 39.344 0.039 6.55 2.33 12.43
4/2/2021 4:15:00 AM 4.02 39.236 0.039 6.56 2.33 12.45
4/2/2021 4:30:00 AM 3.96 39.128 0.039 6.54 2.39 12.47
4/2/2021 4:45:00 AM 3.9 39.02 0.039 6.53 2.45 12.5
4/2/2021 5:00:00 AM 3.84 38.912 0.039 6.53 2.36 12.51
4/2/2021 5:15:00 AM 3.79 38.822 0.039 6.54 2.31 12.53
4/2/2021 5:30:00 AM 3.73 38.714 0.039 6.55 2.34 12.55
4/2/2021 5:45:00 AM 3.69 38.642 0.039 6.54 2.36 12.57
4/2/2021 6:00:00 AM 3.64 38.552 0.039 6.53 2.36 12.59
4/2/2021 6:15:00 AM 3.59 38.462 0.039 6.55 2.35 12.6
4/2/2021 6:30:00 AM 3.55 38.39 0.039 6.54 2.41 12.62
4/2/2021 6:45:00 AM 3.51 38.318 0.039 6.53 2.37 12.63
4/2/2021 7:00:00 AM 3.47 38.246 0.039 6.53 2.43 12.65
4/2/2021 7:15:00 AM 3.43 38.174 0.039 6.54 2.34 12.69
4/2/2021 7:30:00 AM 3.4 38.12 0.039 6.55 2.39 12.73
4/2/2021 7:45:00 AM 3.36 38.048 0.039 6.57 2.27 12.78
4/2/2021 8:00:00 AM 3.34 38.012 0.039 6.56 2.36 12.83
4/2/2021 8:15:00 AM 3.33 37.994 0.039 6.57 2.35 12.88
4/2/2021 8:30:00 AM 3.32 37.976 0.039 6.6 2.35 12.93
4/2/2021 8:45:00 AM 3.32 37.976 0.039 6.62 2.36 12.98
4/2/2021 9:00:00 AM 3.32 37.976 0.039 6.64 2.3 13
4/2/2021 9:15:00 AM 3.36 38.048 0.038 6.65 2.28 13.04
4/2/2021 9:30:00 AM 3.4 38.12 0.038 6.66 2.3 13.06
4/2/2021 9:45:00 AM 3.46 38.228 0.038 6.69 2.28 13.07
4/2/2021 10:00:00 AM 3.53 38.354 0.038 6.69 2.24 13.08
4/2/2021 10:15:00 AM 3.6 38.48 0.038 6.72 2.29 13.07
4/2/2021 10:30:00 AM 3.7 38.66 0.038 6.76 2.28 13.07
4/2/2021 10:45:00 AM 3.8 38.84 0.038 6.78 2.26 13.05
4/2/2021 11:00:00 AM 3.93 39.074 0.038 6.77 2.25 13.03
4/2/2021 11:15:00 AM 4.07 39.326 0.038 6.8 2.25 13.01
4/2/2021 11:30:00 AM 4.21 39.578 0.038 6.8 2.23 12.97
4/2/2021 11:45:00 AM 4.35 39.83 0.038 6.81 2.24 12.95
4/2/2021 12:00:00 PM 4.5 40.1 0.038 6.84 2.28 12.9
4/2/2021 12:15:00 PM 4.66 40.388 0.038 6.83 2.23 12.87
4/2/2021 12:30:00 PM 4.84 40.712 0.038 6.84 2.2 12.82
4/2/2021 12:45:00 PM 5.02 41.036 0.038 6.87 2.24 12.77
4/2/2021 1:00:00 PM 5.21 41.378 0.038 6.89 2.22 12.72
4/2/2021 1:15:00 PM 5.42 41.756 0.038 6.88 2.19 12.65
4/2/2021 1:30:00 PM 5.59 42.062 0.038 6.89 2.22 12.6
4/2/2021 1:45:00 PM 5.77 42.386 0.038 6.89 2.24 12.55
4/2/2021 2:00:00 PM 5.95 42.71 0.038 6.89 2.2 12.49
4/2/2021 2:15:00 PM 6.1 42.98 0.038 6.91 2.2 12.43
4/2/2021 2:30:00 PM 6.3 43.34 0.038 6.9 2.23 12.38
4/2/2021 2:45:00 PM 6.45 43.61 0.038 6.89 2.29 12.33
4/2/2021 3:00:00 PM 6.64 43.952 0.038 6.92 2.24 12.27
4/2/2021 3:15:00 PM 6.78 44.204 0.038 6.92 2.22 12.23
4/2/2021 3:30:00 PM 6.89 44.402 0.038 6.9 2.27 12.19
4/2/2021 3:45:00 PM 6.98 44.564 0.038 6.91 2.25 12.15
4/2/2021 4:00:00 PM 7.08 44.744 0.038 6.92 2.27 12.12
4/2/2021 4:15:00 PM 7.14 44.852 0.038 6.89 2.19 12.09
4/2/2021 4:30:00 PM 7.22 44.996 0.037 6.89 2.28 12.06
4/2/2021 4:45:00 PM 7.24 45.032 0.038 6.88 2.26 12.03
4/2/2021 5:00:00 PM 7.24 45.032 0.037 6.9 2.33 12.01
4/2/2021 5:15:00 PM 7.25 45.05 0.037 6.88 2.3 11.99
4/2/2021 5:30:00 PM 7.22 44.996 0.038 6.89 2.32 11.98
4/2/2021 5:45:00 PM 7.16 44.888 0.038 6.87 2.38 11.97
4/2/2021 6:00:00 PM 7.08 44.744 0.038 6.86 2.3 11.97
4/2/2021 6:15:00 PM 6.97 44.546 0.038 6.86 2.33 11.97
4/2/2021 6:30:00 PM 6.87 44.366 0.038 6.82 2.37 11.97
4/2/2021 6:45:00 PM 6.78 44.204 0.038 6.81 2.35 11.97
4/2/2021 7:00:00 PM 6.67 44.006 0.038 6.8 2.35 11.96
4/2/2021 7:15:00 PM 6.55 43.79 0.038 6.75 2.36 11.95
4/2/2021 7:30:00 PM 6.42 43.556 0.038 6.75 2.41 11.94
4/2/2021 7:45:00 PM 6.28 43.304 0.038 6.71 2.41 11.93
4/2/2021 8:00:00 PM 6.17 43.106 0.038 6.7 2.47 11.92
4/2/2021 8:15:00 PM 6.05 42.89 0.038 6.67 2.42 11.93
4/2/2021 8:30:00 PM 5.93 42.674 0.038 6.65 2.42 11.94
4/2/2021 8:45:00 PM 5.82 42.476 0.038 6.63 2.49 11.96
4/2/2021 9:00:00 PM 5.73 42.314 0.038 6.61 2.47 11.97
4/2/2021 9:15:00 PM 5.62 42.116 0.038 6.61 2.4 11.99
4/2/2021 9:30:00 PM 5.54 41.972 0.038 6.6 2.41 12.01
4/2/2021 9:45:00 PM 5.45 41.81 0.038 6.57 2.54 12.03
4/2/2021 10:00:00 PM 5.37 41.666 0.039 6.58 2.58 12.05
4/2/2021 10:15:00 PM 5.29 41.522 0.039 6.58 2.48 12.07
4/2/2021 10:30:00 PM 5.21 41.378 0.039 6.59 2.47 12.09
4/2/2021 10:45:00 PM 5.13 41.234 0.039 6.57 2.4 12.12
4/2/2021 11:00:00 PM 5.05 41.09 0.039 6.57 2.4 12.15
4/2/2021 11:15:00 PM 4.97 40.946 0.039 6.57 2.41 12.17
4/2/2021 11:30:00 PM 4.9 40.82 0.039 6.57 2.38 12.19
4/2/2021 11:45:00 PM 4.83 40.694 0.039 6.59 2.38 12.21
4/3/2021 12:00:00 AM 4.76 40.568 0.039 6.58 2.35 12.25
4/3/2021 12:15:00 AM 4.68 40.424 0.039 6.57 2.39 12.27
4/3/2021 12:30:00 AM 4.61 40.298 0.039 6.56 2.39 12.29
4/3/2021 12:45:00 AM 4.54 40.172 0.039 6.57 2.36 12.31
4/3/2021 1:00:00 AM 4.47 40.046 0.039 6.56 2.42 12.34
4/3/2021 1:15:00 AM 4.41 39.938 0.039 6.56 2.42 12.36
4/3/2021 1:30:00 AM 4.34 39.812 0.039 6.47 2.4 12.38
4/3/2021 1:45:00 AM 4.28 39.704 0.039 6.55 2.38 12.41
4/3/2021 2:00:00 AM 4.22 39.596 0.039 6.57 2.41 12.43
4/3/2021 2:15:00 AM 4.16 39.488 0.039 6.55 2.37 12.45
4/3/2021 2:30:00 AM 4.1 39.38 0.039 6.56 2.4 12.47
4/3/2021 2:45:00 AM 4.04 39.272 0.039 6.55 2.34 12.49
4/3/2021 3:00:00 AM 3.98 39.164 0.039 6.56 2.32 12.51
4/3/2021 3:15:00 AM 3.93 39.074 0.039 6.57 2.33 12.53
4/3/2021 3:30:00 AM 3.87 38.966 0.039 6.56 2.35 12.55
4/3/2021 3:45:00 AM 3.82 38.876 0.039 6.57 2.28 12.57
4/3/2021 4:00:00 AM 3.77 38.786 0.039 6.55 2.28 12.59
4/3/2021 4:15:00 AM 3.72 38.696 0.039 6.56 2.31 12.6
4/3/2021 4:30:00 AM 3.67 38.606 0.039 6.55 2.31 12.63
4/3/2021 4:45:00 AM 3.62 38.516 0.039 6.57 2.31 12.64
4/3/2021 5:00:00 AM 3.58 38.444 0.039 6.53 2.27 12.66
4/3/2021 5:15:00 AM 3.53 38.354 0.039 6.53 2.32 12.68
4/3/2021 5:30:00 AM 3.49 38.282 0.039 6.52 2.27 12.7
4/3/2021 5:45:00 AM 3.45 38.21 0.039 6.53 2.32 12.71
4/3/2021 6:00:00 AM 3.41 38.138 0.039 6.52 2.29 12.73
4/3/2021 6:15:00 AM 3.37 38.066 0.039 6.52 2.27 12.74
4/3/2021 6:30:00 AM 3.33 37.994 0.039 6.52 2.29 12.76
4/3/2021 6:45:00 AM 3.29 37.922 0.039 6.53 2.26 12.78
4/3/2021 7:00:00 AM 3.26 37.868 0.039 6.53 2.28 12.79
4/3/2021 7:15:00 AM 3.22 37.796 0.039 6.54 2.33 12.83
4/3/2021 7:30:00 AM 3.2 37.76 0.039 6.54 2.39 12.87
4/3/2021 7:45:00 AM 3.18 37.724 0.039 6.56 2.28 12.92
4/3/2021 8:00:00 AM 3.17 37.706 0.039 6.57 2.32 12.97
4/3/2021 8:15:00 AM 3.17 37.706 0.039 6.59 2.25 13.02
4/3/2021 8:30:00 AM 3.18 37.724 0.039 6.61 2.3 13.06
4/3/2021 8:45:00 AM 3.2 37.76 0.039 6.62 2.29 13.1
4/3/2021 9:00:00 AM 3.24 37.832 0.039 6.65 2.27 13.13
4/3/2021 9:15:00 AM 3.29 37.922 0.039 6.67 2.3 13.15
4/3/2021 9:30:00 AM 3.36 38.048 0.039 6.69 2.28 13.16
4/3/2021 9:45:00 AM 3.46 38.228 0.039 6.7 2.27 13.17
4/3/2021 10:00:00 AM 3.57 38.426 0.039 6.73 2.23 13.16
4/3/2021 10:15:00 AM 3.7 38.66 0.039 6.75 2.25 13.14
4/3/2021 10:30:00 AM 3.84 38.912 0.038 6.76 2.28 13.12
4/3/2021 10:45:00 AM 4 39.2 0.038 6.79 2.3 13.09
4/3/2021 11:00:00 AM 4.16 39.488 0.038 6.83 2.3 13.06
4/3/2021 11:15:00 AM 4.33 39.794 0.038 6.83 2.28 13.02
4/3/2021 11:30:00 AM 4.53 40.154 0.038 6.85 2.26 12.97
4/3/2021 11:45:00 AM 4.71 40.478 0.038 6.86 2.24 12.92
4/3/2021 12:00:00 PM 4.93 40.874 0.038 6.88 2.32 12.86
4/3/2021 12:15:00 PM 5.14 41.252 0.038 6.88 2.27 12.82
4/3/2021 12:30:00 PM 5.3 41.54 0.038 6.88 2.35 12.77
4/3/2021 12:45:00 PM 5.48 41.864 0.038 6.9 2.35 12.72
4/3/2021 1:00:00 PM 5.62 42.116 0.038 6.9 2.33 12.66
4/3/2021 1:15:00 PM 5.8 42.44 0.038 6.9 2.29 12.62
4/3/2021 1:30:00 PM 5.99 42.782 0.038 6.91 2.28 12.57
4/3/2021 1:45:00 PM 6.21 43.178 0.038 6.92 2.26 12.52
4/3/2021 2:00:00 PM 6.41 43.538 0.038 6.92 2.31 12.45
4/3/2021 2:15:00 PM 6.6 43.88 0.038 6.91 2.25 12.39
4/3/2021 2:30:00 PM 6.75 44.15 0.038 6.9 2.26 12.34
4/3/2021 2:45:00 PM 6.99 44.582 0.038 6.91 2.32 12.27
4/3/2021 3:00:00 PM 7.18 44.924 0.038 6.93 2.27 12.2
4/3/2021 3:15:00 PM 7.37 45.266 0.038 6.93 2.25 12.14
4/3/2021 3:30:00 PM 7.54 45.572 0.038 6.94 2.3 12.09
4/3/2021 3:45:00 PM 7.62 45.716 0.038 6.94 2.27 12.03
4/3/2021 4:00:00 PM 7.67 45.806 0.038 6.93 2.25 12
4/3/2021 4:15:00 PM 7.71 45.878 0.038 6.93 2.24 11.97
4/3/2021 4:30:00 PM 7.76 45.968 0.038 6.94 2.26 11.95
4/3/2021 4:45:00 PM 7.78 46.004 0.038 6.94 2.27 11.93
4/3/2021 5:00:00 PM 7.79 46.022 0.038 6.94 2.32 11.9
4/3/2021 5:15:00 PM 7.81 46.058 0.038 6.95 2.34 11.89
4/3/2021 5:30:00 PM 7.82 46.076 0.038 6.93 2.33 11.87
4/3/2021 5:45:00 PM 7.82 46.076 0.038 6.92 2.31 11.85
4/3/2021 6:00:00 PM 7.79 46.022 0.038 6.91 2.39 11.83
4/3/2021 6:15:00 PM 7.75 45.95 0.038 6.9 2.32 11.79
4/3/2021 6:30:00 PM 7.7 45.86 0.038 6.87 2.41 11.76
4/3/2021 6:45:00 PM 7.64 45.752 0.038 6.82 2.32 11.69
4/3/2021 7:00:00 PM 7.57 45.626 0.038 6.8 2.35 11.66
4/3/2021 7:15:00 PM 7.51 45.518 0.038 6.77 2.38 11.62
4/3/2021 7:30:00 PM 7.44 45.392 0.038 6.75 2.34 11.58
4/3/2021 7:45:00 PM 7.38 45.284 0.038 6.72 2.35 11.55
4/3/2021 8:00:00 PM 7.31 45.158 0.038 6.7 2.44 11.53
4/3/2021 8:15:00 PM 7.25 45.05 0.038 6.69 2.55 11.52
4/3/2021 8:30:00 PM 7.19 44.942 0.038 6.67 2.44 11.52
4/3/2021 8:45:00 PM 7.13 44.834 0.038 6.66 2.49 11.53
4/3/2021 9:00:00 PM 7.07 44.726 0.039 6.65 2.48 11.53
4/3/2021 9:15:00 PM 7.01 44.618 0.039 6.64 2.58 11.54
4/3/2021 9:30:00 PM 6.96 44.528 0.039 6.63 2.56 11.55
4/3/2021 9:45:00 PM 6.9 44.42 0.039 6.63 2.42 11.56
4/3/2021 10:00:00 PM 6.85 44.33 0.039 6.63 2.38 11.57
4/3/2021 10:15:00 PM 6.81 44.258 0.039 6.63 2.43 11.58
4/3/2021 10:30:00 PM 6.76 44.168 0.039 6.63 2.38 11.59
4/3/2021 10:45:00 PM 6.7 44.06 0.039 6.62 2.33 11.61
4/3/2021 11:00:00 PM 6.65 43.97 0.039 6.6 2.36 11.63
4/3/2021 11:15:00 PM 6.6 43.88 0.039 6.61 2.43 11.64
4/3/2021 11:30:00 PM 6.55 43.79 0.039 6.62 2.38 11.65
4/3/2021 11:45:00 PM 6.49 43.682 0.039 6.62 2.4 11.67
4/4/2021 12:00:00 AM 6.44 43.592 0.039 6.62 2.37 11.68
4/4/2021 12:15:00 AM 6.39 43.502 0.039 6.66 2.35 11.69
4/4/2021 12:30:00 AM 6.34 43.412 0.039 6.59 2.29 11.72
4/4/2021 12:45:00 AM 6.29 43.322 0.039 6.56 2.37 11.73
4/4/2021 1:00:00 AM 6.24 43.232 0.039 6.62 2.32 11.73
4/4/2021 1:15:00 AM 6.19 43.142 0.039 6.61 2.36 11.75
4/4/2021 1:30:00 AM 6.15 43.07 0.039 6.61 2.43 11.76
4/4/2021 1:45:00 AM 6.11 42.998 0.039 6.61 2.42 11.77
4/4/2021 2:00:00 AM 6.07 42.926 0.039 6.61 2.35 11.78
4/4/2021 2:15:00 AM 6.03 42.854 0.039 6.61 2.34 11.8
4/4/2021 2:30:00 AM 5.99 42.782 0.039 6.6 2.37 11.81
4/4/2021 2:45:00 AM 5.95 42.71 0.039 6.6 2.34 11.81
4/4/2021 3:00:00 AM 5.92 42.656 0.039 6.62 2.36 11.83
4/4/2021 3:15:00 AM 5.88 42.584 0.039 6.62 2.33 11.83
4/4/2021 3:30:00 AM 5.85 42.53 0.039 6.62 2.35 11.84
4/4/2021 3:45:00 AM 5.82 42.476 0.039 6.62 2.32 11.85
4/4/2021 4:00:00 AM 5.78 42.404 0.039 6.61 2.34 11.86
4/4/2021 4:15:00 AM 5.73 42.314 0.039 6.61 2.27 11.87
4/4/2021 4:30:00 AM 5.68 42.224 0.039 6.61 2.24 11.88
4/4/2021 4:45:00 AM 5.63 42.134 0.039 6.63 2.3 11.89
4/4/2021 5:00:00 AM 5.58 42.044 0.039 6.63 2.29 11.9
4/4/2021 5:15:00 AM 5.55 41.99 0.039 6.62 2.36 11.91
4/4/2021 5:30:00 AM 5.51 41.918 0.039 6.63 2.37 11.93
4/4/2021 5:45:00 AM 5.48 41.864 0.039 6.63 2.32 11.94
4/4/2021 6:00:00 AM 5.46 41.828 0.039 6.62 2.31 11.95
4/4/2021 6:15:00 AM 5.44 41.792 0.039 6.61 2.4 11.95
4/4/2021 6:30:00 AM 5.4 41.72 0.039 6.61 2.29 11.97
4/4/2021 6:45:00 AM 5.36 41.648 0.039 6.61 2.31 11.98
4/4/2021 7:00:00 AM 5.32 41.576 0.039 6.61 2.36 12
4/4/2021 7:15:00 AM 5.27 41.486 0.039 6.62 2.3 12.04
4/4/2021 7:30:00 AM 5.23 41.414 0.039 6.65 2.29 12.08
4/4/2021 7:45:00 AM 5.2 41.36 0.039 6.65 2.33 12.14
4/4/2021 8:00:00 AM 5.16 41.288 0.039 6.67 2.3 12.2
4/4/2021 8:15:00 AM 5.14 41.252 0.039 6.68 2.28 12.26
4/4/2021 8:30:00 AM 5.14 41.252 0.039 6.7 2.32 12.33
4/4/2021 8:45:00 AM 5.14 41.252 0.039 6.71 2.27 12.37
4/4/2021 9:00:00 AM 5.16 41.288 0.039 6.75 2.22 12.41
4/4/2021 9:15:00 AM 5.2 41.36 0.039 6.75 2.24 12.44
4/4/2021 9:30:00 AM 5.25 41.45 0.039 6.77 2.23 12.46
4/4/2021 9:45:00 AM 5.33 41.594 0.039 6.8 2.19 12.48
4/4/2021 10:00:00 AM 5.43 41.774 0.039 6.81 2.21 12.49
4/4/2021 10:15:00 AM 5.55 41.99 0.039 6.84 2.26 12.48
4/4/2021 10:30:00 AM 5.69 42.242 0.039 6.85 2.21 12.47
4/4/2021 10:45:00 AM 5.84 42.512 0.039 6.87 2.19 12.44
4/4/2021 11:00:00 AM 6.01 42.818 0.039 6.89 2.25 12.42
4/4/2021 11:15:00 AM 6.19 43.142 0.038 6.91 2.22 12.39
4/4/2021 11:30:00 AM 6.38 43.484 0.038 6.91 2.18 12.34
4/4/2021 11:45:00 AM 6.58 43.844 0.038 6.93 2.18 12.31
4/4/2021 12:00:00 PM 6.78 44.204 0.038 6.94 2.23 12.26
4/4/2021 12:15:00 PM 6.99 44.582 0.038 6.95 2.23 12.21
4/4/2021 12:30:00 PM 7.21 44.978 0.038 6.94 2.21 12.15
4/4/2021 12:45:00 PM 7.44 45.392 0.038 6.95 2.28 12.09
4/4/2021 1:00:00 PM 7.65 45.77 0.038 6.95 2.26 12.03
4/4/2021 1:15:00 PM 7.88 46.184 0.038 6.95 2.24 11.97
4/4/2021 1:30:00 PM 8.12 46.616 0.038 6.97 2.22 11.91
4/4/2021 1:45:00 PM 8.35 47.03 0.038 6.99 2.19 11.84
4/4/2021 2:00:00 PM 8.56 47.408 0.038 6.99 2.2 11.79
4/4/2021 2:15:00 PM 8.76 47.768 0.038 7 2.23 11.73
4/4/2021 2:30:00 PM 8.94 48.092 0.038 7.02 2.27 11.67
4/4/2021 2:45:00 PM 9.11 48.398 0.038 7 2.24 11.62
4/4/2021 3:00:00 PM 9.28 48.704 0.038 6.99 2.23 11.56
4/4/2021 3:15:00 PM 9.47 49.046 0.038 7.02 2.2 11.52
4/4/2021 3:30:00 PM 9.65 49.37 0.038 7.01 2.21 11.46
4/4/2021 3:45:00 PM 9.78 49.604 0.038 7.01 2.23 11.42
4/4/2021 4:00:00 PM 9.88 49.784 0.038 7.03 2.27 11.38
4/4/2021 4:15:00 PM 9.96 49.928 0.038 7.13 2.24 11.34
4/4/2021 4:30:00 PM 9.99 49.982 0.038 7.11 2.24 11.31
4/4/2021 4:45:00 PM 10.02 50.036 0.038 7.09 2.27 11.29
4/4/2021 5:00:00 PM 10.07 50.126 0.038 7.07 2.34 11.27
4/4/2021 5:15:00 PM 10.06 50.108 0.038 7.08 2.28 11.25
4/4/2021 5:30:00 PM 10.04 50.072 0.038 7.08 2.3 11.23
4/4/2021 5:45:00 PM 10.02 50.036 0.038 7.04 2.33 11.2
4/4/2021 6:00:00 PM 9.97 49.946 0.038 7.04 2.44 11.19
4/4/2021 6:15:00 PM 9.92 49.856 0.038 7.02 2.39 11.17
4/4/2021 6:30:00 PM 9.85 49.73 0.038 6.96 2.45 11.15
4/4/2021 6:45:00 PM 9.77 49.586 0.038 6.92 2.41 11.14
4/4/2021 7:00:00 PM 9.67 49.406 0.038 6.89 2.3 11.12
4/4/2021 7:15:00 PM 9.55 49.19 0.038 6.89 2.36 11.09
4/4/2021 7:30:00 PM 9.44 48.992 0.038 6.83 2.36 11.07
4/4/2021 7:45:00 PM 9.31 48.758 0.038 6.82 2.42 11.04
4/4/2021 8:00:00 PM 9.18 48.524 0.038 6.78 2.38 11.02
4/4/2021 8:15:00 PM 9.05 48.29 0.039 6.75 2.39 11.01
4/4/2021 8:30:00 PM 8.93 48.074 0.039 6.73 2.42 11.01
4/4/2021 8:45:00 PM 8.81 47.858 0.039 6.73 2.45 11.01
4/4/2021 9:00:00 PM 8.68 47.624 0.039 6.7 2.51 11.03
4/4/2021 9:15:00 PM 8.56 47.408 0.039 6.7 2.41 11.05
4/4/2021 9:30:00 PM 8.44 47.192 0.039 6.69 2.39 11.07
4/4/2021 9:45:00 PM 8.32 46.976 0.039 6.68 2.51 11.09
4/4/2021 10:00:00 PM 8.2 46.76 0.039 6.67 2.46 11.13
4/4/2021 10:15:00 PM 8.09 46.562 0.039 6.67 2.43 11.15
4/4/2021 10:30:00 PM 7.97 46.346 0.039 6.68 2.4 11.19
4/4/2021 10:45:00 PM 7.86 46.148 0.039 6.66 2.39 11.21
4/4/2021 11:00:00 PM 7.75 45.95 0.039 6.64 2.54 11.25
4/4/2021 11:15:00 PM 7.65 45.77 0.039 6.66 2.39 11.26
4/4/2021 11:30:00 PM 7.54 45.572 0.039 6.66 2.43 11.3
4/4/2021 11:45:00 PM 7.44 45.392 0.039 6.66 2.44 11.32
4/5/2021 12:00:00 AM 7.33 45.194 0.039 6.66 2.39 11.36
4/5/2021 12:15:00 AM 7.22 44.996 0.04 6.65 2.65 11.4
4/5/2021 12:30:00 AM 7.12 44.816 0.04 6.64 2.61 11.42
4/5/2021 12:45:00 AM 7.01 44.618 0.04 6.64 2.58 11.46
4/5/2021 1:00:00 AM 6.91 44.438 0.04 6.64 2.55 11.48
4/5/2021 1:15:00 AM 6.82 44.276 0.04 6.63 2.53 11.51
4/5/2021 1:30:00 AM 6.72 44.096 0.04 6.62 2.56 11.54
4/5/2021 1:45:00 AM 6.64 43.952 0.04 6.63 2.55 11.57
4/5/2021 2:00:00 AM 6.55 43.79 0.04 6.64 2.53 11.59
4/5/2021 2:15:00 AM 6.46 43.628 0.04 6.63 2.5 11.62
4/5/2021 2:30:00 AM 6.38 43.484 0.04 6.63 2.53 11.65
4/5/2021 2:45:00 AM 6.3 43.34 0.04 6.63 2.48 11.68
4/5/2021 3:00:00 AM 6.21 43.178 0.04 6.62 2.48 11.7
4/5/2021 3:15:00 AM 6.14 43.052 0.04 6.62 2.48 11.72
4/5/2021 3:30:00 AM 6.06 42.908 0.04 6.62 2.47 11.75
4/5/2021 3:45:00 AM 5.99 42.782 0.04 6.62 2.52 11.77
4/5/2021 4:00:00 AM 5.91 42.638 0.04 6.6 2.53 11.8
4/5/2021 4:15:00 AM 5.84 42.512 0.04 6.62 2.52 11.82
4/5/2021 4:30:00 AM 5.77 42.386 0.04 6.61 2.51 11.84
4/5/2021 4:45:00 AM 5.71 42.278 0.04 6.62 2.59 11.86
4/5/2021 5:00:00 AM 5.64 42.152 0.04 6.62 2.48 11.88
4/5/2021 5:15:00 AM 5.58 42.044 0.04 6.62 2.54 11.9
4/5/2021 5:30:00 AM 5.52 41.936 0.04 6.62 2.48 11.93
4/5/2021 5:45:00 AM 5.46 41.828 0.04 6.61 2.51 11.94
4/5/2021 6:00:00 AM 5.41 41.738 0.04 6.61 2.51 11.97
4/5/2021 6:15:00 AM 5.35 41.63 0.04 6.61 2.49 11.98
4/5/2021 6:30:00 AM 5.31 41.558 0.04 6.62 2.43 12
4/5/2021 6:45:00 AM 5.26 41.468 0.04 6.63 2.48 12.01
4/5/2021 7:00:00 AM 5.23 41.414 0.04 6.61 2.51 12.05
4/5/2021 7:15:00 AM 5.19 41.342 0.04 6.61 2.44 12.09
4/5/2021 7:30:00 AM 5.16 41.288 0.04 6.65 2.49 12.14
4/5/2021 7:45:00 AM 5.13 41.234 0.04 6.67 2.45 12.21
4/5/2021 8:00:00 AM 5.11 41.198 0.04 6.66 2.45 12.26
4/5/2021 8:15:00 AM 5.1 41.18 0.04 6.68 2.51 12.32
4/5/2021 8:30:00 AM 5.11 41.198 0.04 6.72 2.47 12.39
4/5/2021 8:45:00 AM 5.12 41.216 0.039 6.74 2.45 12.43
4/5/2021 9:00:00 AM 5.15 41.27 0.039 6.76 2.41 12.47
4/5/2021 9:15:00 AM 5.2 41.36 0.039 6.78 2.41 12.5
4/5/2021 9:30:00 AM 5.27 41.486 0.039 6.81 2.39 12.52
4/5/2021 9:45:00 AM 5.36 41.648 0.039 6.82 2.39 12.53
4/5/2021 10:00:00 AM 5.47 41.846 0.039 6.85 2.37 12.52
4/5/2021 10:15:00 AM 5.59 42.062 0.039 6.88 2.38 12.51
4/5/2021 10:30:00 AM 5.74 42.332 0.039 6.89 2.41 12.49
4/5/2021 10:45:00 AM 5.89 42.602 0.039 6.92 2.32 12.46
4/5/2021 11:00:00 AM 6.07 42.926 0.039 6.95 2.34 12.43
4/5/2021 11:15:00 AM 6.25 43.25 0.039 6.97 2.33 12.4
4/5/2021 11:30:00 AM 6.45 43.61 0.039 6.98 2.37 12.36
4/5/2021 11:45:00 AM 6.65 43.97 0.039 6.95 2.32 12.31
4/5/2021 12:00:00 PM 6.86 44.348 0.039 6.95 2.34 12.26
4/5/2021 12:15:00 PM 7.09 44.762 0.039 6.96 2.24 12.2
4/5/2021 12:30:00 PM 7.31 45.158 0.039 6.94 2.27 12.15
4/5/2021 12:45:00 PM 7.55 45.59 0.039 6.98 2.32 12.08
4/5/2021 1:00:00 PM 7.79 46.022 0.038 6.95 2.29 12.02
4/5/2021 1:15:00 PM 8.02 46.436 0.038 6.95 2.32 11.97
4/5/2021 1:30:00 PM 8.26 46.868 0.038 6.96 2.25 11.9
4/5/2021 1:45:00 PM 8.5 47.3 0.038 6.94 2.28 11.84
4/5/2021 2:00:00 PM 8.7 47.66 0.038 6.97 2.35 11.77
4/5/2021 2:15:00 PM 8.92 48.056 0.038 7 2.27 11.72
4/5/2021 2:30:00 PM 9.11 48.398 0.038 7.02 2.31 11.66
4/5/2021 2:45:00 PM 9.29 48.722 0.038 7.02 2.34 11.61
4/5/2021 3:00:00 PM 9.45 49.01 0.038 7 2.3 11.56
4/5/2021 3:15:00 PM 9.57 49.226 0.038 7.02 2.33 11.52
4/5/2021 3:30:00 PM 9.68 49.424 0.038 7.03 2.36 11.48
4/5/2021 3:45:00 PM 9.8 49.64 0.038 7.02 2.35 11.44
4/5/2021 4:00:00 PM 9.91 49.838 0.038 7.02 2.45 11.4
4/5/2021 4:15:00 PM 9.94 49.892 0.038 7.02 2.38 11.36
4/5/2021 4:30:00 PM 9.97 49.946 0.038 7.02 2.35 11.34
4/5/2021 4:45:00 PM 10.01 50.018 0.038 7.02 2.37 11.31
4/5/2021 5:00:00 PM 10.02 50.036 0.038 7.02 2.38 11.29
4/5/2021 5:15:00 PM 10 50 0.038 7 2.33 11.25
4/5/2021 5:30:00 PM 9.96 49.928 0.038 6.98 2.35 11.22
4/5/2021 5:45:00 PM 9.92 49.856 0.038 6.94 2.41 11.19
4/5/2021 6:00:00 PM 9.87 49.766 0.038 6.92 2.42 11.17
4/5/2021 6:15:00 PM 9.82 49.676 0.038 6.89 2.38 11.14
4/5/2021 6:30:00 PM 9.75 49.55 0.038 6.86 2.41 11.12
4/5/2021 6:45:00 PM 9.69 49.442 0.038 6.84 2.47 11.09
4/5/2021 7:00:00 PM 9.62 49.316 0.038 6.9 2.46 11.08
4/5/2021 7:15:00 PM 9.55 49.19 0.038 6.88 2.45 11.04
4/5/2021 7:30:00 PM 9.48 49.064 0.039 6.83 2.5 11.01
4/5/2021 7:45:00 PM 9.4 48.92 0.039 6.82 2.48 10.98
4/5/2021 8:00:00 PM 9.32 48.776 0.039 6.79 2.48 10.95
4/5/2021 8:15:00 PM 9.25 48.65 0.039 6.77 2.48 10.93
4/5/2021 8:30:00 PM 9.17 48.506 0.039 6.75 2.5 10.92
4/5/2021 8:45:00 PM 9.1 48.38 0.039 6.73 2.51 10.92
4/5/2021 9:00:00 PM 9.03 48.254 0.039 6.73 2.57 10.92
4/5/2021 9:15:00 PM 8.97 48.146 0.039 6.72 2.51 10.93
4/5/2021 9:30:00 PM 8.92 48.056 0.039 6.71 2.55 10.93
4/5/2021 9:45:00 PM 8.86 47.948 0.039 6.7 2.59 10.94
4/5/2021 10:00:00 PM 8.79 47.822 0.039 6.7 2.58 10.96
4/5/2021 10:15:00 PM 8.73 47.714 0.039 6.69 2.57 10.97
4/5/2021 10:30:00 PM 8.68 47.624 0.04 6.69 2.52 10.98
4/5/2021 10:45:00 PM 8.62 47.516 0.04 6.7 2.54 10.99
4/5/2021 11:00:00 PM 8.57 47.426 0.04 6.7 2.52 11
4/5/2021 11:15:00 PM 8.52 47.336 0.04 6.7 2.51 11.02
4/5/2021 11:30:00 PM 8.46 47.228 0.04 6.7 2.59 11.03
4/5/2021 11:45:00 PM 8.41 47.138 0.04 6.68 2.52 11.04
4/6/2021 12:00:00 AM 8.35 47.03 0.04 6.69 2.51 11.06
4/6/2021 12:15:00 AM 8.29 46.922 0.04 6.7 2.47 11.07
4/6/2021 12:30:00 AM 8.22 46.796 0.04 6.68 2.5 11.09
4/6/2021 12:45:00 AM 8.15 46.67 0.04 6.69 2.5 11.11
4/6/2021 1:00:00 AM 8.08 46.544 0.04 6.69 2.52 11.12
4/6/2021 1:15:00 AM 8.02 46.436 0.04 6.68 2.52 11.15
4/6/2021 1:30:00 AM 7.95 46.31 0.04 6.69 2.56 11.17
4/6/2021 1:45:00 AM 7.88 46.184 0.04 6.68 2.48 11.18
4/6/2021 2:00:00 AM 7.82 46.076 0.04 6.67 2.51 11.19
4/6/2021 2:15:00 AM 7.75 45.95 0.04 6.67 2.54 11.21
4/6/2021 2:30:00 AM 7.69 45.842 0.04 6.66 2.47 11.23
4/6/2021 2:45:00 AM 7.63 45.734 0.04 6.65 2.45 11.24
4/6/2021 3:00:00 AM 7.57 45.626 0.04 6.66 2.49 11.25
4/6/2021 3:15:00 AM 7.51 45.518 0.04 6.67 2.54 11.28
4/6/2021 3:30:00 AM 7.45 45.41 0.04 6.65 2.5 11.28
4/6/2021 3:45:00 AM 7.39 45.302 0.04 6.66 2.53 11.31
4/6/2021 4:00:00 AM 7.33 45.194 0.04 6.65 2.52 11.32
4/6/2021 4:15:00 AM 7.27 45.086 0.04 6.66 2.52 11.34
4/6/2021 4:30:00 AM 7.2 44.96 0.04 6.65 2.58 11.36
4/6/2021 4:45:00 AM 7.14 44.852 0.04 6.66 2.48 11.37
4/6/2021 5:00:00 AM 7.08 44.744 0.04 6.66 2.49 11.39
4/6/2021 5:15:00 AM 7.01 44.618 0.04 6.67 2.51 11.41
4/6/2021 5:30:00 AM 6.95 44.51 0.04 6.65 2.48 11.43
4/6/2021 5:45:00 AM 6.88 44.384 0.04 6.64 2.49 11.45
4/6/2021 6:00:00 AM 6.82 44.276 0.04 6.65 2.52 11.47
4/6/2021 6:15:00 AM 6.76 44.168 0.04 6.64 2.6 11.49
4/6/2021 6:30:00 AM 6.69 44.042 0.04 6.64 2.49 11.51
4/6/2021 6:45:00 AM 6.63 43.934 0.04 6.63 2.5 11.53
4/6/2021 7:00:00 AM 6.57 43.826 0.04 6.64 2.49 11.57
4/6/2021 7:15:00 AM 6.52 43.736 0.04 6.65 2.46 11.61
4/6/2021 7:30:00 AM 6.47 43.646 0.04 6.66 2.53 11.68
4/6/2021 7:45:00 AM 6.43 43.574 0.04 6.69 2.46 11.75
4/6/2021 8:00:00 AM 6.39 43.502 0.04 6.7 2.53 11.82
4/6/2021 8:15:00 AM 6.37 43.466 0.04 6.71 2.59 11.89
4/6/2021 8:30:00 AM 6.36 43.448 0.04 6.76 2.51 11.96
4/6/2021 8:45:00 AM 6.36 43.448 0.04 6.78 2.44 12.02
4/6/2021 9:00:00 AM 6.38 43.484 0.04 6.79 2.51 12.07
4/6/2021 9:15:00 AM 6.42 43.556 0.04 6.82 2.46 12.11
4/6/2021 9:30:00 AM 6.47 43.646 0.04 6.84 2.39 12.13
4/6/2021 9:45:00 AM 6.54 43.772 0.04 6.86 2.41 12.15
4/6/2021 10:00:00 AM 6.64 43.952 0.04 6.89 2.39 12.16
4/6/2021 10:15:00 AM 6.75 44.15 0.039 6.9 2.4 12.15
4/6/2021 10:30:00 AM 6.88 44.384 0.039 6.93 2.46 12.14
4/6/2021 10:45:00 AM 7.03 44.654 0.039 6.96 2.44 12.12
4/6/2021 11:00:00 AM 7.19 44.942 0.039 6.98 2.37 12.11
4/6/2021 11:15:00 AM 7.38 45.284 0.039 7 2.44 12.07
4/6/2021 11:30:00 AM 7.57 45.626 0.039 7.02 2.4 12.04
4/6/2021 11:45:00 AM 7.77 45.986 0.039 7.04 2.42 11.99
4/6/2021 12:00:00 PM 7.99 46.382 0.039 7.04 2.41 11.94
4/6/2021 12:15:00 PM 8.21 46.778 0.039 7.05 2.42 11.89
4/6/2021 12:30:00 PM 8.44 47.192 0.039 7.06 2.37 11.83
4/6/2021 12:45:00 PM 8.68 47.624 0.039 7.07 2.36 11.77
4/6/2021 1:00:00 PM 8.92 48.056 0.039 7.08 2.34 11.72
4/6/2021 1:15:00 PM 9.13 48.434 0.039 7.08 2.28 11.66
4/6/2021 1:30:00 PM 9.37 48.866 0.039 7.1 2.4 11.6
4/6/2021 1:45:00 PM 9.61 49.298 0.039 7.09 2.35 11.54
4/6/2021 2:00:00 PM 9.83 49.694 0.039 7.11 2.41 11.47
4/6/2021 2:15:00 PM 10.08 50.144 0.039 7.1 2.36 11.41
4/6/2021 2:30:00 PM 10.29 50.522 0.038 7.1 2.43 11.35
4/6/2021 2:45:00 PM 10.47 50.846 0.038 7.1 2.33 11.29
4/6/2021 3:00:00 PM 10.68 51.224 0.038 7.13 2.39 11.23
4/6/2021 3:15:00 PM 10.85 51.53 0.038 7.11 2.36 11.19
4/6/2021 3:30:00 PM 11.03 51.854 0.038 7.12 2.4 11.13
4/6/2021 3:45:00 PM 11.18 52.124 0.038 7.14 2.42 11.09
4/6/2021 4:00:00 PM 11.31 52.358 0.038 7.13 2.35 11.04
4/6/2021 4:15:00 PM 11.41 52.538 0.038 7.13 2.43 11
4/6/2021 4:30:00 PM 11.5 52.7 0.038 7.16 2.47 10.97
4/6/2021 4:45:00 PM 11.57 52.826 0.038 7.14 2.43 10.93
4/6/2021 5:00:00 PM 11.6 52.88 0.038 7.1 2.44 10.9
4/6/2021 5:15:00 PM 11.59 52.862 0.038 7.12 2.44 10.87
4/6/2021 5:30:00 PM 11.58 52.844 0.038 7.13 2.49 10.85
4/6/2021 5:45:00 PM 11.56 52.808 0.038 7.11 2.48 10.84
4/6/2021 6:00:00 PM 11.56 52.808 0.038 7.11 2.44 10.83
4/6/2021 6:15:00 PM 11.49 52.682 0.038 7.11 2.52 10.82
4/6/2021 6:30:00 PM 11.42 52.556 0.038 7.07 2.52 10.81
4/6/2021 6:45:00 PM 11.33 52.394 0.039 7.04 2.48 10.78
4/6/2021 7:00:00 PM 11.25 52.25 0.039 7.01 2.48 10.73
4/6/2021 7:15:00 PM 11.15 52.07 0.039 6.97 2.52 10.68
4/6/2021 7:30:00 PM 11.05 51.89 0.039 6.91 2.45 10.63
4/6/2021 7:45:00 PM 10.96 51.728 0.039 6.85 2.54 10.58
4/6/2021 8:00:00 PM 10.84 51.512 0.039 6.82 2.57 10.55
4/6/2021 8:15:00 PM 10.74 51.332 0.039 6.8 2.56 10.52
4/6/2021 8:30:00 PM 10.63 51.134 0.039 6.78 2.52 10.51
4/6/2021 8:45:00 PM 10.53 50.954 0.039 6.78 2.58 10.5
4/6/2021 9:00:00 PM 10.44 50.792 0.04 6.77 2.58 10.51
4/6/2021 9:15:00 PM 10.33 50.594 0.04 6.75 2.56 10.52
4/6/2021 9:30:00 PM 10.23 50.414 0.04 6.74 2.54 10.54
4/6/2021 9:45:00 PM 10.12 50.216 0.04 6.72 2.62 10.56
4/6/2021 10:00:00 PM 10.01 50.018 0.04 6.72 2.57 10.58
4/6/2021 10:15:00 PM 9.91 49.838 0.04 6.72 2.58 10.6
4/6/2021 10:30:00 PM 9.81 49.658 0.04 6.72 2.56 10.63
4/6/2021 10:45:00 PM 9.72 49.496 0.04 6.73 2.63 10.65
4/6/2021 11:00:00 PM 9.64 49.352 0.04 6.71 2.6 10.67
4/6/2021 11:15:00 PM 9.56 49.208 0.04 6.71 2.57 10.69
4/6/2021 11:30:00 PM 9.5 49.1 0.04 6.72 2.59 10.7
4/6/2021 11:45:00 PM 9.44 48.992 0.04 6.72 2.65 10.72
4/7/2021 12:00:00 AM 9.38 48.884 0.04 6.72 2.6 10.74
4/7/2021 12:15:00 AM 9.32 48.776 0.04 6.67 2.58 10.75
4/7/2021 12:30:00 AM 9.27 48.686 0.04 6.72 2.59 10.77
4/7/2021 12:45:00 AM 9.21 48.578 0.04 6.72 2.59 10.78
4/7/2021 1:00:00 AM 9.15 48.47 0.041 6.71 2.56 10.8
4/7/2021 1:15:00 AM 9.09 48.362 0.041 6.74 2.56 10.82
4/7/2021 1:30:00 AM 9.03 48.254 0.041 6.72 2.56 10.83
4/7/2021 1:45:00 AM 8.96 48.128 0.041 6.7 2.55 10.85
4/7/2021 2:00:00 AM 8.89 48.002 0.041 6.71 2.57 10.87
4/7/2021 2:15:00 AM 8.82 47.876 0.041 6.71 2.64 10.89
4/7/2021 2:30:00 AM 8.74 47.732 0.041 6.71 2.64 10.9
4/7/2021 2:45:00 AM 8.66 47.588 0.041 6.69 2.59 10.92
4/7/2021 3:00:00 AM 8.59 47.462 0.041 6.71 2.51 10.94
4/7/2021 3:15:00 AM 8.52 47.336 0.041 6.7 2.54 10.96
4/7/2021 3:30:00 AM 8.46 47.228 0.041 6.69 2.57 10.98
4/7/2021 3:45:00 AM 8.41 47.138 0.041 6.69 2.55 11
4/7/2021 4:00:00 AM 8.35 47.03 0.041 6.66 2.59 11.01
4/7/2021 4:15:00 AM 8.31 46.958 0.041 6.68 2.6 11.02
4/7/2021 4:30:00 AM 8.27 46.886 0.041 6.68 2.57 11.04
4/7/2021 4:45:00 AM 8.24 46.832 0.041 6.66 2.59 11.06
4/7/2021 5:00:00 AM 8.21 46.778 0.041 6.66 2.54 11.07
4/7/2021 5:15:00 AM 8.17 46.706 0.041 6.67 2.52 11.08
4/7/2021 5:30:00 AM 8.15 46.67 0.041 6.65 2.54 11.09
4/7/2021 5:45:00 AM 8.12 46.616 0.041 6.65 2.55 11.1
4/7/2021 6:00:00 AM 8.09 46.562 0.041 6.66 2.54 11.1
4/7/2021 6:15:00 AM 8.07 46.526 0.041 6.67 2.6 11.11
4/7/2021 6:30:00 AM 8.04 46.472 0.041 6.67 2.51 11.12
4/7/2021 6:45:00 AM 8.02 46.436 0.041 6.67 2.5 11.13
4/7/2021 7:00:00 AM 7.99 46.382 0.041 6.66 2.53 11.15
4/7/2021 7:15:00 AM 7.97 46.346 0.041 6.67 2.54 11.18
4/7/2021 7:30:00 AM 7.95 46.31 0.041 6.68 2.57 11.22
4/7/2021 7:45:00 AM 7.93 46.274 0.041 6.7 2.49 11.28
4/7/2021 8:00:00 AM 7.91 46.238 0.041 6.73 2.57 11.35
4/7/2021 8:15:00 AM 7.9 46.22 0.04 6.75 2.53 11.43
4/7/2021 8:30:00 AM 7.9 46.22 0.04 6.78 2.51 11.51
4/7/2021 8:45:00 AM 7.91 46.238 0.04 6.8 2.53 11.56
4/7/2021 9:00:00 AM 7.94 46.292 0.04 6.83 2.6 11.62
4/7/2021 9:15:00 AM 7.98 46.364 0.04 6.85 2.56 11.66
4/7/2021 9:30:00 AM 8.02 46.436 0.04 6.89 2.47 11.69
4/7/2021 9:45:00 AM 8.09 46.562 0.04 6.91 2.44 11.7
4/7/2021 10:00:00 AM 8.19 46.742 0.04 6.93 2.45 11.71
4/7/2021 10:15:00 AM 8.3 46.94 0.04 6.95 2.45 11.71
4/7/2021 10:30:00 AM 8.43 47.174 0.04 6.97 2.52 11.7
4/7/2021 10:45:00 AM 8.57 47.426 0.04 6.99 2.43 11.68
4/7/2021 11:00:00 AM 8.74 47.732 0.04 7.01 2.49 11.66
4/7/2021 11:15:00 AM 8.92 48.056 0.04 7.03 2.42 11.63
4/7/2021 11:30:00 AM 9.12 48.416 0.04 7.04 2.37 11.6
4/7/2021 11:45:00 AM 9.34 48.812 0.039 7.05 2.38 11.55
4/7/2021 12:00:00 PM 9.58 49.244 0.039 7.08 2.39 11.51
4/7/2021 12:15:00 PM 9.81 49.658 0.039 7.07 2.39 11.46
4/7/2021 12:30:00 PM 10.05 50.09 0.039 7.1 2.47 11.41
4/7/2021 12:45:00 PM 10.25 50.45 0.039 7.11 2.41 11.36
4/7/2021 1:00:00 PM 10.52 50.936 0.039 7.12 2.32 11.31
4/7/2021 1:15:00 PM 10.61 51.098 0.039 7.13 2.37 11.26
4/7/2021 1:30:00 PM 10.84 51.512 0.039 7.15 2.34 11.23
4/7/2021 1:45:00 PM 12.63 54.734 0 6.05 2.9 10.4
4/7/2021 2:00:00 PM 11.13 52.034 0.039 7.1 2.31 10.95
4/7/2021 2:15:00 PM 11.22 52.196 0.039 7.02 2.28 10.91
4/7/2021 2:30:00 PM 11.44 52.592 0.039 7.03 2.32 10.88
4/7/2021 2:45:00 PM 11.51 52.718 0.039 7.04 2.26 10.86
4/7/2021 3:00:00 PM 11.79 53.222 0.039 7.05 2.27 10.8
4/7/2021 3:15:00 PM 11.84 53.312 0.039 7.05 2.49 10.76
4/7/2021 3:30:00 PM 12.03 53.654 0.039 7.03 2.25 10.74
4/7/2021 3:45:00 PM 12.24 54.032 0.039 7.04 2.28 10.7
4/7/2021 4:00:00 PM 12.28 54.104 0.039 7.05 2.36 10.67
4/7/2021 4:15:00 PM 12.36 54.248 0.039 7.04 2.61 10.63
4/7/2021 4:30:00 PM 12.4 54.32 0.039 7.05 2.34 10.6
4/7/2021 4:45:00 PM 12.43 54.374 0.039 7.01 2.37 10.54
4/7/2021 5:00:00 PM 12.39 54.302 0.039 7 2.37 10.51
4/7/2021 5:15:00 PM 12.37 54.266 0.039 7.01 2.37 10.48
4/7/2021 5:30:00 PM 12.33 54.194 0.039 7.01 2.33 10.46
4/7/2021 5:45:00 PM 12.28 54.104 0.039 6.97 2.37 10.45
4/7/2021 6:00:00 PM 12.23 54.014 0.039 6.97 2.4 10.45
4/7/2021 6:15:00 PM 12.2 53.96 0.039 6.92 2.33 10.43
4/7/2021 6:30:00 PM 12.15 53.87 0.039 6.96 2.34 10.42
4/7/2021 6:45:00 PM 12.1 53.78 0.039 6.88 2.36 10.41
4/7/2021 7:00:00 PM 12.04 53.672 0.039 6.93 2.34 10.38
4/7/2021 7:15:00 PM 11.96 53.528 0.039 6.9 2.45 10.33
4/7/2021 7:30:00 PM 11.87 53.366 0.039 6.84 2.42 10.27
4/7/2021 7:45:00 PM 11.77 53.186 0.04 6.82 2.42 10.23
4/7/2021 8:00:00 PM 11.66 52.988 0.04 6.81 2.41 10.19
4/7/2021 8:15:00 PM 11.55 52.79 0.04 6.79 2.45 10.16
4/7/2021 8:30:00 PM 11.43 52.574 0.04 6.73 2.45 10.15
4/7/2021 8:45:00 PM 11.33 52.394 0.04 6.72 2.47 10.13
4/7/2021 9:00:00 PM 11.22 52.196 0.04 6.69 2.54 10.13
4/7/2021 9:15:00 PM 11.11 51.998 0.04 6.67 2.41 10.14
4/7/2021 9:30:00 PM 11 51.8 0.04 6.68 2.49 10.16
4/7/2021 9:45:00 PM 10.9 51.62 0.04 6.65 2.47 10.18
4/7/2021 10:00:00 PM 10.79 51.422 0.041 6.65 2.6 10.2
4/7/2021 10:15:00 PM 10.69 51.242 0.041 6.65 2.56 10.21
4/7/2021 10:30:00 PM 10.59 51.062 0.041 6.63 2.5 10.23
4/7/2021 10:45:00 PM 10.49 50.882 0.041 6.62 2.52 10.25
4/7/2021 11:00:00 PM 10.39 50.702 0.041 6.62 2.59 10.27
4/7/2021 11:15:00 PM 10.3 50.54 0.041 6.63 2.55 10.3
4/7/2021 11:30:00 PM 10.2 50.36 0.041 6.53 2.51 10.32
4/7/2021 11:45:00 PM 10.1 50.18 0.041 6.54 2.45 10.35
4/8/2021 12:00:00 AM 10.01 50.018 0.041 6.55 2.45 10.36
4/8/2021 12:15:00 AM 9.91 49.838 0.041 6.56 2.44 10.38
4/8/2021 12:30:00 AM 9.81 49.658 0.041 6.54 2.42 10.41
4/8/2021 12:45:00 AM 9.71 49.478 0.041 6.57 2.45 10.44
4/8/2021 1:00:00 AM 9.6 49.28 0.041 6.55 2.48 10.47
4/8/2021 1:15:00 AM 9.5 49.1 0.041 6.56 2.44 10.49
4/8/2021 1:30:00 AM 9.4 48.92 0.041 6.54 2.5 10.52
4/8/2021 1:45:00 AM 9.3 48.74 0.041 6.58 2.59 10.54
4/8/2021 2:00:00 AM 9.2 48.56 0.041 6.61 2.5 10.56
4/8/2021 2:15:00 AM 9.1 48.38 0.041 6.6 2.53 10.59
4/8/2021 2:30:00 AM 9.01 48.218 0.041 6.61 2.43 10.62
4/8/2021 2:45:00 AM 8.92 48.056 0.041 6.59 2.46 10.65
4/8/2021 3:00:00 AM 8.83 47.894 0.041 6.61 2.41 10.67
4/8/2021 3:15:00 AM 8.74 47.732 0.041 6.53 2.49 10.69
4/8/2021 3:30:00 AM 8.66 47.588 0.041 6.55 2.43 10.71
4/8/2021 3:45:00 AM 8.58 47.444 0.041 6.55 2.51 10.72
4/8/2021 4:00:00 AM 8.51 47.318 0.041 6.6 2.37 10.74
4/8/2021 4:15:00 AM 8.44 47.192 0.041 6.57 2.41 10.77
4/8/2021 4:30:00 AM 8.37 47.066 0.041 6.59 2.45 10.79
4/8/2021 4:45:00 AM 8.31 46.958 0.041 6.57 2.44 10.81
4/8/2021 5:00:00 AM 8.25 46.85 0.041 6.62 2.44 10.83
4/8/2021 5:15:00 AM 8.19 46.742 0.041 6.61 2.46 10.85
4/8/2021 5:30:00 AM 8.13 46.634 0.041 6.6 2.46 10.85
4/8/2021 5:45:00 AM 8.07 46.526 0.041 6.61 2.46 10.87
4/8/2021 6:00:00 AM 8.02 46.436 0.041 6.6 2.42 10.88
4/8/2021 6:15:00 AM 7.96 46.328 0.041 6.59 2.5 10.89
4/8/2021 6:30:00 AM 7.91 46.238 0.041 6.6 2.44 10.92
4/8/2021 6:45:00 AM 7.85 46.13 0.041 6.59 2.47 10.93
4/8/2021 7:00:00 AM 7.81 46.058 0.041 6.57 2.45 10.97
4/8/2021 7:15:00 AM 7.76 45.968 0.041 6.61 2.51 11.02
4/8/2021 7:30:00 AM 7.72 45.896 0.041 6.61 2.46 11.09
4/8/2021 7:45:00 AM 7.69 45.842 0.041 6.64 2.4 11.17
4/8/2021 8:00:00 AM 7.67 45.806 0.041 6.64 2.42 11.24
4/8/2021 8:15:00 AM 7.67 45.806 0.041 6.66 2.5 11.32
4/8/2021 8:30:00 AM 7.68 45.824 0.041 6.7 2.43 11.38
4/8/2021 8:45:00 AM 7.71 45.878 0.041 6.73 2.36 11.44
4/8/2021 9:00:00 AM 7.74 45.932 0.041 6.75 2.37 11.48
4/8/2021 9:15:00 AM 7.79 46.022 0.041 6.73 2.42 11.52
4/8/2021 9:30:00 AM 7.87 46.166 0.041 6.8 2.36 11.54
4/8/2021 9:45:00 AM 7.96 46.328 0.041 6.78 2.35 11.56
4/8/2021 10:00:00 AM 8.08 46.544 0.041 6.82 2.3 11.57
4/8/2021 10:15:00 AM 8.21 46.778 0.041 6.84 2.3 11.57
4/8/2021 10:30:00 AM 8.36 47.048 0.041 6.87 2.3 11.57
4/8/2021 10:45:00 AM 8.54 47.372 0.04 6.88 2.28 11.55
4/8/2021 11:00:00 AM 8.72 47.696 0.04 6.89 2.35 11.5
4/8/2021 11:15:00 AM 8.91 48.038 0.04 6.93 2.33 11.49
4/8/2021 11:30:00 AM 9.14 48.452 0.04 6.96 2.32 11.45
4/8/2021 11:45:00 AM 9.37 48.866 0.04 6.98 2.27 11.39
4/8/2021 12:00:00 PM 9.61 49.298 0.04 6.98 2.23 11.35
4/8/2021 12:15:00 PM 9.86 49.748 0.04 6.98 2.31 11.3
4/8/2021 12:30:00 PM 10.13 50.234 0.04 7.01 2.29 11.25
4/8/2021 12:45:00 PM 10.39 50.702 0.04 7 2.28 11.19
4/8/2021 1:00:00 PM 10.66 51.188 0.04 7.03 2.28 11.11
4/8/2021 1:15:00 PM 10.93 51.674 0.04 7.04 2.3 11.07
4/8/2021 1:30:00 PM 11.2 52.16 0.04 7.02 2.23 10.99
4/8/2021 1:45:00 PM 11.47 52.646 0.04 7.05 2.34 10.95
4/8/2021 2:00:00 PM 11.72 53.096 0.04 7.05 2.31 10.88
4/8/2021 2:15:00 PM 11.97 53.546 0.04 7.06 2.31 10.81
4/8/2021 2:30:00 PM 12.21 53.978 0.04 7.07 2.26 10.76
4/8/2021 2:45:00 PM 12.44 54.392 0.04 7.05 2.31 10.7
4/8/2021 3:00:00 PM 12.65 54.77 0.04 7.04 2.29 10.65
4/8/2021 3:15:00 PM 12.84 55.112 0.039 7.08 2.34 10.6
4/8/2021 3:30:00 PM 13.02 55.436 0.039 7.09 2.74 10.54
4/8/2021 3:45:00 PM 13.16 55.688 0.039 7.08 2.77 10.49
4/8/2021 4:00:00 PM 13.31 55.958 0.039 7.1 2.45 10.46
4/8/2021 4:15:00 PM 13.42 56.156 0.039 7.05 2.65 10.43
4/8/2021 4:30:00 PM 13.52 56.336 0.039 7.03 2.3 10.38
4/8/2021 4:45:00 PM 13.58 56.444 0.039 7.09 2.28 10.35
4/8/2021 5:00:00 PM 13.61 56.498 0.039 7.11 2.34 10.31
4/8/2021 5:15:00 PM 13.61 56.498 0.039 7.05 2.45 10.29
4/8/2021 5:30:00 PM 13.58 56.444 0.039 7.06 2.41 10.26
4/8/2021 5:45:00 PM 13.54 56.372 0.039 7.02 2.44 10.24
4/8/2021 6:00:00 PM 13.47 56.246 0.039 7.02 2.41 10.22
4/8/2021 6:15:00 PM 13.4 56.12 0.039 7.01 2.53 10.21
4/8/2021 6:30:00 PM 13.31 55.958 0.04 6.99 2.44 10.18
4/8/2021 6:45:00 PM 13.21 55.778 0.04 6.95 2.4 10.14
4/8/2021 7:00:00 PM 13.1 55.58 0.04 6.91 2.42 10.12
4/8/2021 7:15:00 PM 12.97 55.346 0.04 6.91 2.44 10.08
4/8/2021 7:30:00 PM 12.83 55.094 0.04 6.89 2.49 10.03
4/8/2021 7:45:00 PM 12.7 54.86 0.04 6.82 2.46 9.98
4/8/2021 8:00:00 PM 12.57 54.626 0.04 6.78 2.45 9.93
4/8/2021 8:15:00 PM 12.43 54.374 0.04 6.74 2.55 9.91
4/8/2021 8:30:00 PM 12.29 54.122 0.04 6.72 2.57 9.9
4/8/2021 8:45:00 PM 12.16 53.888 0.041 6.71 2.53 9.91
4/8/2021 9:00:00 PM 12.03 53.654 0.041 6.68 2.51 9.91
4/8/2021 9:15:00 PM 11.91 53.438 0.041 6.66 2.53 9.92
4/8/2021 9:30:00 PM 11.8 53.24 0.041 6.68 2.49 9.93
4/8/2021 9:45:00 PM 11.68 53.024 0.041 6.7 2.55 9.96
4/8/2021 10:00:00 PM 11.57 52.826 0.041 6.65 2.51 9.98
4/8/2021 10:15:00 PM 11.47 52.646 0.041 6.67 2.49 10.01
4/8/2021 10:30:00 PM 11.37 52.466 0.041 6.69 2.4 10.03
4/8/2021 10:45:00 PM 11.28 52.304 0.042 6.68 2.42 10.04
4/8/2021 11:00:00 PM 11.18 52.124 0.042 6.67 2.45 10.06
4/8/2021 11:15:00 PM 11.08 51.944 0.042 6.64 2.65 10.09
4/8/2021 11:30:00 PM 10.99 51.782 0.042 6.63 2.74 10.11
4/8/2021 11:45:00 PM 10.9 51.62 0.042 6.62 2.89 10.13
4/9/2021 12:00:00 AM 10.81 51.458 0.042 6.6 2.89 10.16
4/9/2021 12:15:00 AM 10.72 51.296 0.042 6.6 2.57 10.17
4/9/2021 12:30:00 AM 10.63 51.134 0.042 6.6 2.72 10.2
4/9/2021 12:45:00 AM 10.54 50.972 0.042 6.61 2.65 10.22
4/9/2021 1:00:00 AM 10.45 50.81 0.042 6.61 2.82 10.25
4/9/2021 1:15:00 AM 10.37 50.666 0.042 6.59 2.72 10.27
4/9/2021 1:30:00 AM 10.28 50.504 0.042 6.61 2.86 10.29
4/9/2021 1:45:00 AM 10.21 50.378 0.042 6.6 2.8 10.31
4/9/2021 2:00:00 AM 10.13 50.234 0.042 6.59 2.87 10.34
4/9/2021 2:15:00 AM 10.06 50.108 0.042 6.6 2.71 10.35
4/9/2021 2:30:00 AM 9.99 49.982 0.042 6.59 2.72 10.36
4/9/2021 2:45:00 AM 9.93 49.874 0.042 6.6 2.77 10.38
4/9/2021 3:00:00 AM 9.87 49.766 0.042 6.58 2.85 10.4
4/9/2021 3:15:00 AM 9.82 49.676 0.042 6.61 2.62 10.42
4/9/2021 3:30:00 AM 9.78 49.604 0.042 6.61 2.8 10.42
4/9/2021 3:45:00 AM 9.74 49.532 0.042 6.61 2.69 10.44
4/9/2021 4:00:00 AM 9.7 49.46 0.042 6.61 2.72 10.44
4/9/2021 4:15:00 AM 9.68 49.424 0.042 6.61 2.7 10.46
4/9/2021 4:30:00 AM 9.65 49.37 0.042 6.6 2.68 10.47
4/9/2021 4:45:00 AM 9.63 49.334 0.042 6.61 2.6 10.47
4/9/2021 5:00:00 AM 9.61 49.298 0.042 6.58 2.67 10.48
4/9/2021 5:15:00 AM 9.58 49.244 0.042 6.61 2.57 10.49
4/9/2021 5:30:00 AM 9.56 49.208 0.042 6.59 2.87 10.49
4/9/2021 5:45:00 AM 9.54 49.172 0.042 6.62 2.85 10.5
4/9/2021 6:00:00 AM 9.51 49.118 0.042 6.6 2.78 10.5
4/9/2021 6:15:00 AM 9.49 49.082 0.042 6.6 3.13 10.51
4/9/2021 6:30:00 AM 9.46 49.028 0.042 6.59 3.85 10.52
4/9/2021 6:45:00 AM 9.44 48.992 0.042 6.63 2.43 10.53
4/9/2021 7:00:00 AM 9.42 48.956 0.042 6.64 2.99 10.55
4/9/2021 7:15:00 AM 9.41 48.938 0.042 6.61 9.49 10.57
4/9/2021 7:30:00 AM 9.4 48.92 0.042 6.63 3.77 10.61
4/9/2021 7:45:00 AM 9.38 48.884 0.042 6.64 3.4 10.64
4/9/2021 8:00:00 AM 9.37 48.866 0.042 6.64 3.28 10.67
4/9/2021 8:15:00 AM 9.36 48.848 0.042 6.64 3.02 10.7
4/9/2021 8:30:00 AM 9.36 48.848 0.042 6.67 2.97 10.75
4/9/2021 8:45:00 AM 9.35 48.83 0.042 6.66 9.88 10.81
4/9/2021 9:00:00 AM 9.35 48.83 0.042 6.69 9.33 10.88
4/9/2021 9:15:00 AM 9.37 48.866 0.042 6.71 7.38 10.95
4/9/2021 9:30:00 AM 9.38 48.884 0.041 6.76 19.53 11.01
4/9/2021 9:45:00 AM 9.41 48.938 0.041 6.79 15.42 11.08
4/9/2021 10:00:00 AM 9.45 49.01 0.041 6.83 2.92 11.14
4/9/2021 10:15:00 AM 9.5 49.1 0.041 6.83 3.44 11.18
4/9/2021 10:30:00 AM 9.56 49.208 0.041 6.89 17.96 11.2
4/9/2021 10:45:00 AM 9.6 49.28 0.041 6.91 6.12 11.23
4/9/2021 11:00:00 AM 9.65 49.37 0.041 6.89 19.32 11.22
4/9/2021 11:15:00 AM 9.69 49.442 0.041 6.94 2.61 11.22
4/9/2021 11:30:00 AM 9.78 49.604 0.041 6.96 2.74 11.23
4/9/2021 11:45:00 AM 9.85 49.73 0.041 7.01 2.81 11.22
4/9/2021 12:00:00 PM 9.91 49.838 0.041 6.98 2.8 11.22
4/9/2021 12:15:00 PM 9.99 49.982 0.041 7.01 3.27 11.2
4/9/2021 12:30:00 PM 10.03 50.054 0.041 7.03 3.36 11.19
4/9/2021 12:45:00 PM 10.05 50.09 0.041 7.06 3.42 11.18
4/9/2021 1:00:00 PM 10.09 50.162 0.04 7.01 2.96 11.17
4/9/2021 1:15:00 PM 10.12 50.216 0.04 7.04 3.11 11.17
4/9/2021 1:30:00 PM 10.17 50.306 0.04 7.06 3.03 11.15
4/9/2021 1:45:00 PM 10.3 50.54 0.04 7.05 3.13 11.15
4/9/2021 2:00:00 PM 10.29 50.522 0.04 7.04 3.05 11.13
4/9/2021 2:15:00 PM 10.3 50.54 0.04 7.04 3.39 11.11
4/9/2021 2:30:00 PM 10.29 50.522 0.04 7.04 3.1 11.08
4/9/2021 2:45:00 PM 10.33 50.594 0.04 7.05 2.81 11.09
4/9/2021 3:00:00 PM 10.34 50.612 0.04 7.03 2.81 11.09
4/9/2021 3:15:00 PM 10.35 50.63 0.04 7.02 2.99 11.06
4/9/2021 3:30:00 PM 10.39 50.702 0.04 7.05 2.69 11.06
4/9/2021 3:45:00 PM 10.46 50.828 0.04 7.05 2.79 11.05
4/9/2021 4:00:00 PM 10.5 50.9 0.04 7.06 3.04 11.05
4/9/2021 4:15:00 PM 10.53 50.954 0.04 7.04 2.93 11.04
4/9/2021 4:30:00 PM 10.53 50.954 0.04 7.06 2.94 10.99
4/9/2021 4:45:00 PM 10.53 50.954 0.04 7.03 3 10.96
4/9/2021 5:00:00 PM 10.54 50.972 0.04 7.05 3.22 10.94
4/9/2021 5:15:00 PM 10.56 51.008 0.04 7.01 3.37 10.93
4/9/2021 5:30:00 PM 10.56 51.008 0.04 6.95 2.52 10.88
4/9/2021 5:45:00 PM 10.56 51.008 0.04 6.94 2.42 10.85
4/9/2021 6:00:00 PM 10.53 50.954 0.04 6.89 2.4 10.8
4/9/2021 6:15:00 PM 10.53 50.954 0.04 6.88 2.34 10.8
4/9/2021 6:30:00 PM 10.52 50.936 0.04 6.88 2.48 10.8
4/9/2021 6:45:00 PM 10.51 50.918 0.04 6.89 2.38 10.77
4/9/2021 7:00:00 PM 10.5 50.9 0.04 6.85 2.4 10.72
4/9/2021 7:15:00 PM 10.47 50.846 0.04 6.84 2.43 10.66
4/9/2021 7:30:00 PM 10.44 50.792 0.041 6.84 2.45 10.59
4/9/2021 7:45:00 PM 10.39 50.702 0.041 6.77 2.41 10.54
4/9/2021 8:00:00 PM 10.35 50.63 0.041 6.77 2.38 10.49
4/9/2021 8:15:00 PM 10.31 50.558 0.041 6.75 2.43 10.46
4/9/2021 8:30:00 PM 10.26 50.468 0.041 6.68 2.46 10.44
4/9/2021 8:45:00 PM 10.22 50.396 0.041 6.69 2.45 10.42
4/9/2021 9:00:00 PM 10.18 50.324 0.041 6.66 2.49 10.41
4/9/2021 9:15:00 PM 10.15 50.27 0.041 6.7 2.48 10.41
4/9/2021 9:30:00 PM 10.11 50.198 0.041 6.72 2.41 10.41
4/9/2021 9:45:00 PM 10.08 50.144 0.041 6.71 2.41 10.41
4/9/2021 10:00:00 PM 10.05 50.09 0.042 6.69 2.48 10.41
4/9/2021 10:15:00 PM 10.02 50.036 0.042 6.69 2.4 10.41
4/9/2021 10:30:00 PM 10 50 0.042 6.68 2.37 10.41
4/9/2021 10:45:00 PM 9.98 49.964 0.042 6.68 2.4 10.41
4/9/2021 11:00:00 PM 9.95 49.91 0.042 6.69 2.35 10.41
4/9/2021 11:15:00 PM 9.93 49.874 0.042 6.67 2.38 10.41
4/9/2021 11:30:00 PM 9.91 49.838 0.042 6.66 2.41 10.42
4/9/2021 11:45:00 PM 9.89 49.802 0.042 6.68 2.36 10.42
4/10/2021 12:00:00 AM 9.88 49.784 0.042 6.68 2.39 10.42
4/10/2021 12:15:00 AM 9.86 49.748 0.042 6.69 2.41 10.43
4/10/2021 12:30:00 AM 9.84 49.712 0.042 6.68 2.38 10.44
4/10/2021 12:45:00 AM 9.82 49.676 0.042 6.67 2.36 10.44
4/10/2021 1:00:00 AM 9.81 49.658 0.042 6.62 2.42 10.45
4/10/2021 1:15:00 AM 9.79 49.622 0.042 6.65 2.36 10.45
4/10/2021 1:30:00 AM 9.77 49.586 0.042 6.61 2.34 10.45
4/10/2021 1:45:00 AM 9.75 49.55 0.042 6.67 2.38 10.46
4/10/2021 2:00:00 AM 9.74 49.532 0.042 6.63 2.35 10.47
4/10/2021 2:15:00 AM 9.72 49.496 0.042 6.65 2.41 10.47
4/10/2021 2:30:00 AM 9.7 49.46 0.042 6.63 2.4 10.48
4/10/2021 2:45:00 AM 9.68 49.424 0.042 6.64 2.5 10.48
4/10/2021 3:00:00 AM 9.66 49.388 0.042 6.62 2.37 10.49
4/10/2021 3:15:00 AM 9.64 49.352 0.042 6.61 2.35 10.49
4/10/2021 3:30:00 AM 9.62 49.316 0.042 6.63 2.34 10.5
4/10/2021 3:45:00 AM 9.6 49.28 0.042 6.6 2.38 10.5
4/10/2021 4:00:00 AM 9.58 49.244 0.042 6.6 2.42 10.5
4/10/2021 4:15:00 AM 9.56 49.208 0.042 6.62 2.44 10.5
4/10/2021 4:30:00 AM 9.54 49.172 0.042 6.63 2.34 10.5
4/10/2021 4:45:00 AM 9.52 49.136 0.042 6.61 2.4 10.5
4/10/2021 5:00:00 AM 9.5 49.1 0.042 6.58 2.35 10.5
4/10/2021 5:15:00 AM 9.49 49.082 0.042 6.59 2.41 10.51
4/10/2021 5:30:00 AM 9.48 49.064 0.042 6.61 2.39 10.51
4/10/2021 5:45:00 AM 9.47 49.046 0.042 6.6 2.37 10.52
4/10/2021 6:00:00 AM 9.45 49.01 0.042 6.61 2.37 10.52
4/10/2021 6:15:00 AM 9.45 49.01 0.042 6.6 2.38 10.52
4/10/2021 6:30:00 AM 9.44 48.992 0.042 6.6 2.41 10.52
4/10/2021 6:45:00 AM 9.42 48.956 0.042 6.62 2.45 10.53
4/10/2021 7:00:00 AM 9.42 48.956 0.042 6.62 2.35 10.54
4/10/2021 7:15:00 AM 9.41 48.938 0.042 6.62 2.41 10.56
4/10/2021 7:30:00 AM 9.41 48.938 0.042 6.64 2.35 10.59
4/10/2021 7:45:00 AM 9.41 48.938 0.042 6.66 2.35 10.63
4/10/2021 8:00:00 AM 9.42 48.956 0.042 6.66 2.37 10.7
4/10/2021 8:15:00 AM 9.43 48.974 0.042 6.67 2.35 10.77
4/10/2021 8:30:00 AM 9.46 49.028 0.042 6.69 2.32 10.85
4/10/2021 8:45:00 AM 9.49 49.082 0.042 6.73 2.34 10.92
4/10/2021 9:00:00 AM 9.53 49.154 0.042 6.77 2.32 10.98
4/10/2021 9:15:00 AM 9.56 49.208 0.042 6.79 2.35 11.03
4/10/2021 9:30:00 AM 9.61 49.298 0.042 6.83 2.35 11.08
4/10/2021 9:45:00 AM 9.67 49.406 0.042 6.84 2.33 11.12
4/10/2021 10:00:00 AM 9.76 49.568 0.042 6.92 2.27 11.15
4/10/2021 10:15:00 AM 9.86 49.748 0.042 6.91 2.4 11.16
4/10/2021 10:30:00 AM 9.98 49.964 0.041 6.93 2.37 11.17
4/10/2021 10:45:00 AM 10.14 50.252 0.041 6.97 2.34 11.18
4/10/2021 11:00:00 AM 10.26 50.468 0.041 7.01 2.25 11.16
4/10/2021 11:15:00 AM 10.43 50.774 0.041 7.01 2.36 11.12
4/10/2021 11:30:00 AM 10.66 51.188 0.041 7.03 2.33 11.08
4/10/2021 11:45:00 AM 10.83 51.494 0.041 7.03 2.39 11.06
4/10/2021 12:00:00 PM 10.99 51.782 0.041 7.07 2.29 11.03
4/10/2021 12:15:00 PM 11.15 52.07 0.041 7.05 2.3 11
4/10/2021 12:30:00 PM 11.37 52.466 0.041 7.06 2.29 10.94
4/10/2021 12:45:00 PM 11.6 52.88 0.041 7.06 2.28 10.89
4/10/2021 1:00:00 PM 11.79 53.222 0.041 7.1 2.24 10.84
4/10/2021 1:15:00 PM 12.02 53.636 0.041 7.08 2.29 10.79
4/10/2021 1:30:00 PM 12.22 53.996 0.041 7.09 2.29 10.75
4/10/2021 1:45:00 PM 12.42 54.356 0.041 7.1 2.26 10.7
4/10/2021 2:00:00 PM 12.63 54.734 0.041 7.11 2.27 10.65
4/10/2021 2:15:00 PM 12.82 55.076 0.04 7.11 2.27 10.61
4/10/2021 2:30:00 PM 13 55.4 0.04 7.13 2.23 10.56
4/10/2021 2:45:00 PM 13.17 55.706 0.04 7.12 2.3 10.51
4/10/2021 3:00:00 PM 13.31 55.958 0.04 7.15 2.27 10.47
4/10/2021 3:15:00 PM 13.46 56.228 0.04 7.13 2.33 10.44
4/10/2021 3:30:00 PM 13.59 56.462 0.04 7.16 2.3 10.4
4/10/2021 3:45:00 PM 13.69 56.642 0.04 7.13 2.25 10.37
4/10/2021 4:00:00 PM 13.79 56.822 0.04 7.13 2.35 10.32
4/10/2021 4:15:00 PM 13.87 56.966 0.04 7.15 2.34 10.29
4/10/2021 4:30:00 PM 13.91 57.038 0.04 7.14 2.3 10.27
4/10/2021 4:45:00 PM 13.94 57.092 0.04 7.15 2.33 10.24
4/10/2021 5:00:00 PM 13.97 57.146 0.04 7.11 3 10.23
4/10/2021 5:15:00 PM 13.96 57.128 0.04 7.13 2.37 10.21
4/10/2021 5:30:00 PM 13.94 57.092 0.04 7.11 2.48 10.18
4/10/2021 5:45:00 PM 13.9 57.02 0.04 7.13 2.34 10.16
4/10/2021 6:00:00 PM 13.85 56.93 0.04 7.12 2.36 10.13
4/10/2021 6:15:00 PM 13.79 56.822 0.04 7.06 2.43 10.1
4/10/2021 6:30:00 PM 13.7 56.66 0.04 7.02 2.42 10.07
4/10/2021 6:45:00 PM 13.61 56.498 0.04 7.01 2.37 10.04
4/10/2021 7:00:00 PM 13.51 56.318 0.04 6.95 2.52 10
4/10/2021 7:15:00 PM 13.41 56.138 0.041 6.96 2.43 9.95
4/10/2021 7:30:00 PM 13.3 55.94 0.041 6.94 2.49 9.89
4/10/2021 7:45:00 PM 13.19 55.742 0.041 6.88 2.48 9.83
4/10/2021 8:00:00 PM 13.07 55.526 0.041 6.81 2.55 9.78
4/10/2021 8:15:00 PM 12.96 55.328 0.041 6.81 2.68 9.75
4/10/2021 8:30:00 PM 12.85 55.13 0.041 6.76 2.52 9.72
4/10/2021 8:45:00 PM 12.75 54.95 0.041 6.73 2.41 9.71
4/10/2021 9:00:00 PM 12.64 54.752 0.041 6.75 2.42 9.7
4/10/2021 9:15:00 PM 12.54 54.572 0.042 6.73 2.5 9.7
4/10/2021 9:30:00 PM 12.43 54.374 0.042 6.72 2.5 9.71
4/10/2021 9:45:00 PM 12.33 54.194 0.042 6.72 2.54 9.73
4/10/2021 10:00:00 PM 12.24 54.032 0.042 6.69 2.47 9.74
4/10/2021 10:15:00 PM 12.16 53.888 0.042 6.67 2.51 9.77
4/10/2021 10:30:00 PM 12.08 53.744 0.042 6.68 2.84 9.78
4/10/2021 10:45:00 PM 12 53.6 0.042 6.67 2.45 9.79
4/10/2021 11:00:00 PM 11.93 53.474 0.042 6.7 2.48 9.8
4/10/2021 11:15:00 PM 11.86 53.348 0.042 6.64 2.57 9.82
4/10/2021 11:30:00 PM 11.8 53.24 0.042 6.66 2.51 9.84
4/10/2021 11:45:00 PM 11.73 53.114 0.042 6.68 2.53 9.85
4/11/2021 12:00:00 AM 11.66 52.988 0.043 6.65 2.52 9.87
4/11/2021 12:15:00 AM 11.6 52.88 0.043 6.67 3.03 9.89
4/11/2021 12:30:00 AM 11.54 52.772 0.043 6.66 2.43 9.9
4/11/2021 12:45:00 AM 11.48 52.664 0.043 6.65 2.56 9.91
4/11/2021 1:00:00 AM 11.43 52.574 0.043 6.65 2.44 9.92
4/11/2021 1:15:00 AM 11.37 52.466 0.043 6.66 2.42 9.93
4/11/2021 1:30:00 AM 11.32 52.376 0.043 6.67 2.43 9.93
4/11/2021 1:45:00 AM 11.28 52.304 0.043 6.65 2.47 9.94
4/11/2021 2:00:00 AM 11.23 52.214 0.043 6.65 2.43 9.95
4/11/2021 2:15:00 AM 11.18 52.124 0.043 6.63 2.43 9.96
4/11/2021 2:30:00 AM 11.14 52.052 0.043 6.63 2.43 9.97
4/11/2021 2:45:00 AM 11.1 51.98 0.043 6.64 2.39 9.97
4/11/2021 3:00:00 AM 11.07 51.926 0.043 6.63 2.42 9.98
4/11/2021 3:15:00 AM 11.03 51.854 0.043 6.66 2.38 10
4/11/2021 3:30:00 AM 11 51.8 0.043 6.61 2.45 10
4/11/2021 3:45:00 AM 10.97 51.746 0.043 6.66 2.36 10
4/11/2021 4:00:00 AM 10.94 51.692 0.043 6.67 2.48 10.01
4/11/2021 4:15:00 AM 10.9 51.62 0.043 6.64 2.46 10.01
4/11/2021 4:30:00 AM 10.88 51.584 0.043 6.62 2.49 10.02
4/11/2021 4:45:00 AM 10.85 51.53 0.043 6.62 2.45 10.03
4/11/2021 5:00:00 AM 10.82 51.476 0.043 6.61 2.43 10.03
4/11/2021 5:15:00 AM 10.81 51.458 0.043 6.67 2.47 10.03
4/11/2021 5:30:00 AM 10.79 51.422 0.043 6.65 2.34 10.03
4/11/2021 5:45:00 AM 10.76 51.368 0.043 6.66 2.58 10.03
4/11/2021 6:00:00 AM 10.74 51.332 0.043 6.66 2.63 10.04
4/11/2021 6:15:00 AM 10.73 51.314 0.043 6.64 2.39 10.04
4/11/2021 6:30:00 AM 10.71 51.278 0.043 6.64 2.48 10.04
4/11/2021 6:45:00 AM 10.7 51.26 0.043 6.68 2.47 10.04
4/11/2021 7:00:00 AM 10.68 51.224 0.043 6.63 2.44 10.05
4/11/2021 7:15:00 AM 10.67 51.206 0.043 6.61 2.62 10.05
4/11/2021 7:30:00 AM 10.66 51.188 0.043 6.63 2.46 10.07
4/11/2021 7:45:00 AM 10.65 51.17 0.043 6.66 2.41 10.1
4/11/2021 8:00:00 AM 10.64 51.152 0.043 6.65 2.58 10.12
4/11/2021 8:15:00 AM 10.63 51.134 0.042 6.65 2.5 10.16
4/11/2021 8:30:00 AM 10.63 51.134 0.042 6.64 2.81 10.19
4/11/2021 8:45:00 AM 10.63 51.134 0.042 6.66 2.72 10.24
4/11/2021 9:00:00 AM 10.63 51.134 0.042 6.67 2.66 10.29
4/11/2021 9:15:00 AM 10.64 51.152 0.042 6.7 2.6 10.34
4/11/2021 9:30:00 AM 10.65 51.17 0.042 6.73 2.67 10.41
4/11/2021 9:45:00 AM 10.68 51.224 0.042 6.75 2.6 10.48
4/11/2021 10:00:00 AM 10.7 51.26 0.042 6.76 2.6 10.53
4/11/2021 10:15:00 AM 10.72 51.296 0.042 6.83 2.68 10.58
4/11/2021 10:30:00 AM 10.74 51.332 0.042 6.81 2.72 10.6
4/11/2021 10:45:00 AM 10.76 51.368 0.041 6.84 2.7 10.63
4/11/2021 11:00:00 AM 10.78 51.404 0.041 6.86 2.77 10.63
4/11/2021 11:15:00 AM 10.81 51.458 0.041 6.91 2.85 10.66
4/11/2021 11:30:00 AM 10.84 51.512 0.041 6.93 2.78 10.67
4/11/2021 11:45:00 AM 10.94 51.692 0.041 6.95 2.75 10.71
4/11/2021 12:00:00 PM 11 51.8 0.041 6.96 3.15 10.72
4/11/2021 12:15:00 PM 11.07 51.926 0.041 7 2.9 10.74
4/11/2021 12:30:00 PM 11.19 52.142 0.041 7.01 2.94 10.74
4/11/2021 12:45:00 PM 11.33 52.394 0.041 7.03 3.06 10.74
4/11/2021 1:00:00 PM 11.44 52.592 0.041 7.04 3.09 10.73
4/11/2021 1:15:00 PM 11.57 52.826 0.041 7.08 3 10.72
4/11/2021 1:30:00 PM 11.72 53.096 0.041 7.07 3 10.7
4/11/2021 1:45:00 PM 11.8 53.24 0.041 7.11 2.95 10.67
4/11/2021 2:00:00 PM 11.84 53.312 0.041 7.06 3 10.63
4/11/2021 2:15:00 PM 11.93 53.474 0.041 7.1 2.91 10.6
4/11/2021 2:30:00 PM 11.96 53.528 0.041 7.06 2.84 10.59
4/11/2021 2:45:00 PM 11.96 53.528 0.041 7.09 2.95 10.54
4/11/2021 3:00:00 PM 11.96 53.528 0.041 7.11 2.74 10.52
4/11/2021 3:15:00 PM 11.98 53.564 0.041 7.07 2.91 10.52
4/11/2021 3:30:00 PM 12.01 53.618 0.041 7.08 3.01 10.53
4/11/2021 3:45:00 PM 12.07 53.726 0.041 7.04 2.8 10.54
4/11/2021 4:00:00 PM 12.17 53.906 0.041 7.09 2.85 10.54
4/11/2021 4:15:00 PM 12.24 54.032 0.041 7.1 3.06 10.52
4/11/2021 4:30:00 PM 12.28 54.104 0.041 7.06 3.04 10.49
4/11/2021 4:45:00 PM 12.31 54.158 0.041 7.07 3.06 10.44
4/11/2021 5:00:00 PM 12.31 54.158 0.041 7.03 2.79 10.35
4/11/2021 5:15:00 PM 12.3 54.14 0.041 7 2.83 10.29
4/11/2021 5:30:00 PM 12.27 54.086 0.041 6.97 2.78 10.19
4/11/2021 5:45:00 PM 12.24 54.032 0.041 6.85 2.85 10.11
4/11/2021 6:00:00 PM 12.21 53.978 0.041 6.86 2.94 10.11
4/11/2021 6:15:00 PM 12.19 53.942 0.041 6.85 2.7 10.16
4/11/2021 6:30:00 PM 12.16 53.888 0.042 6.87 2.69 10.17
4/11/2021 6:45:00 PM 12.15 53.87 0.042 6.86 2.72 10.18
4/11/2021 7:00:00 PM 12.14 53.852 0.042 6.87 2.66 10.18
4/11/2021 7:15:00 PM 12.11 53.798 0.042 6.86 2.95 10.15
4/11/2021 7:30:00 PM 12.08 53.744 0.042 6.85 2.61 10.12
4/11/2021 7:45:00 PM 12.05 53.69 0.042 6.82 2.66 10.06
4/11/2021 8:00:00 PM 12 53.6 0.042 6.78 2.89 9.99
4/11/2021 8:15:00 PM 11.95 53.51 0.042 6.75 2.7 9.94
4/11/2021 8:30:00 PM 11.89 53.402 0.042 6.82 2.74 9.9
4/11/2021 8:45:00 PM 11.83 53.294 0.042 6.74 3.5 9.86
4/11/2021 9:00:00 PM 11.78 53.204 0.043 6.76 2.98 9.84
4/11/2021 9:15:00 PM 11.73 53.114 0.043 6.63 2.98 9.84
4/11/2021 9:30:00 PM 11.68 53.024 0.043 6.65 2.84 9.83
4/11/2021 9:45:00 PM 11.64 52.952 0.043 6.64 2.81 9.84
4/11/2021 10:00:00 PM 11.59 52.862 0.043 6.63 2.69 9.84
4/11/2021 10:15:00 PM 11.54 52.772 0.043 6.62 2.81 9.86
4/11/2021 10:30:00 PM 11.48 52.664 0.043 6.63 3.32 9.87
4/11/2021 10:45:00 PM 11.43 52.574 0.043 6.6 2.91 9.88
4/11/2021 11:00:00 PM 11.37 52.466 0.043 6.59 2.97 9.89
4/11/2021 11:15:00 PM 11.31 52.358 0.043 6.61 2.92 9.89
4/11/2021 11:30:00 PM 11.25 52.25 0.043 6.61 2.84 9.9
4/11/2021 11:45:00 PM 11.19 52.142 0.043 6.59 2.82 9.92
4/12/2021 12:00:00 AM 11.13 52.034 0.043 6.61 2.72 9.94
4/12/2021 12:15:00 AM 11.08 51.944 0.043 6.59 2.92 9.95
4/12/2021 12:30:00 AM 11.04 51.872 0.043 6.59 2.81 9.96
4/12/2021 12:45:00 AM 10.99 51.782 0.043 6.58 2.84 9.97
4/12/2021 1:00:00 AM 10.95 51.71 0.043 6.57 2.97 9.99
4/12/2021 1:15:00 AM 10.91 51.638 0.043 6.59 2.93 10
4/12/2021 1:30:00 AM 10.87 51.566 0.043 6.59 3.03 10.01
4/12/2021 1:45:00 AM 10.84 51.512 0.043 6.59 3.05 10.02
4/12/2021 2:00:00 AM 10.8 51.44 0.043 6.59 2.97 10.03
4/12/2021 2:15:00 AM 10.76 51.368 0.043 6.58 3.03 10.03
4/12/2021 2:30:00 AM 10.73 51.314 0.043 6.57 3.19 10.04
4/12/2021 2:45:00 AM 10.69 51.242 0.043 6.57 3.14 10.04
4/12/2021 3:00:00 AM 10.65 51.17 0.043 6.56 3.76 10.05
4/12/2021 3:15:00 AM 10.61 51.098 0.043 6.55 3.02 10.06
4/12/2021 3:30:00 AM 10.58 51.044 0.043 6.57 2.88 10.07
4/12/2021 3:45:00 AM 10.54 50.972 0.043 6.56 2.86 10.08
4/12/2021 4:00:00 AM 10.5 50.9 0.043 6.56 3.65 10.09
4/12/2021 4:15:00 AM 10.46 50.828 0.043 6.56 3.07 10.1
4/12/2021 4:30:00 AM 10.43 50.774 0.043 6.57 3.06 10.11
4/12/2021 4:45:00 AM 10.4 50.72 0.043 6.58 3.24 10.12
4/12/2021 5:00:00 AM 10.36 50.648 0.043 6.56 3.32 10.13
4/12/2021 5:15:00 AM 10.32 50.576 0.043 6.56 3.02 10.15
4/12/2021 5:30:00 AM 10.28 50.504 0.043 6.56 2.96 10.15
4/12/2021 5:45:00 AM 10.25 50.45 0.043 6.57 3.63 10.16
4/12/2021 6:00:00 AM 10.22 50.396 0.043 6.57 2.98 10.17
4/12/2021 6:15:00 AM 10.19 50.342 0.043 6.57 4.13 10.18
4/12/2021 6:30:00 AM 10.15 50.27 0.044 6.57 4.02 10.19
4/12/2021 6:45:00 AM 10.12 50.216 0.044 6.56 3.26 10.2
4/12/2021 7:00:00 AM 10.09 50.162 0.044 6.57 3 10.23
4/12/2021 7:15:00 AM 10.07 50.126 0.044 6.57 3.64 10.26
4/12/2021 7:30:00 AM 10.05 50.09 0.044 6.6 2.85 10.29
4/12/2021 7:45:00 AM 10.03 50.054 0.044 6.6 2.87 10.32
4/12/2021 8:00:00 AM 10.02 50.036 0.044 6.59 3.34 10.35
4/12/2021 8:15:00 AM 10.01 50.018 0.043 6.6 3.17 10.38
4/12/2021 8:30:00 AM 9.99 49.982 0.043 6.61 3.05 10.42
4/12/2021 8:45:00 AM 9.98 49.964 0.043 6.63 2.7 10.46
4/12/2021 9:00:00 AM 9.97 49.946 0.043 6.63 4.76 10.48
4/12/2021 9:15:00 AM 9.95 49.91 0.043 6.64 2.96 10.5
4/12/2021 9:30:00 AM 9.94 49.892 0.043 6.65 3.11 10.5
4/12/2021 9:45:00 AM 9.92 49.856 0.043 6.66 3.44 10.5
4/12/2021 10:00:00 AM 9.91 49.838 0.043 6.67 2.88 10.55
4/12/2021 10:15:00 AM 9.91 49.838 0.043 6.68 2.79 10.61
4/12/2021 10:30:00 AM 9.91 49.838 0.043 6.7 3.27 10.65
4/12/2021 10:45:00 AM 9.92 49.856 0.043 6.73 3.07 10.71
4/12/2021 11:00:00 AM 9.93 49.874 0.043 6.74 2.8 10.74
4/12/2021 11:15:00 AM 9.94 49.892 0.043 6.76 2.94 10.78
4/12/2021 11:30:00 AM 9.96 49.928 0.043 6.79 2.71 10.83
4/12/2021 11:45:00 AM 10 50 0.043 6.82 4.75 10.88
4/12/2021 12:00:00 PM 10.02 50.036 0.043 6.85 2.64 10.9
4/12/2021 12:15:00 PM 10.06 50.108 0.043 6.87 5.09 10.93
4/12/2021 12:30:00 PM 10.1 50.18 0.042 6.9 3.25 10.96
4/12/2021 12:45:00 PM 10.14 50.252 0.042 6.92 2.52 10.97
4/12/2021 1:00:00 PM 10.21 50.378 0.042 6.95 2.68 10.99
4/12/2021 1:15:00 PM 10.28 50.504 0.042 6.95 2.58 10.99
4/12/2021 1:30:00 PM 10.35 50.63 0.042 6.96 2.77 10.99
4/12/2021 1:45:00 PM 10.47 50.846 0.042 7 2.47 10.98
4/12/2021 2:00:00 PM 10.56 51.008 0.042 7 3.21 10.97
4/12/2021 2:15:00 PM 10.61 51.098 0.042 7.02 2.64 10.95
4/12/2021 2:30:00 PM 10.73 51.314 0.042 7.03 2.69 10.94
4/12/2021 2:45:00 PM 10.74 51.332 0.042 7.03 2.53 10.9
4/12/2021 3:00:00 PM 10.73 51.314 0.042 7 2.5 10.85
4/12/2021 3:15:00 PM 10.73 51.314 0.042 6.99 2.87 10.84
4/12/2021 3:30:00 PM 10.78 51.404 0.042 7.02 3.38 10.86
4/12/2021 3:45:00 PM 10.76 51.368 0.042 7.01 2.88 10.84
4/12/2021 4:00:00 PM 10.75 51.35 0.042 6.99 2.52 10.77
4/12/2021 4:15:00 PM 10.75 51.35 0.042 6.96 2.59 10.77
4/12/2021 4:30:00 PM 10.74 51.332 0.042 6.97 2.56 10.77
4/12/2021 4:45:00 PM 10.76 51.368 0.042 6.98 2.73 10.8
4/12/2021 5:00:00 PM 10.74 51.332 0.042 6.98 2.6 10.8
4/12/2021 5:15:00 PM 10.71 51.278 0.042 6.96 2.84 10.78
4/12/2021 5:30:00 PM 10.67 51.206 0.042 6.96 4.62 10.71
4/12/2021 5:45:00 PM 10.64 51.152 0.042 6.93 2.98 10.68
4/12/2021 6:00:00 PM 10.6 51.08 0.042 6.9 3.29 10.66
4/12/2021 6:15:00 PM 10.55 50.99 0.042 6.88 2.52 10.64
4/12/2021 6:30:00 PM 10.53 50.954 0.042 6.86 2.45 10.65
4/12/2021 6:45:00 PM 10.5 50.9 0.042 6.85 2.42 10.64
4/12/2021 7:00:00 PM 10.46 50.828 0.042 6.84 2.47 10.63
4/12/2021 7:15:00 PM 10.43 50.774 0.042 6.84 2.49 10.6
4/12/2021 7:30:00 PM 10.39 50.702 0.042 6.8 2.49 10.55
4/12/2021 7:45:00 PM 10.35 50.63 0.042 6.78 2.49 10.5
4/12/2021 8:00:00 PM 10.3 50.54 0.042 6.75 2.55 10.45
4/12/2021 8:15:00 PM 10.27 50.486 0.042 6.73 2.5 10.4
4/12/2021 8:30:00 PM 10.23 50.414 0.043 6.71 2.49 10.38
4/12/2021 8:45:00 PM 10.2 50.36 0.043 6.69 2.53 10.36
4/12/2021 9:00:00 PM 10.17 50.306 0.043 6.67 2.59 10.34
4/12/2021 9:15:00 PM 10.13 50.234 0.043 6.67 2.57 10.34
4/12/2021 9:30:00 PM 10.1 50.18 0.043 6.64 2.57 10.33
4/12/2021 9:45:00 PM 10.07 50.126 0.043 6.65 2.48 10.34
4/12/2021 10:00:00 PM 10.03 50.054 0.043 6.64 2.61 10.34
4/12/2021 10:15:00 PM 10 50 0.043 6.62 2.55 10.34
4/12/2021 10:30:00 PM 9.96 49.928 0.043 6.63 2.58 10.35
4/12/2021 10:45:00 PM 9.93 49.874 0.043 6.63 2.53 10.36
4/12/2021 11:00:00 PM 9.89 49.802 0.043 6.6 2.55 10.37
4/12/2021 11:15:00 PM 9.86 49.748 0.043 6.61 2.43 10.37
4/12/2021 11:30:00 PM 9.83 49.694 0.043 6.59 2.59 10.38
4/12/2021 11:45:00 PM 9.8 49.64 0.043 6.61 2.56 10.39
4/13/2021 12:00:00 AM 9.77 49.586 0.043 6.61 2.52 10.4
4/13/2021 12:15:00 AM 9.74 49.532 0.043 6.62 2.49 10.41
4/13/2021 12:30:00 AM 9.71 49.478 0.043 6.61 2.46 10.42
4/13/2021 12:45:00 AM 9.68 49.424 0.043 6.6 2.46 10.43
4/13/2021 1:00:00 AM 9.65 49.37 0.043 6.61 2.48 10.44
4/13/2021 1:15:00 AM 9.62 49.316 0.043 6.61 2.48 10.44
4/13/2021 1:30:00 AM 9.6 49.28 0.043 6.62 2.48 10.45
4/13/2021 1:45:00 AM 9.57 49.226 0.044 6.62 2.56 10.46
4/13/2021 2:00:00 AM 9.55 49.19 0.044 6.6 2.5 10.47
4/13/2021 2:15:00 AM 9.52 49.136 0.044 6.61 2.47 10.47
4/13/2021 2:30:00 AM 9.5 49.1 0.044 6.61 2.44 10.48
4/13/2021 2:45:00 AM 9.48 49.064 0.044 6.62 2.51 10.49
4/13/2021 3:00:00 AM 9.45 49.01 0.044 6.62 2.43 10.49
4/13/2021 3:15:00 AM 9.43 48.974 0.044 6.61 2.5 10.49
4/13/2021 3:30:00 AM 9.4 48.92 0.044 6.61 2.46 10.5
4/13/2021 3:45:00 AM 9.37 48.866 0.044 6.62 2.5 10.51
4/13/2021 4:00:00 AM 9.34 48.812 0.044 6.6 2.46 10.52
4/13/2021 4:15:00 AM 9.32 48.776 0.044 6.61 2.42 10.52
4/13/2021 4:30:00 AM 9.29 48.722 0.044 6.61 2.4 10.53
4/13/2021 4:45:00 AM 9.27 48.686 0.044 6.61 2.47 10.54
4/13/2021 5:00:00 AM 9.25 48.65 0.044 6.61 2.45 10.55
4/13/2021 5:15:00 AM 9.22 48.596 0.044 6.59 2.46 10.56
4/13/2021 5:30:00 AM 9.2 48.56 0.044 6.6 2.43 10.57
4/13/2021 5:45:00 AM 9.17 48.506 0.044 6.6 2.43 10.57
4/13/2021 6:00:00 AM 9.16 48.488 0.044 6.61 2.51 10.58
4/13/2021 6:15:00 AM 9.14 48.452 0.044 6.58 2.47 10.59
4/13/2021 6:30:00 AM 9.12 48.416 0.044 6.6 2.46 10.59
4/13/2021 6:45:00 AM 9.11 48.398 0.044 6.58 2.46 10.6
4/13/2021 7:00:00 AM 9.09 48.362 0.044 6.61 2.52 10.62
4/13/2021 7:15:00 AM 9.08 48.344 0.044 6.61 2.54 10.64
4/13/2021 7:30:00 AM 9.08 48.344 0.044 6.6 2.54 10.68
4/13/2021 7:45:00 AM 9.07 48.326 0.043 6.6 2.53 10.73
4/13/2021 8:00:00 AM 9.07 48.326 0.043 6.65 2.46 10.77
4/13/2021 8:15:00 AM 9.07 48.326 0.043 6.65 2.44 10.81
4/13/2021 8:30:00 AM 9.08 48.344 0.043 6.68 2.43 10.88
4/13/2021 8:45:00 AM 9.09 48.362 0.043 6.69 2.42 10.95
4/13/2021 9:00:00 AM 9.11 48.398 0.043 6.72 2.51 10.99
4/13/2021 9:15:00 AM 9.15 48.47 0.043 6.75 2.45 11.08
4/13/2021 9:30:00 AM 9.21 48.578 0.043 6.78 2.44 11.13
4/13/2021 9:45:00 AM 9.3 48.74 0.043 6.81 2.44 11.17
4/13/2021 10:00:00 AM 9.37 48.866 0.043 6.84 2.43 11.22
4/13/2021 10:15:00 AM 9.63 49.334 0.043 6.88 2.44 11.25
4/13/2021 10:30:00 AM 9.77 49.586 0.043 6.89 2.52 11.25
4/13/2021 10:45:00 AM 9.89 49.802 0.043 6.93 2.45 11.24
4/13/2021 11:00:00 AM 9.95 49.91 0.043 6.94 2.34 11.2
4/13/2021 11:15:00 AM 10.11 50.198 0.043 6.94 2.42 11.2
4/13/2021 11:30:00 AM 10.44 50.792 0.042 6.98 2.45 11.17
4/13/2021 11:45:00 AM 10.56 51.008 0.042 6.99 2.43 11.13
4/13/2021 12:00:00 PM 10.59 51.062 0.042 6.99 2.42 11.09
4/13/2021 12:15:00 PM 10.6 51.08 0.042 7 2.44 11.06
4/13/2021 12:30:00 PM 10.68 51.224 0.042 7.01 2.4 11.05
4/13/2021 12:45:00 PM 10.76 51.368 0.042 7.01 2.4 11.03
4/13/2021 1:00:00 PM 10.88 51.584 0.042 7.01 2.45 10.99
4/13/2021 1:15:00 PM 10.74 51.332 0.042 7 2.42 10.94
4/13/2021 1:30:00 PM 10.7 51.26 0.042 6.97 2.52 10.87
4/13/2021 1:45:00 PM 10.67 51.206 0.042 6.92 2.41 10.85
4/13/2021 2:00:00 PM 10.65 51.17 0.042 6.94 2.49 10.86
4/13/2021 2:15:00 PM 10.72 51.296 0.042 6.97 2.48 10.91
4/13/2021 2:30:00 PM 10.88 51.584 0.042 6.98 2.39 10.93
4/13/2021 2:45:00 PM 10.78 51.404 0.042 6.94 2.47 10.89
4/13/2021 3:00:00 PM 10.79 51.422 0.042 6.96 2.51 10.82
4/13/2021 3:15:00 PM 10.74 51.332 0.042 6.92 2.5 10.79
4/13/2021 3:30:00 PM 10.77 51.386 0.042 6.88 2.51 10.82
4/13/2021 3:45:00 PM 10.85 51.53 0.042 6.94 2.47 10.85
4/13/2021 4:00:00 PM 10.86 51.548 0.042 6.95 2.45 10.88
4/13/2021 4:15:00 PM 11.03 51.854 0.042 7 2.42 10.9
4/13/2021 4:30:00 PM 11.23 52.214 0.042 7.02 2.4 10.9
4/13/2021 4:45:00 PM 11.26 52.268 0.042 7.12 2.63 10.87
4/13/2021 5:00:00 PM 11.23 52.214 0.042 7.04 2.48 10.85
4/13/2021 5:15:00 PM 11.21 52.178 0.042 7.02 2.48 10.83
4/13/2021 5:30:00 PM 11.16 52.088 0.042 7 2.41 10.79
4/13/2021 5:45:00 PM 11.17 52.106 0.042 7 2.43 10.77
4/13/2021 6:00:00 PM 11.13 52.034 0.042 6.99 2.46 10.74
4/13/2021 6:15:00 PM 11.09 51.962 0.042 6.97 2.43 10.71
4/13/2021 6:30:00 PM 11.05 51.89 0.042 6.94 2.44 10.67
4/13/2021 6:45:00 PM 11.03 51.854 0.042 6.9 2.46 10.63
4/13/2021 7:00:00 PM 10.99 51.782 0.042 6.88 2.48 10.58
4/13/2021 7:15:00 PM 10.97 51.746 0.042 6.81 2.46 10.55
4/13/2021 7:30:00 PM 10.92 51.656 0.042 6.82 2.43 10.51
4/13/2021 7:45:00 PM 10.87 51.566 0.042 6.8 2.44 10.46
4/13/2021 8:00:00 PM 10.82 51.476 0.042 6.78 2.5 10.42
4/13/2021 8:15:00 PM 10.76 51.368 0.043 6.74 2.44 10.37
4/13/2021 8:30:00 PM 10.7 51.26 0.043 6.73 2.61 10.34
4/13/2021 8:45:00 PM 10.63 51.134 0.043 6.7 2.5 10.31
4/13/2021 9:00:00 PM 10.56 51.008 0.043 6.68 2.49 10.3
4/13/2021 9:15:00 PM 10.48 50.864 0.043 6.68 2.55 10.31
4/13/2021 9:30:00 PM 10.41 50.738 0.043 6.67 2.52 10.31
4/13/2021 9:45:00 PM 10.33 50.594 0.043 6.65 2.53 10.32
4/13/2021 10:00:00 PM 10.26 50.468 0.043 6.64 2.54 10.33
4/13/2021 10:15:00 PM 10.19 50.342 0.043 6.64 2.55 10.34
4/13/2021 10:30:00 PM 10.14 50.252 0.043 6.64 2.49 10.36
4/13/2021 10:45:00 PM 10.09 50.162 0.043 6.65 2.56 10.37
4/13/2021 11:00:00 PM 10.03 50.054 0.043 6.71 17.57 10.37
4/13/2021 11:15:00 PM 9.99 49.982 0.043 6.63 2.48 10.39
4/13/2021 11:30:00 PM 9.95 49.91 0.043 6.67 2.56 10.4
4/13/2021 11:45:00 PM 9.9 49.82 0.044 6.65 2.5 10.41
4/14/2021 12:00:00 AM 9.86 49.748 0.044 6.68 2.51 10.42
4/14/2021 12:15:00 AM 9.82 49.676 0.044 6.65 2.49 10.43
4/14/2021 12:30:00 AM 9.78 49.604 0.044 6.63 2.62 10.44
4/14/2021 12:45:00 AM 9.73 49.514 0.044 6.67 2.53 10.46
4/14/2021 1:00:00 AM 9.67 49.406 0.044 6.61 2.5 10.47
4/14/2021 1:15:00 AM 9.61 49.298 0.044 6.61 2.48 10.49
4/14/2021 1:30:00 AM 9.54 49.172 0.044 6.62 2.56 10.51
4/14/2021 1:45:00 AM 9.47 49.046 0.044 6.59 2.53 10.52
4/14/2021 2:00:00 AM 9.4 48.92 0.044 6.6 2.59 10.53
4/14/2021 2:15:00 AM 9.34 48.812 0.044 6.58 2.55 10.54
4/14/2021 2:30:00 AM 9.28 48.704 0.044 6.59 2.5 10.56
4/14/2021 2:45:00 AM 9.23 48.614 0.044 6.61 2.53 10.58
4/14/2021 3:00:00 AM 9.17 48.506 0.044 6.57 2.48 10.59
4/14/2021 3:15:00 AM 9.13 48.434 0.044 6.58 2.46 10.6
4/14/2021 3:30:00 AM 9.08 48.344 0.044 6.58 2.49 10.62
4/14/2021 3:45:00 AM 9.04 48.272 0.044 6.58 2.5 10.64
4/14/2021 4:00:00 AM 9 48.2 0.044 6.58 2.58 10.64
4/14/2021 4:15:00 AM 8.96 48.128 0.044 6.58 2.51 10.66
4/14/2021 4:30:00 AM 8.91 48.038 0.044 6.58 2.53 10.67
4/14/2021 4:45:00 AM 8.86 47.948 0.044 6.57 2.59 10.68
4/14/2021 5:00:00 AM 8.81 47.858 0.044 6.58 2.55 10.68
4/14/2021 5:15:00 AM 8.76 47.768 0.044 6.56 2.52 10.69
4/14/2021 5:30:00 AM 8.71 47.678 0.044 6.58 2.49 10.7
4/14/2021 5:45:00 AM 8.66 47.588 0.044 6.56 2.61 10.72
4/14/2021 6:00:00 AM 8.62 47.516 0.044 6.56 2.51 10.72
4/14/2021 6:15:00 AM 8.58 47.444 0.044 6.57 2.44 10.74
4/14/2021 6:30:00 AM 8.56 47.408 0.044 6.55 2.51 10.75
4/14/2021 6:45:00 AM 8.54 47.372 0.044 6.56 2.5 10.77
4/14/2021 7:00:00 AM 8.53 47.354 0.044 6.58 2.48 10.8
4/14/2021 7:15:00 AM 8.53 47.354 0.044 6.58 2.52 10.83
4/14/2021 7:30:00 AM 8.53 47.354 0.044 6.59 2.55 10.9
4/14/2021 7:45:00 AM 8.54 47.372 0.043 6.62 2.49 10.98
4/14/2021 8:00:00 AM 8.54 47.372 0.043 6.65 2.5 11.06
4/14/2021 8:15:00 AM 8.55 47.39 0.043 6.66 2.47 11.15
4/14/2021 8:30:00 AM 8.56 47.408 0.043 6.69 2.5 11.21
4/14/2021 8:45:00 AM 8.58 47.444 0.043 6.74 2.53 11.27
4/14/2021 9:00:00 AM 8.63 47.534 0.043 6.75 2.46 11.32
4/14/2021 9:15:00 AM 8.67 47.606 0.043 6.8 2.49 11.35
4/14/2021 9:30:00 AM 8.71 47.678 0.043 6.84 2.46 11.37
4/14/2021 9:45:00 AM 8.79 47.822 0.043 6.85 2.4 11.39
4/14/2021 10:00:00 AM 8.88 47.984 0.043 6.87 2.41 11.41
4/14/2021 10:15:00 AM 8.98 48.164 0.043 6.89 2.48 11.41
4/14/2021 10:30:00 AM 9.04 48.272 0.043 6.91 2.45 11.41
4/14/2021 10:45:00 AM 9.15 48.47 0.043 6.93 2.42 11.39
4/14/2021 11:00:00 AM 9.27 48.686 0.042 6.94 2.45 11.37
4/14/2021 11:15:00 AM 9.35 48.83 0.042 6.96 2.43 11.35
4/14/2021 11:30:00 AM 9.46 49.028 0.042 6.96 2.44 11.33
4/14/2021 11:45:00 AM 9.57 49.226 0.042 6.98 2.44 11.31
4/14/2021 12:00:00 PM 9.81 49.658 0.042 6.98 2.48 11.27
4/14/2021 12:15:00 PM 10.02 50.036 0.042 7 2.45 11.22
4/14/2021 12:30:00 PM 10.23 50.414 0.042 6.99 2.41 11.18
4/14/2021 12:45:00 PM 10.33 50.594 0.042 7 2.38 11.13
4/14/2021 1:00:00 PM 10.58 51.044 0.042 7.02 2.35 11.08
4/14/2021 1:15:00 PM 10.8 51.44 0.042 7 2.4 11.04
4/14/2021 1:30:00 PM 11.03 51.854 0.042 7.04 2.39 11
4/14/2021 1:45:00 PM 11.08 51.944 0.042 7.04 2.44 10.97
4/14/2021 2:00:00 PM 11.24 52.232 0.042 7.07 2.42 10.92
4/14/2021 2:15:00 PM 11.39 52.502 0.042 7.04 2.36 10.89
4/14/2021 2:30:00 PM 11.4 52.52 0.042 7.04 2.4 10.86
4/14/2021 2:45:00 PM 11.44 52.592 0.042 7.05 2.37 10.83
4/14/2021 3:00:00 PM 11.55 52.79 0.042 7.05 2.43 10.79
4/14/2021 3:15:00 PM 11.73 53.114 0.042 7.05 2.45 10.75
4/14/2021 3:30:00 PM 12.02 53.636 0.042 7.07 2.44 10.72
4/14/2021 3:45:00 PM 11.98 53.564 0.042 7.07 2.38 10.67
4/14/2021 4:00:00 PM 12.09 53.762 0.042 7.06 2.44 10.63
4/14/2021 4:15:00 PM 12.15 53.87 0.042 7.04 2.43 10.59
4/14/2021 4:30:00 PM 12.13 53.834 0.042 7.05 2.45 10.56
4/14/2021 4:45:00 PM 12.19 53.942 0.042 7.04 2.45 10.52
4/14/2021 5:00:00 PM 12.25 54.05 0.042 7.04 2.41 10.5
4/14/2021 5:15:00 PM 12.25 54.05 0.042 7.04 2.47 10.47
4/14/2021 5:30:00 PM 12.21 53.978 0.042 7.04 2.52 10.44
4/14/2021 5:45:00 PM 12.16 53.888 0.042 7.03 2.49 10.42
4/14/2021 6:00:00 PM 12.11 53.798 0.042 7.02 2.49 10.42
4/14/2021 6:15:00 PM 12.07 53.726 0.042 7 2.51 10.41
4/14/2021 6:30:00 PM 12.02 53.636 0.042 6.99 2.44 10.4
4/14/2021 6:45:00 PM 11.95 53.51 0.042 6.98 2.53 10.37
4/14/2021 7:00:00 PM 11.89 53.402 0.042 6.96 2.51 10.35
4/14/2021 7:15:00 PM 11.81 53.258 0.042 6.95 2.51 10.31
4/14/2021 7:30:00 PM 11.72 53.096 0.042 6.9 2.55 10.27
4/14/2021 7:45:00 PM 11.61 52.898 0.042 6.86 2.52 10.23
4/14/2021 8:00:00 PM 11.52 52.736 0.042 6.82 2.54 10.19
4/14/2021 8:15:00 PM 11.42 52.556 0.042 6.79 2.58 10.15
4/14/2021 8:30:00 PM 11.31 52.358 0.043 6.76 2.59 10.12
4/14/2021 8:45:00 PM 11.23 52.214 0.043 6.74 2.56 10.1
4/14/2021 9:00:00 PM 11.14 52.052 0.043 6.72 2.61 10.1
4/14/2021 9:15:00 PM 11.06 51.908 0.043 6.7 2.54 10.11
4/14/2021 9:30:00 PM 10.97 51.746 0.043 6.69 2.58 10.12
4/14/2021 9:45:00 PM 10.9 51.62 0.043 6.66 2.59 10.13
4/14/2021 10:00:00 PM 10.82 51.476 0.043 6.66 2.66 10.14
4/14/2021 10:15:00 PM 10.73 51.314 0.043 6.67 2.6 10.15
4/14/2021 10:30:00 PM 10.64 51.152 0.043 6.67 2.56 10.16
4/14/2021 10:45:00 PM 10.54 50.972 0.043 6.67 2.58 10.18
4/14/2021 11:00:00 PM 10.47 50.846 0.043 6.67 2.56 10.2
4/14/2021 11:15:00 PM 10.4 50.72 0.043 6.67 2.61 10.22
4/14/2021 11:30:00 PM 10.33 50.594 0.043 6.66 2.67 10.24
4/14/2021 11:45:00 PM 10.26 50.468 0.043 6.67 2.63 10.25
4/15/2021 12:00:00 AM 10.2 50.36 0.043 6.65 2.62 10.27
4/15/2021 12:15:00 AM 10.14 50.252 0.043 6.65 2.6 10.28
4/15/2021 12:30:00 AM 10.07 50.126 0.043 6.66 2.65 10.29
4/15/2021 12:45:00 AM 10.01 50.018 0.043 6.66 2.62 10.3
4/15/2021 1:00:00 AM 9.95 49.91 0.043 6.64 2.59 10.32
4/15/2021 1:15:00 AM 9.88 49.784 0.043 6.64 2.63 10.33
4/15/2021 1:30:00 AM 9.81 49.658 0.043 6.64 2.57 10.35
4/15/2021 1:45:00 AM 9.75 49.55 0.043 6.61 2.56 10.37
4/15/2021 2:00:00 AM 9.68 49.424 0.043 6.64 2.57 10.38
4/15/2021 2:15:00 AM 9.61 49.298 0.043 6.62 2.48 10.41
4/15/2021 2:30:00 AM 9.53 49.154 0.043 6.63 2.51 10.42
4/15/2021 2:45:00 AM 9.46 49.028 0.043 6.63 2.56 10.44
4/15/2021 3:00:00 AM 9.39 48.902 0.043 6.63 2.51 10.44
4/15/2021 3:15:00 AM 9.32 48.776 0.043 6.62 2.51 10.45
4/15/2021 3:30:00 AM 9.26 48.668 0.043 6.62 2.56 10.47
4/15/2021 3:45:00 AM 9.19 48.542 0.043 6.62 2.53 10.49
4/15/2021 4:00:00 AM 9.13 48.434 0.043 6.62 2.56 10.51
4/15/2021 4:15:00 AM 9.07 48.326 0.043 6.62 2.57 10.53
4/15/2021 4:30:00 AM 9.01 48.218 0.043 6.62 2.59 10.54
4/15/2021 4:45:00 AM 8.95 48.11 0.043 6.61 2.56 10.56
4/15/2021 5:00:00 AM 8.88 47.984 0.043 6.63 2.7 10.57
4/15/2021 5:15:00 AM 8.83 47.894 0.043 6.62 2.55 10.58
4/15/2021 5:30:00 AM 8.77 47.786 0.043 6.62 2.58 10.59
4/15/2021 5:45:00 AM 8.71 47.678 0.043 6.63 2.57 10.6
4/15/2021 6:00:00 AM 8.66 47.588 0.043 6.63 2.66 10.61
4/15/2021 6:15:00 AM 8.61 47.498 0.043 6.63 2.57 10.64
4/15/2021 6:30:00 AM 8.57 47.426 0.043 6.63 2.54 10.64
4/15/2021 6:45:00 AM 8.53 47.354 0.043 6.62 2.59 10.67
4/15/2021 7:00:00 AM 8.5 47.3 0.043 6.62 2.54 10.69
4/15/2021 7:15:00 AM 8.46 47.228 0.043 6.63 2.6 10.71
4/15/2021 7:30:00 AM 8.44 47.192 0.043 6.64 2.57 10.75
4/15/2021 7:45:00 AM 8.42 47.156 0.043 6.67 2.62 10.81
4/15/2021 8:00:00 AM 8.4 47.12 0.043 6.66 2.61 10.84
4/15/2021 8:15:00 AM 8.34 47.012 0.043 6.68 2.6 10.85
4/15/2021 8:30:00 AM 8.33 46.994 0.043 6.68 2.59 10.9
4/15/2021 8:45:00 AM 8.32 46.976 0.043 6.7 2.6 10.95
4/15/2021 9:00:00 AM 8.32 46.976 0.043 6.72 2.58 11.02
4/15/2021 9:15:00 AM 8.32 46.976 0.043 6.74 2.63 11.06
4/15/2021 9:30:00 AM 8.33 46.994 0.043 6.75 2.67 11.12
4/15/2021 9:45:00 AM 8.33 46.994 0.043 6.76 2.52 11.14
4/15/2021 10:00:00 AM 8.32 46.976 0.043 6.76 2.58 11.17
4/15/2021 10:15:00 AM 8.33 46.994 0.043 6.79 2.61 11.21
4/15/2021 10:30:00 AM 8.35 47.03 0.042 6.81 2.58 11.25
4/15/2021 10:45:00 AM 8.38 47.084 0.042 6.83 2.53 11.27
4/15/2021 11:00:00 AM 8.42 47.156 0.042 6.85 2.55 11.29
4/15/2021 11:15:00 AM 8.47 47.246 0.042 6.87 2.48 11.31
4/15/2021 11:30:00 AM 8.51 47.318 0.042 6.9 2.52 11.31
4/15/2021 11:45:00 AM 8.55 47.39 0.042 6.92 2.49 11.33
4/15/2021 12:00:00 PM 8.59 47.462 0.042 6.93 2.85 11.3
4/15/2021 12:15:00 PM 8.59 47.462 0.042 6.93 2.49 11.28
4/15/2021 12:30:00 PM 8.6 47.48 0.042 6.92 2.52 11.25
4/15/2021 12:45:00 PM 8.6 47.48 0.042 6.91 2.54 11.25
4/15/2021 1:00:00 PM 8.63 47.534 0.042 6.91 2.53 11.25
4/15/2021 1:15:00 PM 8.61 47.498 0.042 6.91 2.53 11.24
4/15/2021 1:30:00 PM 8.6 47.48 0.042 6.91 2.53 11.22
4/15/2021 1:45:00 PM 8.57 47.426 0.042 6.89 2.56 11.19
4/15/2021 2:00:00 PM 8.54 47.372 0.042 6.91 2.48 11.17
4/15/2021 2:15:00 PM 8.51 47.318 0.042 6.89 2.49 11.16
4/15/2021 2:30:00 PM 8.48 47.264 0.042 6.89 2.52 11.14
4/15/2021 2:45:00 PM 8.47 47.246 0.042 6.82 2.61 11.11
4/15/2021 3:00:00 PM 8.44 47.192 0.042 6.87 2.7 11.09
4/15/2021 3:15:00 PM 8.42 47.156 0.042 6.86 2.5 11.11
4/15/2021 3:30:00 PM 8.41 47.138 0.042 6.87 2.5 11.14
4/15/2021 3:45:00 PM 8.4 47.12 0.042 6.88 2.58 11.17
4/15/2021 4:00:00 PM 8.4 47.12 0.042 6.91 2.56 11.2
4/15/2021 4:15:00 PM 8.4 47.12 0.042 6.89 2.67 11.2
4/15/2021 4:30:00 PM 8.38 47.084 0.042 6.9 2.53 11.2
4/15/2021 4:45:00 PM 8.38 47.084 0.042 6.89 2.51 11.2
4/15/2021 5:00:00 PM 8.37 47.066 0.042 6.9 2.54 11.19
4/15/2021 5:15:00 PM 8.4 47.12 0.042 6.9 2.49 11.24
4/15/2021 5:30:00 PM 8.41 47.138 0.042 6.93 2.49 11.26
4/15/2021 5:45:00 PM 8.43 47.174 0.042 6.93 2.51 11.26
4/15/2021 6:00:00 PM 8.4 47.12 0.042 6.91 2.54 11.22
4/15/2021 6:15:00 PM 8.43 47.174 0.042 6.93 2.55 11.24
4/15/2021 6:30:00 PM 8.4 47.12 0.042 6.92 2.52 11.21
4/15/2021 6:45:00 PM 8.4 47.12 0.042 6.92 2.58 11.18
4/15/2021 7:00:00 PM 8.41 47.138 0.042 6.91 2.6 11.17
4/15/2021 7:15:00 PM 8.37 47.066 0.042 6.89 2.58 11.12
4/15/2021 7:30:00 PM 8.33 46.994 0.042 6.87 2.51 11.09
4/15/2021 7:45:00 PM 8.29 46.922 0.042 6.84 2.54 11.03
4/15/2021 8:00:00 PM 8.25 46.85 0.042 6.81 2.58 10.98
4/15/2021 8:15:00 PM 8.17 46.706 0.042 6.79 2.53 10.93
4/15/2021 8:30:00 PM 8.1 46.58 0.042 6.77 2.59 10.91
4/15/2021 8:45:00 PM 8.04 46.472 0.042 6.75 2.59 10.89
4/15/2021 9:00:00 PM 7.99 46.382 0.042 6.74 2.49 10.88
4/15/2021 9:15:00 PM 7.93 46.274 0.042 6.72 2.59 10.89
4/15/2021 9:30:00 PM 7.89 46.202 0.042 6.71 2.59 10.89
4/15/2021 9:45:00 PM 7.85 46.13 0.042 6.72 2.63 10.89
4/15/2021 10:00:00 PM 7.8 46.04 0.042 6.69 2.6 10.9
4/15/2021 10:15:00 PM 7.74 45.932 0.042 6.7 2.6 10.91
4/15/2021 10:30:00 PM 7.69 45.842 0.042 6.69 2.56 10.91
4/15/2021 10:45:00 PM 7.63 45.734 0.042 6.69 2.56 10.92
4/15/2021 11:00:00 PM 7.6 45.68 0.043 6.69 2.61 10.92
4/15/2021 11:15:00 PM 7.56 45.608 0.043 6.68 2.57 10.94
4/15/2021 11:30:00 PM 7.52 45.536 0.043 6.68 2.53 10.94
4/15/2021 11:45:00 PM 7.48 45.464 0.043 6.68 2.55 10.95
4/16/2021 12:00:00 AM 7.43 45.374 0.043 6.67 2.58 10.96
4/16/2021 12:15:00 AM 7.4 45.32 0.043 6.67 2.57 10.97
4/16/2021 12:30:00 AM 7.36 45.248 0.043 6.67 2.52 10.98
4/16/2021 12:45:00 AM 7.32 45.176 0.043 6.66 2.53 10.99
4/16/2021 1:00:00 AM 7.28 45.104 0.043 6.67 2.52 11
4/16/2021 1:15:00 AM 7.24 45.032 0.043 6.66 2.64 11.02
4/16/2021 1:30:00 AM 7.2 44.96 0.043 6.67 2.54 11.03
4/16/2021 1:45:00 AM 7.16 44.888 0.043 6.65 2.5 11.03
4/16/2021 2:00:00 AM 7.13 44.834 0.043 6.65 2.51 11.04
4/16/2021 2:15:00 AM 7.1 44.78 0.043 6.66 2.52 11.06
4/16/2021 2:30:00 AM 7.07 44.726 0.043 6.65 2.52 11.06
4/16/2021 2:45:00 AM 7.04 44.672 0.043 6.65 2.48 11.07
4/16/2021 3:00:00 AM 7.01 44.618 0.043 6.65 2.58 11.07
4/16/2021 3:15:00 AM 6.99 44.582 0.043 6.65 2.52 11.08
4/16/2021 3:30:00 AM 6.97 44.546 0.043 6.65 2.46 11.08
4/16/2021 3:45:00 AM 6.94 44.492 0.043 6.65 2.51 11.09
4/16/2021 4:00:00 AM 6.92 44.456 0.043 6.65 2.54 11.1
4/16/2021 4:15:00 AM 6.89 44.402 0.043 6.64 2.49 11.1
4/16/2021 4:30:00 AM 6.87 44.366 0.043 6.64 2.55 11.1
4/16/2021 4:45:00 AM 6.83 44.294 0.043 6.65 2.54 11.11
4/16/2021 5:00:00 AM 6.78 44.204 0.043 6.64 2.48 11.11
4/16/2021 5:15:00 AM 6.74 44.132 0.043 6.64 2.53 11.12
4/16/2021 5:30:00 AM 6.69 44.042 0.043 6.64 2.54 11.13
4/16/2021 5:45:00 AM 6.67 44.006 0.043 6.64 2.55 11.15
4/16/2021 6:00:00 AM 6.66 43.988 0.043 6.62 2.6 11.16
4/16/2021 6:15:00 AM 6.65 43.97 0.043 6.64 2.49 11.16
4/16/2021 6:30:00 AM 6.63 43.934 0.043 6.64 2.59 11.17
4/16/2021 6:45:00 AM 6.62 43.916 0.043 6.63 2.53 11.18
4/16/2021 7:00:00 AM 6.62 43.916 0.043 6.65 2.53 11.2
4/16/2021 7:15:00 AM 6.62 43.916 0.043 6.64 2.56 11.21
4/16/2021 7:30:00 AM 6.62 43.916 0.043 6.66 2.6 11.25
4/16/2021 7:45:00 AM 6.63 43.934 0.042 6.67 2.61 11.31
4/16/2021 8:00:00 AM 6.64 43.952 0.042 6.68 2.59 11.36
4/16/2021 8:15:00 AM 6.66 43.988 0.042 6.71 2.57 11.42
4/16/2021 8:30:00 AM 6.67 44.006 0.042 6.72 2.54 11.46
4/16/2021 8:45:00 AM 6.68 44.024 0.042 6.74 2.59 11.5
4/16/2021 9:00:00 AM 6.69 44.042 0.042 6.76 2.52 11.52
4/16/2021 9:15:00 AM 6.73 44.114 0.042 6.77 2.48 11.55
4/16/2021 9:30:00 AM 6.78 44.204 0.042 6.8 2.53 11.59
4/16/2021 9:45:00 AM 6.82 44.276 0.042 6.8 2.46 11.62
4/16/2021 10:00:00 AM 6.9 44.42 0.042 6.83 2.51 11.65
4/16/2021 10:15:00 AM 6.93 44.474 0.042 6.86 2.49 11.66
4/16/2021 10:30:00 AM 6.99 44.582 0.042 6.88 2.53 11.68
4/16/2021 10:45:00 AM